<?xml version='1.0' encoding='UTF-8'?><gpx version="1.1" creator="JPX - https://github.com/jenetics/jpx" xmlns="http://www.topografix.com/GPX/1/1"><trk><trkseg><trkpt lat="39.14136" lon="16.510415"><ele>1382.8000000000002</ele><time>2026-04-18T15:40:33.53Z</time></trkpt><trkpt lat="39.141405" lon="16.5103317"><ele>1381.6000000000001</ele><time>2026-04-18T15:40:39.533Z</time></trkpt><trkpt lat="39.1413883" lon="16.51016"><ele>1380.4</ele><time>2026-04-18T15:40:50.531Z</time></trkpt><trkpt lat="39.1413833" lon="16.51006"><ele>1379.2</ele><time>2026-04-18T15:40:51.531Z</time></trkpt><trkpt lat="39.1413817" lon="16.50995"><ele>1378.0</ele><time>2026-04-18T15:40:52.534Z</time></trkpt><trkpt lat="39.14138" lon="16.5098217"><ele>1378.0</ele><time>2026-04-18T15:40:53.532Z</time></trkpt><trkpt lat="39.141385" lon="16.509695"><ele>1378.0</ele><time>2026-04-18T15:40:54.533Z</time></trkpt><trkpt lat="39.1413917" lon="16.50958"><ele>1378.0</ele><time>2026-04-18T15:40:55.536Z</time></trkpt><trkpt lat="39.1414017" lon="16.5094633"><ele>1378.0</ele><time>2026-04-18T15:40:56.533Z</time></trkpt><trkpt lat="39.14141" lon="16.5093417"><ele>1378.0</ele><time>2026-04-18T15:40:57.536Z</time></trkpt><trkpt lat="39.1414183" lon="16.509225"><ele>1377.8333333333333</ele><time>2026-04-18T15:40:58.532Z</time></trkpt><trkpt lat="39.1414317" lon="16.5091183"><ele>1377.6666666666665</ele><time>2026-04-18T15:40:59.534Z</time></trkpt><trkpt lat="39.141445" lon="16.50901"><ele>1377.5</ele><time>2026-04-18T15:41:00.532Z</time></trkpt><trkpt lat="39.1414533" lon="16.5089167"><ele>1377.3333333333333</ele><time>2026-04-18T15:41:01.539Z</time></trkpt><trkpt lat="39.1414567" lon="16.5088317"><ele>1377.1666666666667</ele><time>2026-04-18T15:41:02.535Z</time></trkpt><trkpt lat="39.1414517" lon="16.5086867"><ele>1377.0</ele><time>2026-04-18T15:41:04.536Z</time></trkpt><trkpt lat="39.1414467" lon="16.5085383"><ele>1376.3999999999999</ele><time>2026-04-18T15:41:06.531Z</time></trkpt><trkpt lat="39.1414383" lon="16.5083933"><ele>1375.8</ele><time>2026-04-18T15:41:08.537Z</time></trkpt><trkpt lat="39.1414283" lon="16.5082483"><ele>1375.2</ele><time>2026-04-18T15:41:10.531Z</time></trkpt><trkpt lat="39.14142" lon="16.508135"><ele>1374.6</ele><time>2026-04-18T15:41:12.533Z</time></trkpt><trkpt lat="39.14141" lon="16.5080417"><ele>1374.0</ele><time>2026-04-18T15:41:14.533Z</time></trkpt><trkpt lat="39.1413917" lon="16.50794"><ele>1374.0</ele><time>2026-04-18T15:41:16.539Z</time></trkpt><trkpt lat="39.1413233" lon="16.5078367"><ele>1374.0</ele><time>2026-04-18T15:41:18.535Z</time></trkpt><trkpt lat="39.1412483" lon="16.5077567"><ele>1374.0</ele><time>2026-04-18T15:41:20.536Z</time></trkpt><trkpt lat="39.1411683" lon="16.50769"><ele>1374.0</ele><time>2026-04-18T15:41:22.533Z</time></trkpt><trkpt lat="39.1411017" lon="16.50761"><ele>1374.0</ele><time>2026-04-18T15:41:24.533Z</time></trkpt><trkpt lat="39.1410683" lon="16.5074717"><ele>1374.0</ele><time>2026-04-18T15:41:26.537Z</time></trkpt><trkpt lat="39.1410633" lon="16.5073783"><ele>1374.0</ele><time>2026-04-18T15:41:27.53Z</time></trkpt><trkpt lat="39.1410717" lon="16.507295"><ele>1374.0</ele><time>2026-04-18T15:41:28.535Z</time></trkpt><trkpt lat="39.1410917" lon="16.5072"><ele>1374.0</ele><time>2026-04-18T15:41:29.535Z</time></trkpt><trkpt lat="39.1411217" lon="16.50711"><ele>1374.0</ele><time>2026-04-18T15:41:30.53Z</time></trkpt><trkpt lat="39.1411667" lon="16.5070017"><ele>1374.0</ele><time>2026-04-18T15:41:31.534Z</time></trkpt><trkpt lat="39.1412183" lon="16.5069033"><ele>1373.0</ele><time>2026-04-18T15:41:32.533Z</time></trkpt><trkpt lat="39.141275" lon="16.5068233"><ele>1372.0</ele><time>2026-04-18T15:41:33.536Z</time></trkpt><trkpt lat="39.1413433" lon="16.5067417"><ele>1371.0</ele><time>2026-04-18T15:41:34.531Z</time></trkpt><trkpt lat="39.1414083" lon="16.50667"><ele>1370.0</ele><time>2026-04-18T15:41:35.533Z</time></trkpt><trkpt lat="39.1414633" lon="16.5065983"><ele>1369.0</ele><time>2026-04-18T15:41:36.534Z</time></trkpt><trkpt lat="39.1415133" lon="16.5065167"><ele>1368.0</ele><time>2026-04-18T15:41:37.536Z</time></trkpt><trkpt lat="39.14156" lon="16.50643"><ele>1368.0</ele><time>2026-04-18T15:41:38.539Z</time></trkpt><trkpt lat="39.1416" lon="16.5063333"><ele>1368.0</ele><time>2026-04-18T15:41:39.531Z</time></trkpt><trkpt lat="39.1416383" lon="16.506235"><ele>1368.0</ele><time>2026-04-18T15:41:40.536Z</time></trkpt><trkpt lat="39.141675" lon="16.5061317"><ele>1368.0</ele><time>2026-04-18T15:41:41.531Z</time></trkpt><trkpt lat="39.141715" lon="16.5060333"><ele>1368.0</ele><time>2026-04-18T15:41:42.531Z</time></trkpt><trkpt lat="39.1417617" lon="16.5059417"><ele>1368.0</ele><time>2026-04-18T15:41:43.532Z</time></trkpt><trkpt lat="39.1418017" lon="16.50585"><ele>1371.0</ele><time>2026-04-18T15:41:44.53Z</time></trkpt><trkpt lat="39.1418367" lon="16.5057583"><ele>1374.0</ele><time>2026-04-18T15:41:45.531Z</time></trkpt><trkpt lat="39.1418683" lon="16.50565"><ele>1377.0</ele><time>2026-04-18T15:41:46.53Z</time></trkpt><trkpt lat="39.1418833" lon="16.5052917"><ele>1380.0</ele><time>2026-04-18T15:41:50.531Z</time></trkpt><trkpt lat="39.1419117" lon="16.5051"><ele>1380.0</ele><time>2026-04-18T15:41:51.535Z</time></trkpt><trkpt lat="39.14188" lon="16.50499"><ele>1380.0</ele><time>2026-04-18T15:41:52.531Z</time></trkpt><trkpt lat="39.1418517" lon="16.5048783"><ele>1380.0</ele><time>2026-04-18T15:41:53.534Z</time></trkpt><trkpt lat="39.1418333" lon="16.50474"><ele>1380.0</ele><time>2026-04-18T15:41:54.533Z</time></trkpt><trkpt lat="39.1418117" lon="16.504595"><ele>1380.0</ele><time>2026-04-18T15:41:55.532Z</time></trkpt><trkpt lat="39.1417967" lon="16.5044417"><ele>1379.0</ele><time>2026-04-18T15:41:56.533Z</time></trkpt><trkpt lat="39.1417517" lon="16.5043583"><ele>1378.0</ele><time>2026-04-18T15:41:57.532Z</time></trkpt><trkpt lat="39.1417267" lon="16.5042317"><ele>1377.0</ele><time>2026-04-18T15:41:58.532Z</time></trkpt><trkpt lat="39.1417133" lon="16.5041283"><ele>1376.0</ele><time>2026-04-18T15:41:59.531Z</time></trkpt><trkpt lat="39.1417" lon="16.5039967"><ele>1375.0</ele><time>2026-04-18T15:42:00.531Z</time></trkpt><trkpt lat="39.1416683" lon="16.50392"><ele>1374.0</ele><time>2026-04-18T15:42:01.533Z</time></trkpt><trkpt lat="39.1416667" lon="16.5037883"><ele>1374.8000000000002</ele><time>2026-04-18T15:42:02.534Z</time></trkpt><trkpt lat="39.1416617" lon="16.5036467"><ele>1375.6000000000001</ele><time>2026-04-18T15:42:03.534Z</time></trkpt><trkpt lat="39.14164" lon="16.5035133"><ele>1376.4</ele><time>2026-04-18T15:42:04.532Z</time></trkpt><trkpt lat="39.1416167" lon="16.50336"><ele>1377.2</ele><time>2026-04-18T15:42:05.534Z</time></trkpt><trkpt lat="39.1415483" lon="16.5033183"><ele>1378.0</ele><time>2026-04-18T15:42:06.533Z</time></trkpt><trkpt lat="39.1415033" lon="16.5031483"><ele>1381.0</ele><time>2026-04-18T15:42:08.531Z</time></trkpt><trkpt lat="39.141475" lon="16.5030417"><ele>1384.0</ele><time>2026-04-18T15:42:09.533Z</time></trkpt><trkpt lat="39.14144" lon="16.50291"><ele>1387.0</ele><time>2026-04-18T15:42:10.533Z</time></trkpt><trkpt lat="39.1414067" lon="16.5027867"><ele>1390.0</ele><time>2026-04-18T15:42:11.53Z</time></trkpt><trkpt lat="39.14137" lon="16.5025667"><ele>1390.0</ele><time>2026-04-18T15:42:14.531Z</time></trkpt><trkpt lat="39.1413633" lon="16.5024333"><ele>1390.0</ele><time>2026-04-18T15:42:15.532Z</time></trkpt><trkpt lat="39.1413867" lon="16.5023533"><ele>1390.0</ele><time>2026-04-18T15:42:16.532Z</time></trkpt><trkpt lat="39.1414167" lon="16.5022733"><ele>1390.0</ele><time>2026-04-18T15:42:17.533Z</time></trkpt><trkpt lat="39.1414267" lon="16.502175"><ele>1390.0</ele><time>2026-04-18T15:42:18.532Z</time></trkpt><trkpt lat="39.1414267" lon="16.5020383"><ele>1390.0</ele><time>2026-04-18T15:42:19.538Z</time></trkpt><trkpt lat="39.141445" lon="16.5019517"><ele>1388.8</ele><time>2026-04-18T15:42:20.61Z</time></trkpt><trkpt lat="39.1414283" lon="16.5018183"><ele>1387.6</ele><time>2026-04-18T15:42:21.535Z</time></trkpt><trkpt lat="39.1413533" lon="16.5016483"><ele>1386.4</ele><time>2026-04-18T15:42:22.531Z</time></trkpt><trkpt lat="39.141285" lon="16.50156"><ele>1385.2</ele><time>2026-04-18T15:42:23.531Z</time></trkpt><trkpt lat="39.1412267" lon="16.5014767"><ele>1384.0</ele><time>2026-04-18T15:42:24.532Z</time></trkpt><trkpt lat="39.1412333" lon="16.5013567"><ele>1384.0</ele><time>2026-04-18T15:42:26.537Z</time></trkpt><trkpt lat="39.14122" lon="16.5012667"><ele>1384.0</ele><time>2026-04-18T15:42:27.532Z</time></trkpt><trkpt lat="39.141205" lon="16.5011717"><ele>1384.0</ele><time>2026-04-18T15:42:28.534Z</time></trkpt><trkpt lat="39.1412217" lon="16.501085"><ele>1384.0</ele><time>2026-04-18T15:42:29.531Z</time></trkpt><trkpt lat="39.1412117" lon="16.5009817"><ele>1384.0</ele><time>2026-04-18T15:42:30.53Z</time></trkpt><trkpt lat="39.14122" lon="16.5008883"><ele>1384.0</ele><time>2026-04-18T15:42:31.533Z</time></trkpt><trkpt lat="39.1412133" lon="16.5007967"><ele>1384.0</ele><time>2026-04-18T15:42:32.534Z</time></trkpt><trkpt lat="39.1412167" lon="16.5007117"><ele>1384.2</ele><time>2026-04-18T15:42:33.534Z</time></trkpt><trkpt lat="39.141215" lon="16.50063"><ele>1384.4</ele><time>2026-04-18T15:42:34.537Z</time></trkpt><trkpt lat="39.1412083" lon="16.5005483"><ele>1384.6</ele><time>2026-04-18T15:42:35.532Z</time></trkpt><trkpt lat="39.1412167" lon="16.5003983"><ele>1384.8</ele><time>2026-04-18T15:42:37.533Z</time></trkpt><trkpt lat="39.1412117" lon="16.5002633"><ele>1385.0</ele><time>2026-04-18T15:42:39.532Z</time></trkpt><trkpt lat="39.1412117" lon="16.5001317"><ele>1385.4</ele><time>2026-04-18T15:42:41.53Z</time></trkpt><trkpt lat="39.1412233" lon="16.4999817"><ele>1385.8</ele><time>2026-04-18T15:42:43.533Z</time></trkpt><trkpt lat="39.141235" lon="16.4998317"><ele>1386.1999999999998</ele><time>2026-04-18T15:42:45.537Z</time></trkpt><trkpt lat="39.1412533" lon="16.4996717"><ele>1386.6</ele><time>2026-04-18T15:42:47.531Z</time></trkpt><trkpt lat="39.1412667" lon="16.4995883"><ele>1387.0</ele><time>2026-04-18T15:42:48.529Z</time></trkpt><trkpt lat="39.1412917" lon="16.4995067"><ele>1387.0</ele><time>2026-04-18T15:42:49.529Z</time></trkpt><trkpt lat="39.1413183" lon="16.499425"><ele>1387.0</ele><time>2026-04-18T15:42:50.534Z</time></trkpt><trkpt lat="39.1413517" lon="16.4993417"><ele>1387.0</ele><time>2026-04-18T15:42:51.53Z</time></trkpt><trkpt lat="39.141385" lon="16.4992633"><ele>1387.0</ele><time>2026-04-18T15:42:52.53Z</time></trkpt><trkpt lat="39.1414133" lon="16.4991733"><ele>1387.0</ele><time>2026-04-18T15:42:53.53Z</time></trkpt><trkpt lat="39.14144" lon="16.49908"><ele>1387.0</ele><time>2026-04-18T15:42:54.531Z</time></trkpt><trkpt lat="39.1414667" lon="16.49899"><ele>1387.0</ele><time>2026-04-18T15:42:55.533Z</time></trkpt><trkpt lat="39.141495" lon="16.4989033"><ele>1387.0</ele><time>2026-04-18T15:42:56.53Z</time></trkpt><trkpt lat="39.14152" lon="16.4988133"><ele>1387.0</ele><time>2026-04-18T15:42:57.535Z</time></trkpt><trkpt lat="39.1415417" lon="16.4987167"><ele>1387.0</ele><time>2026-04-18T15:42:58.533Z</time></trkpt><trkpt lat="39.141585" lon="16.4986267"><ele>1387.0</ele><time>2026-04-18T15:42:59.532Z</time></trkpt><trkpt lat="39.1416033" lon="16.4985317"><ele>1387.0</ele><time>2026-04-18T15:43:00.531Z</time></trkpt><trkpt lat="39.14163" lon="16.4984383"><ele>1387.0</ele><time>2026-04-18T15:43:01.53Z</time></trkpt><trkpt lat="39.1416667" lon="16.4983517"><ele>1386.6</ele><time>2026-04-18T15:43:02.53Z</time></trkpt><trkpt lat="39.1416867" lon="16.49827"><ele>1386.1999999999998</ele><time>2026-04-18T15:43:03.532Z</time></trkpt><trkpt lat="39.141695" lon="16.498185"><ele>1385.8</ele><time>2026-04-18T15:43:04.533Z</time></trkpt><trkpt lat="39.1416767" lon="16.4980317"><ele>1385.4</ele><time>2026-04-18T15:43:06.532Z</time></trkpt><trkpt lat="39.1416667" lon="16.4978817"><ele>1385.0</ele><time>2026-04-18T15:43:08.532Z</time></trkpt><trkpt lat="39.1416583" lon="16.4977533"><ele>1385.0</ele><time>2026-04-18T15:43:10.532Z</time></trkpt><trkpt lat="39.1416433" lon="16.4976433"><ele>1385.0</ele><time>2026-04-18T15:43:12.532Z</time></trkpt><trkpt lat="39.141685" lon="16.4975333"><ele>1385.0</ele><time>2026-04-18T15:43:14.534Z</time></trkpt><trkpt lat="39.14177" lon="16.497455"><ele>1385.0</ele><time>2026-04-18T15:43:16.53Z</time></trkpt><trkpt lat="39.1418583" lon="16.497365"><ele>1385.0</ele><time>2026-04-18T15:43:18.531Z</time></trkpt><trkpt lat="39.141945" lon="16.4972583"><ele>1385.0</ele><time>2026-04-18T15:43:20.534Z</time></trkpt><trkpt lat="39.142015" lon="16.4971283"><ele>1385.0</ele><time>2026-04-18T15:43:22.53Z</time></trkpt><trkpt lat="39.1420683" lon="16.4969867"><ele>1385.0</ele><time>2026-04-18T15:43:24.531Z</time></trkpt><trkpt lat="39.1420767" lon="16.496835"><ele>1385.0</ele><time>2026-04-18T15:43:26.532Z</time></trkpt><trkpt lat="39.1420717" lon="16.496675"><ele>1383.0</ele><time>2026-04-18T15:43:28.53Z</time></trkpt><trkpt lat="39.1420567" lon="16.4965883"><ele>1381.0</ele><time>2026-04-18T15:43:29.53Z</time></trkpt><trkpt lat="39.14204" lon="16.4964383"><ele>1379.0</ele><time>2026-04-18T15:43:31.532Z</time></trkpt><trkpt lat="39.142035" lon="16.49627"><ele>1377.0</ele><time>2026-04-18T15:43:33.532Z</time></trkpt><trkpt lat="39.1420267" lon="16.4961267"><ele>1375.0</ele><time>2026-04-18T15:43:35.531Z</time></trkpt><trkpt lat="39.142055" lon="16.495995"><ele>1373.8333333333333</ele><time>2026-04-18T15:43:37.531Z</time></trkpt><trkpt lat="39.1420733" lon="16.4958867"><ele>1372.6666666666665</ele><time>2026-04-18T15:43:39.533Z</time></trkpt><trkpt lat="39.14206" lon="16.4958033"><ele>1371.5</ele><time>2026-04-18T15:43:40.53Z</time></trkpt><trkpt lat="39.1420317" lon="16.495665"><ele>1370.3333333333333</ele><time>2026-04-18T15:43:42.531Z</time></trkpt><trkpt lat="39.14203" lon="16.495555"><ele>1369.1666666666667</ele><time>2026-04-18T15:43:44.532Z</time></trkpt><trkpt lat="39.1420867" lon="16.49547"><ele>1368.0</ele><time>2026-04-18T15:43:46.533Z</time></trkpt><trkpt lat="39.1420883" lon="16.4953517"><ele>1368.0</ele><time>2026-04-18T15:43:48.533Z</time></trkpt><trkpt lat="39.142075" lon="16.49527"><ele>1368.0</ele><time>2026-04-18T15:43:49.531Z</time></trkpt><trkpt lat="39.1421033" lon="16.4951117"><ele>1368.0</ele><time>2026-04-18T15:43:51.535Z</time></trkpt><trkpt lat="39.1421067" lon="16.4949583"><ele>1368.0</ele><time>2026-04-18T15:43:53.535Z</time></trkpt><trkpt lat="39.1420867" lon="16.4948233"><ele>1368.0</ele><time>2026-04-18T15:43:55.533Z</time></trkpt><trkpt lat="39.14207" lon="16.494745"><ele>1368.0</ele><time>2026-04-18T15:43:56.535Z</time></trkpt><trkpt lat="39.1420467" lon="16.4946533"><ele>1368.0</ele><time>2026-04-18T15:43:57.53Z</time></trkpt><trkpt lat="39.142005" lon="16.4945917"><ele>1368.0</ele><time>2026-04-18T15:43:58.535Z</time></trkpt><trkpt lat="39.14197" lon="16.4945067"><ele>1368.0</ele><time>2026-04-18T15:43:59.532Z</time></trkpt><trkpt lat="39.141915" lon="16.4944267"><ele>1368.0</ele><time>2026-04-18T15:44:00.533Z</time></trkpt><trkpt lat="39.141855" lon="16.4943367"><ele>1368.0</ele><time>2026-04-18T15:44:01.532Z</time></trkpt><trkpt lat="39.1417783" lon="16.494285"><ele>1371.6666666666667</ele><time>2026-04-18T15:44:02.531Z</time></trkpt><trkpt lat="39.1416983" lon="16.4942583"><ele>1375.3333333333333</ele><time>2026-04-18T15:44:03.531Z</time></trkpt><trkpt lat="39.1416183" lon="16.4942383"><ele>1379.0</ele><time>2026-04-18T15:44:04.531Z</time></trkpt><trkpt lat="39.1415283" lon="16.494235"><ele>1382.6666666666665</ele><time>2026-04-18T15:44:05.53Z</time></trkpt><trkpt lat="39.1414433" lon="16.494235"><ele>1386.3333333333333</ele><time>2026-04-18T15:44:06.536Z</time></trkpt><trkpt lat="39.1413567" lon="16.494185"><ele>1390.0</ele><time>2026-04-18T15:44:07.53Z</time></trkpt><trkpt lat="39.1412683" lon="16.4942167"><ele>1390.0</ele><time>2026-04-18T15:44:08.531Z</time></trkpt><trkpt lat="39.1411533" lon="16.4942567"><ele>1390.0</ele><time>2026-04-18T15:44:09.53Z</time></trkpt><trkpt lat="39.1410467" lon="16.4942467"><ele>1390.0</ele><time>2026-04-18T15:44:10.531Z</time></trkpt><trkpt lat="39.1409517" lon="16.494245"><ele>1390.0</ele><time>2026-04-18T15:44:11.531Z</time></trkpt><trkpt lat="39.1408633" lon="16.4942633"><ele>1390.0</ele><time>2026-04-18T15:44:12.535Z</time></trkpt><trkpt lat="39.14079" lon="16.4942517"><ele>1390.0</ele><time>2026-04-18T15:44:13.531Z</time></trkpt><trkpt lat="39.14072" lon="16.4942483"><ele>1390.0</ele><time>2026-04-18T15:44:14.538Z</time></trkpt><trkpt lat="39.1406533" lon="16.4942233"><ele>1390.0</ele><time>2026-04-18T15:44:15.536Z</time></trkpt><trkpt lat="39.1405917" lon="16.494205"><ele>1390.0</ele><time>2026-04-18T15:44:16.53Z</time></trkpt><trkpt lat="39.14049" lon="16.494125"><ele>1390.0</ele><time>2026-04-18T15:44:18.533Z</time></trkpt><trkpt lat="39.1404217" lon="16.4940117"><ele>1390.0</ele><time>2026-04-18T15:44:20.534Z</time></trkpt><trkpt lat="39.1403667" lon="16.4938683"><ele>1390.8333333333333</ele><time>2026-04-18T15:44:22.533Z</time></trkpt><trkpt lat="39.1403817" lon="16.49374"><ele>1391.6666666666665</ele><time>2026-04-18T15:44:23.532Z</time></trkpt><trkpt lat="39.140355" lon="16.4936267"><ele>1392.5</ele><time>2026-04-18T15:44:24.533Z</time></trkpt><trkpt lat="39.14034" lon="16.49354"><ele>1393.3333333333333</ele><time>2026-04-18T15:44:25.532Z</time></trkpt><trkpt lat="39.1403117" lon="16.4934483"><ele>1394.1666666666667</ele><time>2026-04-18T15:44:26.532Z</time></trkpt><trkpt lat="39.1402967" lon="16.4933417"><ele>1395.0</ele><time>2026-04-18T15:44:27.532Z</time></trkpt><trkpt lat="39.1402883" lon="16.4932283"><ele>1395.0</ele><time>2026-04-18T15:44:28.533Z</time></trkpt><trkpt lat="39.1402617" lon="16.4931317"><ele>1395.0</ele><time>2026-04-18T15:44:29.532Z</time></trkpt><trkpt lat="39.1402167" lon="16.4930517"><ele>1395.0</ele><time>2026-04-18T15:44:30.531Z</time></trkpt><trkpt lat="39.1401917" lon="16.4929683"><ele>1395.0</ele><time>2026-04-18T15:44:31.532Z</time></trkpt><trkpt lat="39.1401617" lon="16.4928967"><ele>1395.0</ele><time>2026-04-18T15:44:32.531Z</time></trkpt><trkpt lat="39.1401117" lon="16.492745"><ele>1395.0</ele><time>2026-04-18T15:44:34.536Z</time></trkpt><trkpt lat="39.140095" lon="16.4926333"><ele>1401.0</ele><time>2026-04-18T15:44:36.535Z</time></trkpt></trkseg><trkseg><trkpt lat="39.1369367" lon="16.4920017"><ele>1420.0</ele><time>2026-04-18T15:48:52.662Z</time></trkpt><trkpt lat="39.1369417" lon="16.4920833"><ele>1420.0</ele><time>2026-04-18T15:48:56.53Z</time></trkpt><trkpt lat="39.1369067" lon="16.492195"><ele>1420.0</ele><time>2026-04-18T15:49:01.533Z</time></trkpt><trkpt lat="39.1367983" lon="16.4922633"><ele>1420.0</ele><time>2026-04-18T15:49:03.535Z</time></trkpt><trkpt lat="39.1367317" lon="16.49229"><ele>1420.0</ele><time>2026-04-18T15:49:04.531Z</time></trkpt><trkpt lat="39.1366667" lon="16.49231"><ele>1420.0</ele><time>2026-04-18T15:49:05.531Z</time></trkpt><trkpt lat="39.1366017" lon="16.4923317"><ele>1415.8333333333333</ele><time>2026-04-18T15:49:06.531Z</time></trkpt><trkpt lat="39.1364733" lon="16.492355"><ele>1411.6666666666665</ele><time>2026-04-18T15:49:08.533Z</time></trkpt><trkpt lat="39.1364033" lon="16.4923483"><ele>1407.5</ele><time>2026-04-18T15:49:09.533Z</time></trkpt><trkpt lat="39.13634" lon="16.492325"><ele>1403.3333333333333</ele><time>2026-04-18T15:49:10.532Z</time></trkpt><trkpt lat="39.1362717" lon="16.4922933"><ele>1399.1666666666667</ele><time>2026-04-18T15:49:11.534Z</time></trkpt><trkpt lat="39.1362167" lon="16.4922533"><ele>1395.0</ele><time>2026-04-18T15:49:12.536Z</time></trkpt><trkpt lat="39.1361317" lon="16.4921467"><ele>1396.1666666666667</ele><time>2026-04-18T15:49:14.533Z</time></trkpt><trkpt lat="39.136095" lon="16.4920367"><ele>1397.3333333333333</ele><time>2026-04-18T15:49:16.533Z</time></trkpt><trkpt lat="39.1361183" lon="16.4919183"><ele>1398.5</ele><time>2026-04-18T15:49:18.535Z</time></trkpt><trkpt lat="39.136185" lon="16.491795"><ele>1399.6666666666665</ele><time>2026-04-18T15:49:20.536Z</time></trkpt><trkpt lat="39.1362333" lon="16.4917333"><ele>1400.8333333333333</ele><time>2026-04-18T15:49:21.532Z</time></trkpt><trkpt lat="39.1362883" lon="16.491665"><ele>1402.0</ele><time>2026-04-18T15:49:22.531Z</time></trkpt><trkpt lat="39.1363417" lon="16.49159"><ele>1402.0</ele><time>2026-04-18T15:49:23.533Z</time></trkpt><trkpt lat="39.1363983" lon="16.4915117"><ele>1402.0</ele><time>2026-04-18T15:49:24.532Z</time></trkpt><trkpt lat="39.1364433" lon="16.4914283"><ele>1402.0</ele><time>2026-04-18T15:49:25.534Z</time></trkpt><trkpt lat="39.1364833" lon="16.4913483"><ele>1402.0</ele><time>2026-04-18T15:49:26.534Z</time></trkpt><trkpt lat="39.13651" lon="16.491265"><ele>1402.0</ele><time>2026-04-18T15:49:27.533Z</time></trkpt><trkpt lat="39.1365183" lon="16.4911817"><ele>1402.0</ele><time>2026-04-18T15:49:28.538Z</time></trkpt><trkpt lat="39.13648" lon="16.491045"><ele>1404.1666666666665</ele><time>2026-04-18T15:49:30.535Z</time></trkpt><trkpt lat="39.1364267" lon="16.490995"><ele>1406.3333333333333</ele><time>2026-04-18T15:49:31.534Z</time></trkpt><trkpt lat="39.1363633" lon="16.4909533"><ele>1408.5</ele><time>2026-04-18T15:49:32.534Z</time></trkpt><trkpt lat="39.136285" lon="16.4909067"><ele>1410.6666666666667</ele><time>2026-04-18T15:49:33.533Z</time></trkpt><trkpt lat="39.1362133" lon="16.4908567"><ele>1412.8333333333335</ele><time>2026-04-18T15:49:34.535Z</time></trkpt><trkpt lat="39.1361433" lon="16.4908117"><ele>1415.0</ele><time>2026-04-18T15:49:35.535Z</time></trkpt><trkpt lat="39.13608" lon="16.4907667"><ele>1415.0</ele><time>2026-04-18T15:49:36.534Z</time></trkpt><trkpt lat="39.136025" lon="16.4907233"><ele>1415.0</ele><time>2026-04-18T15:49:37.536Z</time></trkpt><trkpt lat="39.1359667" lon="16.49068"><ele>1415.0</ele><time>2026-04-18T15:49:38.531Z</time></trkpt><trkpt lat="39.135905" lon="16.4906383"><ele>1415.0</ele><time>2026-04-18T15:49:39.532Z</time></trkpt><trkpt lat="39.1358417" lon="16.4906017"><ele>1415.0</ele><time>2026-04-18T15:49:40.532Z</time></trkpt><trkpt lat="39.1357733" lon="16.4905867"><ele>1415.0</ele><time>2026-04-18T15:49:41.531Z</time></trkpt><trkpt lat="39.135705" lon="16.4905717"><ele>1415.0</ele><time>2026-04-18T15:49:42.53Z</time></trkpt><trkpt lat="39.1356267" lon="16.4905667"><ele>1415.1666666666667</ele><time>2026-04-18T15:49:43.536Z</time></trkpt><trkpt lat="39.13555" lon="16.4905617"><ele>1415.3333333333335</ele><time>2026-04-18T15:49:44.533Z</time></trkpt><trkpt lat="39.1354733" lon="16.4905433"><ele>1415.5</ele><time>2026-04-18T15:49:45.535Z</time></trkpt><trkpt lat="39.1354" lon="16.4905167"><ele>1415.6666666666667</ele><time>2026-04-18T15:49:46.534Z</time></trkpt><trkpt lat="39.135325" lon="16.4904883"><ele>1415.8333333333333</ele><time>2026-04-18T15:49:47.532Z</time></trkpt><trkpt lat="39.1352517" lon="16.4904583"><ele>1416.0</ele><time>2026-04-18T15:49:48.533Z</time></trkpt><trkpt lat="39.13519" lon="16.4904183"><ele>1416.0</ele><time>2026-04-18T15:49:49.533Z</time></trkpt><trkpt lat="39.1350783" lon="16.490355"><ele>1416.0</ele><time>2026-04-18T15:49:51.534Z</time></trkpt><trkpt lat="39.1349783" lon="16.4903517"><ele>1416.0</ele><time>2026-04-18T15:49:53.53Z</time></trkpt><trkpt lat="39.1348917" lon="16.4904017"><ele>1416.0</ele><time>2026-04-18T15:49:55.534Z</time></trkpt><trkpt lat="39.1348017" lon="16.4904817"><ele>1416.0</ele><time>2026-04-18T15:49:57.533Z</time></trkpt><trkpt lat="39.134725" lon="16.4905517"><ele>1413.1666666666667</ele><time>2026-04-18T15:49:59.533Z</time></trkpt><trkpt lat="39.1346433" lon="16.4906233"><ele>1410.3333333333333</ele><time>2026-04-18T15:50:01.535Z</time></trkpt><trkpt lat="39.13455" lon="16.490705"><ele>1407.5</ele><time>2026-04-18T15:50:03.534Z</time></trkpt><trkpt lat="39.1344917" lon="16.4907633"><ele>1404.6666666666665</ele><time>2026-04-18T15:50:04.532Z</time></trkpt><trkpt lat="39.134435" lon="16.4908217"><ele>1401.8333333333333</ele><time>2026-04-18T15:50:05.533Z</time></trkpt><trkpt lat="39.1343817" lon="16.4908717"><ele>1399.0</ele><time>2026-04-18T15:50:06.534Z</time></trkpt><trkpt lat="39.1343317" lon="16.4909333"><ele>1399.0</ele><time>2026-04-18T15:50:07.533Z</time></trkpt><trkpt lat="39.1342767" lon="16.491"><ele>1399.0</ele><time>2026-04-18T15:50:08.536Z</time></trkpt><trkpt lat="39.1342167" lon="16.4910683"><ele>1399.0</ele><time>2026-04-18T15:50:09.534Z</time></trkpt><trkpt lat="39.134155" lon="16.4911433"><ele>1399.0</ele><time>2026-04-18T15:50:10.532Z</time></trkpt><trkpt lat="39.1340883" lon="16.49122"><ele>1399.0</ele><time>2026-04-18T15:50:11.531Z</time></trkpt><trkpt lat="39.1340233" lon="16.491295"><ele>1399.0</ele><time>2026-04-18T15:50:12.535Z</time></trkpt><trkpt lat="39.1339683" lon="16.491365"><ele>1398.142857142857</ele><time>2026-04-18T15:50:13.532Z</time></trkpt><trkpt lat="39.1339217" lon="16.49143"><ele>1397.2857142857142</ele><time>2026-04-18T15:50:14.53Z</time></trkpt><trkpt lat="39.133875" lon="16.491495"><ele>1396.4285714285716</ele><time>2026-04-18T15:50:15.531Z</time></trkpt><trkpt lat="39.1338317" lon="16.491555"><ele>1395.5714285714284</ele><time>2026-04-18T15:50:16.532Z</time></trkpt><trkpt lat="39.13378" lon="16.4916117"><ele>1394.7142857142858</ele><time>2026-04-18T15:50:17.529Z</time></trkpt><trkpt lat="39.1337217" lon="16.49167"><ele>1393.857142857143</ele><time>2026-04-18T15:50:18.534Z</time></trkpt><trkpt lat="39.1336683" lon="16.4917333"><ele>1393.0</ele><time>2026-04-18T15:50:19.531Z</time></trkpt><trkpt lat="39.1336183" lon="16.4918017"><ele>1393.0</ele><time>2026-04-18T15:50:20.535Z</time></trkpt><trkpt lat="39.1335717" lon="16.4918683"><ele>1393.0</ele><time>2026-04-18T15:50:21.532Z</time></trkpt><trkpt lat="39.1335283" lon="16.491935"><ele>1393.0</ele><time>2026-04-18T15:50:22.532Z</time></trkpt><trkpt lat="39.1334767" lon="16.4920567"><ele>1393.0</ele><time>2026-04-18T15:50:24.535Z</time></trkpt><trkpt lat="39.1334767" lon="16.4921733"><ele>1393.0</ele><time>2026-04-18T15:50:26.532Z</time></trkpt><trkpt lat="39.1334917" lon="16.492285"><ele>1393.0</ele><time>2026-04-18T15:50:28.533Z</time></trkpt><trkpt lat="39.1335" lon="16.4924433"><ele>1392.8000000000002</ele><time>2026-04-18T15:50:30.531Z</time></trkpt><trkpt lat="39.1334733" lon="16.4925867"><ele>1392.6</ele><time>2026-04-18T15:50:32.535Z</time></trkpt><trkpt lat="39.1334083" lon="16.49271"><ele>1392.4</ele><time>2026-04-18T15:50:34.534Z</time></trkpt><trkpt lat="39.1333217" lon="16.492795"><ele>1392.1999999999998</ele><time>2026-04-18T15:50:36.534Z</time></trkpt><trkpt lat="39.1332183" lon="16.4928433"><ele>1392.0</ele><time>2026-04-18T15:50:38.531Z</time></trkpt><trkpt lat="39.1331167" lon="16.492845"><ele>1387.8333333333333</ele><time>2026-04-18T15:50:40.533Z</time></trkpt><trkpt lat="39.1330133" lon="16.4928417"><ele>1383.6666666666667</ele><time>2026-04-18T15:50:42.534Z</time></trkpt><trkpt lat="39.1329383" lon="16.4927817"><ele>1379.5</ele><time>2026-04-18T15:50:44.534Z</time></trkpt><trkpt lat="39.132865" lon="16.4927467"><ele>1375.3333333333335</ele><time>2026-04-18T15:50:46.534Z</time></trkpt><trkpt lat="39.1327917" lon="16.4927283"><ele>1371.1666666666667</ele><time>2026-04-18T15:50:48.535Z</time></trkpt><trkpt lat="39.1327283" lon="16.4927767"><ele>1367.0</ele><time>2026-04-18T15:50:50.531Z</time></trkpt><trkpt lat="39.1326683" lon="16.492895"><ele>1366.8333333333335</ele><time>2026-04-18T15:50:52.531Z</time></trkpt><trkpt lat="39.13265" lon="16.4929733"><ele>1366.6666666666667</ele><time>2026-04-18T15:50:53.534Z</time></trkpt><trkpt lat="39.1326533" lon="16.49306"><ele>1366.5</ele><time>2026-04-18T15:50:54.534Z</time></trkpt><trkpt lat="39.1326617" lon="16.4931967"><ele>1366.3333333333333</ele><time>2026-04-18T15:50:56.532Z</time></trkpt><trkpt lat="39.13265" lon="16.493285"><ele>1366.1666666666665</ele><time>2026-04-18T15:50:58.531Z</time></trkpt><trkpt lat="39.132565" lon="16.4933383"><ele>1366.0</ele><time>2026-04-18T15:51:01.534Z</time></trkpt><trkpt lat="39.1325017" lon="16.493355"><ele>1366.0</ele><time>2026-04-18T15:51:03.532Z</time></trkpt><trkpt lat="39.1324117" lon="16.4933767"><ele>1366.0</ele><time>2026-04-18T15:51:05.53Z</time></trkpt><trkpt lat="39.1323267" lon="16.49337"><ele>1366.0</ele><time>2026-04-18T15:51:07.534Z</time></trkpt><trkpt lat="39.1322317" lon="16.4933517"><ele>1366.0</ele><time>2026-04-18T15:51:09.532Z</time></trkpt><trkpt lat="39.1321567" lon="16.4933483"><ele>1366.0</ele><time>2026-04-18T15:51:11.532Z</time></trkpt><trkpt lat="39.1320883" lon="16.4933067"><ele>1366.0</ele><time>2026-04-18T15:51:13.534Z</time></trkpt><trkpt lat="39.1320183" lon="16.4932467"><ele>1362.1999999999998</ele><time>2026-04-18T15:51:15.535Z</time></trkpt><trkpt lat="39.13194" lon="16.4932017"><ele>1358.3999999999999</ele><time>2026-04-18T15:51:17.534Z</time></trkpt><trkpt lat="39.1318333" lon="16.4931933"><ele>1354.6</ele><time>2026-04-18T15:51:19.534Z</time></trkpt><trkpt lat="39.1317267" lon="16.49319"><ele>1350.8</ele><time>2026-04-18T15:51:21.531Z</time></trkpt><trkpt lat="39.1316217" lon="16.4932167"><ele>1347.0</ele><time>2026-04-18T15:51:23.535Z</time></trkpt><trkpt lat="39.1315067" lon="16.4932367"><ele>1345.1666666666667</ele><time>2026-04-18T15:51:25.535Z</time></trkpt><trkpt lat="39.13144" lon="16.4932683"><ele>1343.3333333333333</ele><time>2026-04-18T15:51:26.534Z</time></trkpt><trkpt lat="39.1313667" lon="16.4932767"><ele>1341.5</ele><time>2026-04-18T15:51:27.531Z</time></trkpt><trkpt lat="39.131305" lon="16.4933017"><ele>1339.6666666666665</ele><time>2026-04-18T15:51:28.534Z</time></trkpt><trkpt lat="39.1311783" lon="16.4933233"><ele>1337.8333333333333</ele><time>2026-04-18T15:51:30.535Z</time></trkpt><trkpt lat="39.1310967" lon="16.4933967"><ele>1336.0</ele><time>2026-04-18T15:51:32.532Z</time></trkpt><trkpt lat="39.1310317" lon="16.493525"><ele>1336.0</ele><time>2026-04-18T15:51:34.535Z</time></trkpt><trkpt lat="39.1309467" lon="16.4936417"><ele>1336.0</ele><time>2026-04-18T15:51:36.534Z</time></trkpt><trkpt lat="39.1308917" lon="16.4936817"><ele>1336.0</ele><time>2026-04-18T15:51:37.532Z</time></trkpt><trkpt lat="39.1307683" lon="16.49371"><ele>1336.0</ele><time>2026-04-18T15:51:39.534Z</time></trkpt><trkpt lat="39.1307117" lon="16.4937467"><ele>1336.0</ele><time>2026-04-18T15:51:40.531Z</time></trkpt><trkpt lat="39.1306383" lon="16.493755"><ele>1335.8333333333333</ele><time>2026-04-18T15:51:41.533Z</time></trkpt><trkpt lat="39.1305783" lon="16.49379"><ele>1335.6666666666665</ele><time>2026-04-18T15:51:42.531Z</time></trkpt><trkpt lat="39.13053" lon="16.4938483"><ele>1335.5</ele><time>2026-04-18T15:51:43.533Z</time></trkpt><trkpt lat="39.130475" lon="16.4939117"><ele>1335.3333333333333</ele><time>2026-04-18T15:51:44.532Z</time></trkpt><trkpt lat="39.1304183" lon="16.4939833"><ele>1335.1666666666667</ele><time>2026-04-18T15:51:45.532Z</time></trkpt><trkpt lat="39.130365" lon="16.49407"><ele>1335.0</ele><time>2026-04-18T15:51:46.532Z</time></trkpt><trkpt lat="39.1303183" lon="16.4941767"><ele>1335.0</ele><time>2026-04-18T15:51:47.533Z</time></trkpt><trkpt lat="39.1302517" lon="16.4942767"><ele>1335.0</ele><time>2026-04-18T15:51:48.535Z</time></trkpt><trkpt lat="39.1301567" lon="16.4943533"><ele>1335.0</ele><time>2026-04-18T15:51:49.532Z</time></trkpt><trkpt lat="39.130075" lon="16.4944483"><ele>1335.0</ele><time>2026-04-18T15:51:50.533Z</time></trkpt><trkpt lat="39.1299883" lon="16.4945383"><ele>1335.0</ele><time>2026-04-18T15:51:51.533Z</time></trkpt><trkpt lat="39.1299133" lon="16.4946333"><ele>1335.3333333333333</ele><time>2026-04-18T15:51:52.534Z</time></trkpt><trkpt lat="39.129835" lon="16.4947183"><ele>1335.6666666666667</ele><time>2026-04-18T15:51:53.532Z</time></trkpt><trkpt lat="39.12977" lon="16.4948"><ele>1336.0</ele><time>2026-04-18T15:51:54.533Z</time></trkpt><trkpt lat="39.1297333" lon="16.4948867"><ele>1336.3333333333335</ele><time>2026-04-18T15:51:55.535Z</time></trkpt><trkpt lat="39.1297083" lon="16.494975"><ele>1336.6666666666667</ele><time>2026-04-18T15:51:56.533Z</time></trkpt><trkpt lat="39.1297133" lon="16.4950633"><ele>1337.0</ele><time>2026-04-18T15:51:57.535Z</time></trkpt><trkpt lat="39.1297483" lon="16.495145"><ele>1337.0</ele><time>2026-04-18T15:51:58.532Z</time></trkpt><trkpt lat="39.1297583" lon="16.4952267"><ele>1337.0</ele><time>2026-04-18T15:51:59.532Z</time></trkpt><trkpt lat="39.1298283" lon="16.49533"><ele>1337.0</ele><time>2026-04-18T15:52:01.533Z</time></trkpt><trkpt lat="39.12991" lon="16.4953783"><ele>1337.0</ele><time>2026-04-18T15:52:03.533Z</time></trkpt><trkpt lat="39.1299833" lon="16.4953833"><ele>1337.0</ele><time>2026-04-18T15:52:05.533Z</time></trkpt><trkpt lat="39.1300617" lon="16.495385"><ele>1337.0</ele><time>2026-04-18T15:52:07.533Z</time></trkpt><trkpt lat="39.1301367" lon="16.495425"><ele>1337.1666666666667</ele><time>2026-04-18T15:52:09.534Z</time></trkpt><trkpt lat="39.1301317" lon="16.4955517"><ele>1337.3333333333335</ele><time>2026-04-18T15:52:12.536Z</time></trkpt><trkpt lat="39.13009" lon="16.4957067"><ele>1337.5</ele><time>2026-04-18T15:52:14.53Z</time></trkpt><trkpt lat="39.1300683" lon="16.4958067"><ele>1337.6666666666667</ele><time>2026-04-18T15:52:15.534Z</time></trkpt><trkpt lat="39.1300383" lon="16.4958883"><ele>1337.8333333333333</ele><time>2026-04-18T15:52:16.534Z</time></trkpt><trkpt lat="39.1299933" lon="16.4959583"><ele>1338.0</ele><time>2026-04-18T15:52:17.532Z</time></trkpt><trkpt lat="39.12996" lon="16.4960433"><ele>1338.0</ele><time>2026-04-18T15:52:18.536Z</time></trkpt><trkpt lat="39.1298983" lon="16.4960733"><ele>1338.0</ele><time>2026-04-18T15:52:19.53Z</time></trkpt><trkpt lat="39.12987" lon="16.496165"><ele>1338.0</ele><time>2026-04-18T15:52:20.534Z</time></trkpt><trkpt lat="39.1298533" lon="16.4962867"><ele>1338.0</ele><time>2026-04-18T15:52:21.537Z</time></trkpt><trkpt lat="39.129835" lon="16.4963933"><ele>1338.0</ele><time>2026-04-18T15:52:22.531Z</time></trkpt><trkpt lat="39.1298217" lon="16.4965"><ele>1338.0</ele><time>2026-04-18T15:52:23.533Z</time></trkpt><trkpt lat="39.129805" lon="16.4965983"><ele>1338.1666666666667</ele><time>2026-04-18T15:52:24.534Z</time></trkpt><trkpt lat="39.129795" lon="16.4966917"><ele>1338.3333333333333</ele><time>2026-04-18T15:52:25.531Z</time></trkpt><trkpt lat="39.12979" lon="16.4967783"><ele>1338.5</ele><time>2026-04-18T15:52:26.533Z</time></trkpt><trkpt lat="39.1297867" lon="16.4968617"><ele>1338.6666666666665</ele><time>2026-04-18T15:52:27.537Z</time></trkpt><trkpt lat="39.12978" lon="16.4969917"><ele>1338.8333333333333</ele><time>2026-04-18T15:52:29.532Z</time></trkpt><trkpt lat="39.1297167" lon="16.49706"><ele>1339.0</ele><time>2026-04-18T15:52:31.532Z</time></trkpt><trkpt lat="39.1296583" lon="16.4971283"><ele>1337.6666666666665</ele><time>2026-04-18T15:52:33.532Z</time></trkpt><trkpt lat="39.1295867" lon="16.49715"><ele>1336.3333333333333</ele><time>2026-04-18T15:52:35.533Z</time></trkpt><trkpt lat="39.1295183" lon="16.4971767"><ele>1335.0</ele><time>2026-04-18T15:52:37.538Z</time></trkpt><trkpt lat="39.1294583" lon="16.4972183"><ele>1333.6666666666667</ele><time>2026-04-18T15:52:39.535Z</time></trkpt><trkpt lat="39.1293983" lon="16.49728"><ele>1332.3333333333335</ele><time>2026-04-18T15:52:41.532Z</time></trkpt><trkpt lat="39.129335" lon="16.4973517"><ele>1331.0</ele><time>2026-04-18T15:52:43.533Z</time></trkpt><trkpt lat="39.1292933" lon="16.4974467"><ele>1331.0</ele><time>2026-04-18T15:52:45.532Z</time></trkpt><trkpt lat="39.1292383" lon="16.4976083"><ele>1331.0</ele><time>2026-04-18T15:52:47.533Z</time></trkpt><trkpt lat="39.1292133" lon="16.4976883"><ele>1331.0</ele><time>2026-04-18T15:52:48.533Z</time></trkpt><trkpt lat="39.1291767" lon="16.497845"><ele>1331.0</ele><time>2026-04-18T15:52:50.53Z</time></trkpt><trkpt lat="39.129145" lon="16.4979283"><ele>1331.0</ele><time>2026-04-18T15:52:51.533Z</time></trkpt><trkpt lat="39.129105" lon="16.4980133"><ele>1328.3333333333335</ele><time>2026-04-18T15:52:52.533Z</time></trkpt><trkpt lat="39.129035" lon="16.49815"><ele>1325.6666666666667</ele><time>2026-04-18T15:52:54.536Z</time></trkpt><trkpt lat="39.12899" lon="16.498255"><ele>1323.0</ele><time>2026-04-18T15:52:55.531Z</time></trkpt><trkpt lat="39.12895" lon="16.4983417"><ele>1320.3333333333333</ele><time>2026-04-18T15:52:56.534Z</time></trkpt><trkpt lat="39.1289033" lon="16.4984183"><ele>1317.6666666666665</ele><time>2026-04-18T15:52:57.532Z</time></trkpt><trkpt lat="39.1288717" lon="16.498505"><ele>1315.0</ele><time>2026-04-18T15:52:58.533Z</time></trkpt><trkpt lat="39.1288467" lon="16.4986067"><ele>1315.0</ele><time>2026-04-18T15:52:59.531Z</time></trkpt><trkpt lat="39.1288183" lon="16.4986917"><ele>1315.0</ele><time>2026-04-18T15:53:00.53Z</time></trkpt><trkpt lat="39.1288067" lon="16.4987767"><ele>1315.0</ele><time>2026-04-18T15:53:01.533Z</time></trkpt><trkpt lat="39.1287633" lon="16.4988567"><ele>1315.0</ele><time>2026-04-18T15:53:02.533Z</time></trkpt><trkpt lat="39.1287167" lon="16.498935"><ele>1315.0</ele><time>2026-04-18T15:53:03.533Z</time></trkpt><trkpt lat="39.1286583" lon="16.4989983"><ele>1315.0</ele><time>2026-04-18T15:53:04.532Z</time></trkpt><trkpt lat="39.1286017" lon="16.4990417"><ele>1315.0</ele><time>2026-04-18T15:53:05.532Z</time></trkpt><trkpt lat="39.1285067" lon="16.4991333"><ele>1313.6</ele><time>2026-04-18T15:53:07.532Z</time></trkpt><trkpt lat="39.12846" lon="16.4991967"><ele>1312.2</ele><time>2026-04-18T15:53:08.533Z</time></trkpt><trkpt lat="39.1283817" lon="16.499325"><ele>1310.8000000000002</ele><time>2026-04-18T15:53:10.532Z</time></trkpt><trkpt lat="39.1283133" lon="16.499445"><ele>1309.4</ele><time>2026-04-18T15:53:12.532Z</time></trkpt><trkpt lat="39.1282317" lon="16.4995567"><ele>1308.0</ele><time>2026-04-18T15:53:14.533Z</time></trkpt><trkpt lat="39.12819" lon="16.49962"><ele>1305.8333333333333</ele><time>2026-04-18T15:53:15.535Z</time></trkpt><trkpt lat="39.12814" lon="16.4996817"><ele>1303.6666666666667</ele><time>2026-04-18T15:53:16.531Z</time></trkpt><trkpt lat="39.1280833" lon="16.499725"><ele>1301.5</ele><time>2026-04-18T15:53:17.533Z</time></trkpt><trkpt lat="39.1280267" lon="16.4997833"><ele>1299.3333333333335</ele><time>2026-04-18T15:53:18.534Z</time></trkpt><trkpt lat="39.12798" lon="16.4998417"><ele>1297.1666666666667</ele><time>2026-04-18T15:53:19.533Z</time></trkpt><trkpt lat="39.1279" lon="16.499965"><ele>1295.0</ele><time>2026-04-18T15:53:21.534Z</time></trkpt><trkpt lat="39.1278383" lon="16.500125"><ele>1295.0</ele><time>2026-04-18T15:53:23.534Z</time></trkpt><trkpt lat="39.12782" lon="16.50021"><ele>1295.0</ele><time>2026-04-18T15:53:24.533Z</time></trkpt><trkpt lat="39.127765" lon="16.50029"><ele>1295.0</ele><time>2026-04-18T15:53:26.532Z</time></trkpt><trkpt lat="39.127695" lon="16.5003183"><ele>1295.0</ele><time>2026-04-18T15:53:27.533Z</time></trkpt><trkpt lat="39.1276383" lon="16.5003583"><ele>1295.0</ele><time>2026-04-18T15:53:28.531Z</time></trkpt><trkpt lat="39.12759" lon="16.5004633"><ele>1295.0</ele><time>2026-04-18T15:53:30.533Z</time></trkpt><trkpt lat="39.1275233" lon="16.5005283"><ele>1294.3333333333335</ele><time>2026-04-18T15:53:32.531Z</time></trkpt><trkpt lat="39.127455" lon="16.500545"><ele>1293.6666666666667</ele><time>2026-04-18T15:53:35.53Z</time></trkpt><trkpt lat="39.127375" lon="16.5005767"><ele>1293.0</ele><time>2026-04-18T15:53:40.531Z</time></trkpt><trkpt lat="39.1273433" lon="16.5006617"><ele>1292.3333333333333</ele><time>2026-04-18T15:53:46.532Z</time></trkpt><trkpt lat="39.1272883" lon="16.50075"><ele>1291.6666666666665</ele><time>2026-04-18T15:53:49.533Z</time></trkpt><trkpt lat="39.12722" lon="16.5008317"><ele>1291.0</ele><time>2026-04-18T15:54:08.535Z</time></trkpt><trkpt lat="39.1271433" lon="16.5008417"><ele>1290.5</ele><time>2026-04-18T15:54:11.533Z</time></trkpt><trkpt lat="39.12706" lon="16.5009133"><ele>1290.0</ele><time>2026-04-18T15:54:14.534Z</time></trkpt><trkpt lat="39.1269917" lon="16.500945"><ele>1289.5</ele><time>2026-04-18T15:54:16.534Z</time></trkpt><trkpt lat="39.1269217" lon="16.501"><ele>1289.0</ele><time>2026-04-18T15:54:19.535Z</time></trkpt><trkpt lat="39.126845" lon="16.501045"><ele>1288.5</ele><time>2026-04-18T15:54:21.534Z</time></trkpt><trkpt lat="39.126755" lon="16.501085"><ele>1288.0</ele><time>2026-04-18T15:54:23.533Z</time></trkpt><trkpt lat="39.1266633" lon="16.5011033"><ele>1288.0</ele><time>2026-04-18T15:54:24.533Z</time></trkpt><trkpt lat="39.1265667" lon="16.5011417"><ele>1288.0</ele><time>2026-04-18T15:54:26.532Z</time></trkpt><trkpt lat="39.1264483" lon="16.5011767"><ele>1288.0</ele><time>2026-04-18T15:54:28.533Z</time></trkpt><trkpt lat="39.12634" lon="16.501235"><ele>1288.0</ele><time>2026-04-18T15:54:30.534Z</time></trkpt><trkpt lat="39.12629" lon="16.501285"><ele>1288.0</ele><time>2026-04-18T15:54:32.535Z</time></trkpt><trkpt lat="39.1262117" lon="16.5013167"><ele>1287.8000000000002</ele><time>2026-04-18T15:54:35.534Z</time></trkpt><trkpt lat="39.1261133" lon="16.5013517"><ele>1287.6</ele><time>2026-04-18T15:54:37.535Z</time></trkpt><trkpt lat="39.1260433" lon="16.50137"><ele>1287.4</ele><time>2026-04-18T15:54:38.534Z</time></trkpt><trkpt lat="39.1259133" lon="16.50137"><ele>1287.1999999999998</ele><time>2026-04-18T15:54:39.535Z</time></trkpt><trkpt lat="39.1257833" lon="16.5014083"><ele>1287.0</ele><time>2026-04-18T15:54:41.535Z</time></trkpt><trkpt lat="39.1257117" lon="16.5014483"><ele>1286.6666666666667</ele><time>2026-04-18T15:54:42.533Z</time></trkpt><trkpt lat="39.1256283" lon="16.5014817"><ele>1286.3333333333333</ele><time>2026-04-18T15:54:43.535Z</time></trkpt><trkpt lat="39.1255567" lon="16.5015"><ele>1286.0</ele><time>2026-04-18T15:54:44.532Z</time></trkpt><trkpt lat="39.1254867" lon="16.5015167"><ele>1285.6666666666665</ele><time>2026-04-18T15:54:45.534Z</time></trkpt><trkpt lat="39.125375" lon="16.5014983"><ele>1285.3333333333333</ele><time>2026-04-18T15:54:46.533Z</time></trkpt><trkpt lat="39.1253117" lon="16.50152"><ele>1285.0</ele><time>2026-04-18T15:54:47.538Z</time></trkpt><trkpt lat="39.12525" lon="16.5015467"><ele>1285.0</ele><time>2026-04-18T15:54:48.532Z</time></trkpt><trkpt lat="39.1251867" lon="16.5015783"><ele>1285.0</ele><time>2026-04-18T15:54:49.532Z</time></trkpt><trkpt lat="39.1250733" lon="16.5016133"><ele>1285.0</ele><time>2026-04-18T15:54:51.534Z</time></trkpt><trkpt lat="39.124885" lon="16.5016033"><ele>1285.0</ele><time>2026-04-18T15:54:53.532Z</time></trkpt><trkpt lat="39.1247883" lon="16.5015917"><ele>1283.0</ele><time>2026-04-18T15:54:54.532Z</time></trkpt><trkpt lat="39.124725" lon="16.5016083"><ele>1281.0</ele><time>2026-04-18T15:54:55.53Z</time></trkpt><trkpt lat="39.1246617" lon="16.5016033"><ele>1279.0</ele><time>2026-04-18T15:54:56.534Z</time></trkpt><trkpt lat="39.1245983" lon="16.5015867"><ele>1277.0</ele><time>2026-04-18T15:54:57.532Z</time></trkpt><trkpt lat="39.124525" lon="16.50156"><ele>1275.0</ele><time>2026-04-18T15:54:58.532Z</time></trkpt><trkpt lat="39.1244517" lon="16.5015217"><ele>1273.0</ele><time>2026-04-18T15:54:59.532Z</time></trkpt><trkpt lat="39.1243517" lon="16.5014433"><ele>1273.0</ele><time>2026-04-18T15:55:00.532Z</time></trkpt><trkpt lat="39.1242833" lon="16.5013683"><ele>1273.0</ele><time>2026-04-18T15:55:01.532Z</time></trkpt><trkpt lat="39.124215" lon="16.5013333"><ele>1273.0</ele><time>2026-04-18T15:55:02.534Z</time></trkpt><trkpt lat="39.124155" lon="16.5012833"><ele>1273.0</ele><time>2026-04-18T15:55:03.533Z</time></trkpt><trkpt lat="39.124075" lon="16.5011917"><ele>1273.0</ele><time>2026-04-18T15:55:04.53Z</time></trkpt><trkpt lat="39.1240117" lon="16.5011333"><ele>1273.0</ele><time>2026-04-18T15:55:05.532Z</time></trkpt><trkpt lat="39.1239417" lon="16.501075"><ele>1268.3333333333333</ele><time>2026-04-18T15:55:06.533Z</time></trkpt><trkpt lat="39.1238783" lon="16.501005"><ele>1263.6666666666665</ele><time>2026-04-18T15:55:07.533Z</time></trkpt><trkpt lat="39.1238217" lon="16.50095"><ele>1259.0</ele><time>2026-04-18T15:55:08.53Z</time></trkpt><trkpt lat="39.123705" lon="16.5009167"><ele>1254.3333333333333</ele><time>2026-04-18T15:55:10.533Z</time></trkpt><trkpt lat="39.1236367" lon="16.5009367"><ele>1249.6666666666667</ele><time>2026-04-18T15:55:11.534Z</time></trkpt><trkpt lat="39.1235733" lon="16.5009533"><ele>1245.0</ele><time>2026-04-18T15:55:12.533Z</time></trkpt><trkpt lat="39.1234517" lon="16.5009867"><ele>1245.0</ele><time>2026-04-18T15:55:14.535Z</time></trkpt><trkpt lat="39.1233533" lon="16.50103"><ele>1245.0</ele><time>2026-04-18T15:55:16.534Z</time></trkpt><trkpt lat="39.1232683" lon="16.501055"><ele>1245.0</ele><time>2026-04-18T15:55:18.532Z</time></trkpt><trkpt lat="39.1231667" lon="16.5010567"><ele>1245.0</ele><time>2026-04-18T15:55:20.533Z</time></trkpt><trkpt lat="39.1230483" lon="16.501025"><ele>1245.0</ele><time>2026-04-18T15:55:22.533Z</time></trkpt><trkpt lat="39.1229183" lon="16.5009683"><ele>1243.4</ele><time>2026-04-18T15:55:24.533Z</time></trkpt><trkpt lat="39.1228317" lon="16.5009167"><ele>1241.8</ele><time>2026-04-18T15:55:25.534Z</time></trkpt><trkpt lat="39.12277" lon="16.50089"><ele>1240.2</ele><time>2026-04-18T15:55:26.531Z</time></trkpt><trkpt lat="39.1226583" lon="16.5008267"><ele>1238.6</ele><time>2026-04-18T15:55:28.533Z</time></trkpt><trkpt lat="39.1225917" lon="16.5007783"><ele>1237.0</ele><time>2026-04-18T15:55:29.532Z</time></trkpt><trkpt lat="39.122485" lon="16.5007083"><ele>1235.3333333333333</ele><time>2026-04-18T15:55:31.531Z</time></trkpt><trkpt lat="39.122385" lon="16.5006367"><ele>1233.6666666666665</ele><time>2026-04-18T15:55:33.533Z</time></trkpt><trkpt lat="39.1223267" lon="16.5005633"><ele>1232.0</ele><time>2026-04-18T15:55:34.532Z</time></trkpt><trkpt lat="39.1222683" lon="16.5005083"><ele>1230.3333333333333</ele><time>2026-04-18T15:55:35.531Z</time></trkpt><trkpt lat="39.1222117" lon="16.5004433"><ele>1228.6666666666667</ele><time>2026-04-18T15:55:36.531Z</time></trkpt><trkpt lat="39.122155" lon="16.50038"><ele>1227.0</ele><time>2026-04-18T15:55:37.532Z</time></trkpt><trkpt lat="39.1220867" lon="16.5003083"><ele>1227.0</ele><time>2026-04-18T15:55:38.535Z</time></trkpt><trkpt lat="39.12202" lon="16.5002467"><ele>1227.0</ele><time>2026-04-18T15:55:39.532Z</time></trkpt><trkpt lat="39.12197" lon="16.500185"><ele>1227.0</ele><time>2026-04-18T15:55:40.533Z</time></trkpt><trkpt lat="39.121905" lon="16.5001133"><ele>1227.0</ele><time>2026-04-18T15:55:41.533Z</time></trkpt><trkpt lat="39.121845" lon="16.50005"><ele>1227.0</ele><time>2026-04-18T15:55:42.535Z</time></trkpt><trkpt lat="39.1217783" lon="16.4999917"><ele>1227.0</ele><time>2026-04-18T15:55:43.534Z</time></trkpt><trkpt lat="39.1217083" lon="16.4998867"><ele>1227.0</ele><time>2026-04-18T15:55:45.533Z</time></trkpt><trkpt lat="39.1216017" lon="16.4997983"><ele>1227.0</ele><time>2026-04-18T15:55:52.533Z</time></trkpt><trkpt lat="39.1215333" lon="16.4997483"><ele>1227.0</ele><time>2026-04-18T15:55:55.533Z</time></trkpt><trkpt lat="39.1214433" lon="16.4997233"><ele>1227.0</ele><time>2026-04-18T15:55:57.535Z</time></trkpt><trkpt lat="39.1213733" lon="16.499705"><ele>1227.0</ele><time>2026-04-18T15:55:58.531Z</time></trkpt><trkpt lat="39.12131" lon="16.4997"><ele>1227.0</ele><time>2026-04-18T15:55:59.535Z</time></trkpt><trkpt lat="39.1212383" lon="16.4996917"><ele>1227.6666666666667</ele><time>2026-04-18T15:56:00.532Z</time></trkpt><trkpt lat="39.121095" lon="16.49971"><ele>1228.3333333333333</ele><time>2026-04-18T15:56:02.533Z</time></trkpt><trkpt lat="39.1210283" lon="16.4997333"><ele>1229.0</ele><time>2026-04-18T15:56:03.532Z</time></trkpt><trkpt lat="39.120955" lon="16.4997633"><ele>1229.6666666666665</ele><time>2026-04-18T15:56:04.532Z</time></trkpt><trkpt lat="39.1208767" lon="16.49979"><ele>1230.3333333333333</ele><time>2026-04-18T15:56:05.533Z</time></trkpt><trkpt lat="39.1208117" lon="16.49982"><ele>1231.0</ele><time>2026-04-18T15:56:06.533Z</time></trkpt><trkpt lat="39.1207583" lon="16.499865"><ele>1233.1666666666665</ele><time>2026-04-18T15:56:07.532Z</time></trkpt><trkpt lat="39.1206833" lon="16.49992"><ele>1235.3333333333333</ele><time>2026-04-18T15:56:09.532Z</time></trkpt><trkpt lat="39.12063" lon="16.499975"><ele>1237.5</ele><time>2026-04-18T15:56:12.533Z</time></trkpt><trkpt lat="39.1205933" lon="16.5000467"><ele>1239.6666666666667</ele><time>2026-04-18T15:56:15.533Z</time></trkpt><trkpt lat="39.1205333" lon="16.500125"><ele>1241.8333333333335</ele><time>2026-04-18T15:56:17.532Z</time></trkpt><trkpt lat="39.1204733" lon="16.5002217"><ele>1244.0</ele><time>2026-04-18T15:56:19.537Z</time></trkpt><trkpt lat="39.1204017" lon="16.5002983"><ele>1244.0</ele><time>2026-04-18T15:56:21.534Z</time></trkpt><trkpt lat="39.1203433" lon="16.50033"><ele>1244.0</ele><time>2026-04-18T15:56:22.536Z</time></trkpt><trkpt lat="39.120285" lon="16.5003617"><ele>1244.0</ele><time>2026-04-18T15:56:23.54Z</time></trkpt><trkpt lat="39.1201767" lon="16.500425"><ele>1244.0</ele><time>2026-04-18T15:56:25.535Z</time></trkpt><trkpt lat="39.1200967" lon="16.5004483"><ele>1244.0</ele><time>2026-04-18T15:56:26.532Z</time></trkpt><trkpt lat="39.1200133" lon="16.5004833"><ele>1244.0</ele><time>2026-04-18T15:56:27.533Z</time></trkpt><trkpt lat="39.11993" lon="16.5004683"><ele>1240.0</ele><time>2026-04-18T15:56:28.533Z</time></trkpt><trkpt lat="39.1196917" lon="16.5004967"><ele>1236.0</ele><time>2026-04-18T15:56:29.536Z</time></trkpt><trkpt lat="39.1196017" lon="16.5004933"><ele>1232.0</ele><time>2026-04-18T15:56:30.532Z</time></trkpt><trkpt lat="39.119515" lon="16.5005117"><ele>1228.0</ele><time>2026-04-18T15:56:31.537Z</time></trkpt><trkpt lat="39.11943" lon="16.5005017"><ele>1228.0</ele><time>2026-04-18T15:56:32.534Z</time></trkpt><trkpt lat="39.1193133" lon="16.500495"><ele>1228.0</ele><time>2026-04-18T15:56:34.534Z</time></trkpt><trkpt lat="39.1192017" lon="16.5004783"><ele>1228.0</ele><time>2026-04-18T15:56:36.531Z</time></trkpt><trkpt lat="39.1190733" lon="16.500465"><ele>1228.0</ele><time>2026-04-18T15:56:38.533Z</time></trkpt><trkpt lat="39.1190083" lon="16.50046"><ele>1228.0</ele><time>2026-04-18T15:56:39.534Z</time></trkpt><trkpt lat="39.1189433" lon="16.500435"><ele>1227.6666666666665</ele><time>2026-04-18T15:56:40.532Z</time></trkpt><trkpt lat="39.1188817" lon="16.5004083"><ele>1227.3333333333333</ele><time>2026-04-18T15:56:41.532Z</time></trkpt><trkpt lat="39.118815" lon="16.5003933"><ele>1227.0</ele><time>2026-04-18T15:56:42.535Z</time></trkpt><trkpt lat="39.11874" lon="16.5003767"><ele>1226.6666666666667</ele><time>2026-04-18T15:56:43.532Z</time></trkpt><trkpt lat="39.11861" lon="16.5003867"><ele>1226.3333333333335</ele><time>2026-04-18T15:56:45.533Z</time></trkpt><trkpt lat="39.1185433" lon="16.5004017"><ele>1226.0</ele><time>2026-04-18T15:56:46.532Z</time></trkpt><trkpt lat="39.1184717" lon="16.5004083"><ele>1226.0</ele><time>2026-04-18T15:56:47.532Z</time></trkpt><trkpt lat="39.1183983" lon="16.5004167"><ele>1226.0</ele><time>2026-04-18T15:56:48.536Z</time></trkpt><trkpt lat="39.1183167" lon="16.50042"><ele>1226.0</ele><time>2026-04-18T15:56:49.532Z</time></trkpt><trkpt lat="39.1182483" lon="16.5004117"><ele>1226.0</ele><time>2026-04-18T15:56:50.535Z</time></trkpt><trkpt lat="39.1181433" lon="16.500395"><ele>1226.0</ele><time>2026-04-18T15:56:52.533Z</time></trkpt><trkpt lat="39.118035" lon="16.5003767"><ele>1226.0</ele><time>2026-04-18T15:56:54.532Z</time></trkpt><trkpt lat="39.1179533" lon="16.5003567"><ele>1221.8</ele><time>2026-04-18T15:56:55.533Z</time></trkpt><trkpt lat="39.1178467" lon="16.50034"><ele>1217.6</ele><time>2026-04-18T15:56:57.534Z</time></trkpt><trkpt lat="39.1177433" lon="16.5003467"><ele>1213.4</ele><time>2026-04-18T15:56:59.533Z</time></trkpt><trkpt lat="39.11763" lon="16.5003367"><ele>1209.2</ele><time>2026-04-18T15:57:01.533Z</time></trkpt><trkpt lat="39.1175483" lon="16.5003267"><ele>1205.0</ele><time>2026-04-18T15:57:02.533Z</time></trkpt><trkpt lat="39.1174583" lon="16.5003133"><ele>1202.5</ele><time>2026-04-18T15:57:03.533Z</time></trkpt><trkpt lat="39.1173783" lon="16.5002967"><ele>1200.0</ele><time>2026-04-18T15:57:04.533Z</time></trkpt><trkpt lat="39.117315" lon="16.500285"><ele>1197.5</ele><time>2026-04-18T15:57:05.533Z</time></trkpt><trkpt lat="39.117245" lon="16.5002683"><ele>1195.0</ele><time>2026-04-18T15:57:06.533Z</time></trkpt><trkpt lat="39.1171783" lon="16.500245"><ele>1192.5</ele><time>2026-04-18T15:57:07.533Z</time></trkpt><trkpt lat="39.1171133" lon="16.50023"><ele>1190.0</ele><time>2026-04-18T15:57:08.535Z</time></trkpt><trkpt lat="39.1170167" lon="16.500195"><ele>1190.0</ele><time>2026-04-18T15:57:10.535Z</time></trkpt><trkpt lat="39.11692" lon="16.5001433"><ele>1190.0</ele><time>2026-04-18T15:57:12.53Z</time></trkpt><trkpt lat="39.116795" lon="16.5000967"><ele>1190.0</ele><time>2026-04-18T15:57:14.533Z</time></trkpt><trkpt lat="39.11672" lon="16.50008"><ele>1190.0</ele><time>2026-04-18T15:57:15.534Z</time></trkpt><trkpt lat="39.11665" lon="16.5000733"><ele>1190.0</ele><time>2026-04-18T15:57:16.532Z</time></trkpt><trkpt lat="39.116565" lon="16.5000617"><ele>1186.6</ele><time>2026-04-18T15:57:17.532Z</time></trkpt><trkpt lat="39.116475" lon="16.5000533"><ele>1183.2</ele><time>2026-04-18T15:57:18.531Z</time></trkpt><trkpt lat="39.1164033" lon="16.5000617"><ele>1179.8</ele><time>2026-04-18T15:57:19.531Z</time></trkpt><trkpt lat="39.11633" lon="16.5000783"><ele>1176.4</ele><time>2026-04-18T15:57:20.534Z</time></trkpt><trkpt lat="39.1162183" lon="16.50008"><ele>1173.0</ele><time>2026-04-18T15:57:22.535Z</time></trkpt><trkpt lat="39.11611" lon="16.4999983"><ele>1173.0</ele><time>2026-04-18T15:57:24.533Z</time></trkpt><trkpt lat="39.11601" lon="16.499905"><ele>1173.0</ele><time>2026-04-18T15:57:26.532Z</time></trkpt><trkpt lat="39.1159267" lon="16.4998517"><ele>1173.0</ele><time>2026-04-18T15:57:28.533Z</time></trkpt><trkpt lat="39.1158483" lon="16.4998183"><ele>1173.0</ele><time>2026-04-18T15:57:30.531Z</time></trkpt><trkpt lat="39.1157583" lon="16.4997717"><ele>1173.0</ele><time>2026-04-18T15:57:32.533Z</time></trkpt><trkpt lat="39.115665" lon="16.49971"><ele>1170.8</ele><time>2026-04-18T15:57:34.532Z</time></trkpt><trkpt lat="39.1156067" lon="16.4996183"><ele>1168.6</ele><time>2026-04-18T15:57:36.53Z</time></trkpt><trkpt lat="39.1156" lon="16.4994883"><ele>1166.4</ele><time>2026-04-18T15:57:38.531Z</time></trkpt><trkpt lat="39.115635" lon="16.499335"><ele>1164.2</ele><time>2026-04-18T15:57:40.532Z</time></trkpt><trkpt lat="39.1156617" lon="16.499255"><ele>1162.0</ele><time>2026-04-18T15:57:41.534Z</time></trkpt><trkpt lat="39.1156983" lon="16.4991783"><ele>1161.4</ele><time>2026-04-18T15:57:42.532Z</time></trkpt><trkpt lat="39.1157667" lon="16.4990317"><ele>1160.8000000000002</ele><time>2026-04-18T15:57:44.534Z</time></trkpt><trkpt lat="39.115845" lon="16.4989483"><ele>1160.2</ele><time>2026-04-18T15:57:46.534Z</time></trkpt><trkpt lat="39.1158133" lon="16.49887"><ele>1159.6000000000001</ele><time>2026-04-18T15:57:48.533Z</time></trkpt><trkpt lat="39.1157267" lon="16.4988567"><ele>1159.0</ele><time>2026-04-18T15:57:50.532Z</time></trkpt><trkpt lat="39.1156567" lon="16.498845"><ele>1159.0</ele><time>2026-04-18T15:57:51.533Z</time></trkpt><trkpt lat="39.115585" lon="16.4988317"><ele>1159.0</ele><time>2026-04-18T15:57:52.532Z</time></trkpt><trkpt lat="39.115515" lon="16.4988217"><ele>1159.0</ele><time>2026-04-18T15:57:53.533Z</time></trkpt><trkpt lat="39.11545" lon="16.498825"><ele>1159.0</ele><time>2026-04-18T15:57:54.531Z</time></trkpt><trkpt lat="39.1153383" lon="16.4988283"><ele>1159.0</ele><time>2026-04-18T15:57:56.533Z</time></trkpt><trkpt lat="39.11527" lon="16.498815"><ele>1159.0</ele><time>2026-04-18T15:57:57.536Z</time></trkpt><trkpt lat="39.1151917" lon="16.4987817"><ele>1159.0</ele><time>2026-04-18T15:57:58.53Z</time></trkpt><trkpt lat="39.1151133" lon="16.4987583"><ele>1159.0</ele><time>2026-04-18T15:57:59.531Z</time></trkpt><trkpt lat="39.1150317" lon="16.4987283"><ele>1159.0</ele><time>2026-04-18T15:58:00.532Z</time></trkpt><trkpt lat="39.1149483" lon="16.498695"><ele>1159.0</ele><time>2026-04-18T15:58:01.534Z</time></trkpt><trkpt lat="39.1148683" lon="16.498695"><ele>1159.0</ele><time>2026-04-18T15:58:02.536Z</time></trkpt><trkpt lat="39.1147683" lon="16.4986867"><ele>1159.0</ele><time>2026-04-18T15:58:03.532Z</time></trkpt><trkpt lat="39.11469" lon="16.4986917"><ele>1156.6666666666665</ele><time>2026-04-18T15:58:04.533Z</time></trkpt><trkpt lat="39.1146083" lon="16.4986983"><ele>1154.3333333333333</ele><time>2026-04-18T15:58:05.531Z</time></trkpt><trkpt lat="39.114525" lon="16.4987133"><ele>1152.0</ele><time>2026-04-18T15:58:06.532Z</time></trkpt><trkpt lat="39.1144417" lon="16.498745"><ele>1149.6666666666667</ele><time>2026-04-18T15:58:07.533Z</time></trkpt><trkpt lat="39.1143567" lon="16.4987633"><ele>1147.3333333333335</ele><time>2026-04-18T15:58:08.531Z</time></trkpt><trkpt lat="39.114275" lon="16.49879"><ele>1145.0</ele><time>2026-04-18T15:58:09.535Z</time></trkpt><trkpt lat="39.11421" lon="16.4988283"><ele>1144.6</ele><time>2026-04-18T15:58:10.531Z</time></trkpt><trkpt lat="39.114125" lon="16.49886"><ele>1144.2</ele><time>2026-04-18T15:58:11.531Z</time></trkpt><trkpt lat="39.1140317" lon="16.49888"><ele>1143.8</ele><time>2026-04-18T15:58:12.533Z</time></trkpt><trkpt lat="39.1139633" lon="16.4989083"><ele>1143.4</ele><time>2026-04-18T15:58:13.534Z</time></trkpt><trkpt lat="39.1138333" lon="16.4989167"><ele>1143.0</ele><time>2026-04-18T15:58:15.537Z</time></trkpt><trkpt lat="39.1137683" lon="16.49891"><ele>1141.5</ele><time>2026-04-18T15:58:16.534Z</time></trkpt><trkpt lat="39.1136967" lon="16.498885"><ele>1140.0</ele><time>2026-04-18T15:58:17.534Z</time></trkpt><trkpt lat="39.1136267" lon="16.4988717"><ele>1138.5</ele><time>2026-04-18T15:58:18.534Z</time></trkpt><trkpt lat="39.11356" lon="16.498855"><ele>1137.0</ele><time>2026-04-18T15:58:19.534Z</time></trkpt><trkpt lat="39.1134883" lon="16.498835"><ele>1135.5</ele><time>2026-04-18T15:58:20.533Z</time></trkpt><trkpt lat="39.11343" lon="16.4987933"><ele>1134.0</ele><time>2026-04-18T15:58:21.531Z</time></trkpt><trkpt lat="39.11334" lon="16.4986967"><ele>1133.6666666666667</ele><time>2026-04-18T15:58:23.532Z</time></trkpt><trkpt lat="39.1132733" lon="16.4985417"><ele>1133.3333333333333</ele><time>2026-04-18T15:58:25.533Z</time></trkpt><trkpt lat="39.113245" lon="16.4984633"><ele>1133.0</ele><time>2026-04-18T15:58:26.533Z</time></trkpt><trkpt lat="39.1132083" lon="16.4983867"><ele>1132.6666666666665</ele><time>2026-04-18T15:58:27.533Z</time></trkpt><trkpt lat="39.1131667" lon="16.49832"><ele>1132.3333333333333</ele><time>2026-04-18T15:58:28.533Z</time></trkpt><trkpt lat="39.1131283" lon="16.4982517"><ele>1132.0</ele><time>2026-04-18T15:58:29.531Z</time></trkpt><trkpt lat="39.1130517" lon="16.49813"><ele>1131.1666666666665</ele><time>2026-04-18T15:58:31.535Z</time></trkpt><trkpt lat="39.112945" lon="16.4980933"><ele>1130.3333333333333</ele><time>2026-04-18T15:58:33.533Z</time></trkpt><trkpt lat="39.1128383" lon="16.498115"><ele>1129.5</ele><time>2026-04-18T15:58:35.531Z</time></trkpt><trkpt lat="39.11278" lon="16.4981817"><ele>1128.6666666666667</ele><time>2026-04-18T15:58:37.532Z</time></trkpt><trkpt lat="39.1127333" lon="16.4982483"><ele>1127.8333333333335</ele><time>2026-04-18T15:58:39.532Z</time></trkpt><trkpt lat="39.1126783" lon="16.4983033"><ele>1127.0</ele><time>2026-04-18T15:58:41.531Z</time></trkpt><trkpt lat="39.1126267" lon="16.49839"><ele>1127.0</ele><time>2026-04-18T15:58:43.53Z</time></trkpt><trkpt lat="39.11256" lon="16.49847"><ele>1127.0</ele><time>2026-04-18T15:58:45.531Z</time></trkpt><trkpt lat="39.1124867" lon="16.4985117"><ele>1127.0</ele><time>2026-04-18T15:58:47.611Z</time></trkpt><trkpt lat="39.1123883" lon="16.4985833"><ele>1127.0</ele><time>2026-04-18T15:58:49.532Z</time></trkpt><trkpt lat="39.112335" lon="16.4986283"><ele>1127.0</ele><time>2026-04-18T15:58:50.53Z</time></trkpt><trkpt lat="39.1121517" lon="16.49874"><ele>1128.2</ele><time>2026-04-18T15:58:52.698Z</time></trkpt><trkpt lat="39.1120767" lon="16.498875"><ele>1129.4</ele><time>2026-04-18T15:58:54.53Z</time></trkpt><trkpt lat="39.111965" lon="16.4989967"><ele>1130.6</ele><time>2026-04-18T15:58:56.532Z</time></trkpt><trkpt lat="39.1119033" lon="16.499065"><ele>1131.8</ele><time>2026-04-18T15:58:57.531Z</time></trkpt><trkpt lat="39.11184" lon="16.4991467"><ele>1133.0</ele><time>2026-04-18T15:58:58.53Z</time></trkpt><trkpt lat="39.1117767" lon="16.4992333"><ele>1133.0</ele><time>2026-04-18T15:58:59.529Z</time></trkpt><trkpt lat="39.11173" lon="16.4993183"><ele>1133.0</ele><time>2026-04-18T15:59:00.531Z</time></trkpt><trkpt lat="39.1116867" lon="16.499415"><ele>1133.0</ele><time>2026-04-18T15:59:01.532Z</time></trkpt><trkpt lat="39.11167" lon="16.4995367"><ele>1133.0</ele><time>2026-04-18T15:59:02.534Z</time></trkpt><trkpt lat="39.111655" lon="16.4996733"><ele>1133.0</ele><time>2026-04-18T15:59:03.533Z</time></trkpt><trkpt lat="39.11164" lon="16.4998117"><ele>1132.0</ele><time>2026-04-18T15:59:04.531Z</time></trkpt><trkpt lat="39.1116183" lon="16.4999517"><ele>1131.0</ele><time>2026-04-18T15:59:05.532Z</time></trkpt><trkpt lat="39.111625" lon="16.500095"><ele>1130.0</ele><time>2026-04-18T15:59:06.531Z</time></trkpt><trkpt lat="39.1116017" lon="16.5002367"><ele>1129.0</ele><time>2026-04-18T15:59:07.532Z</time></trkpt><trkpt lat="39.1116067" lon="16.5003767"><ele>1128.0</ele><time>2026-04-18T15:59:08.531Z</time></trkpt><trkpt lat="39.1116217" lon="16.50051"><ele>1130.0</ele><time>2026-04-18T15:59:09.534Z</time></trkpt><trkpt lat="39.1116417" lon="16.50064"><ele>1132.0</ele><time>2026-04-18T15:59:10.532Z</time></trkpt><trkpt lat="39.1116633" lon="16.5007717"><ele>1134.0</ele><time>2026-04-18T15:59:11.533Z</time></trkpt><trkpt lat="39.111705" lon="16.500905"><ele>1136.0</ele><time>2026-04-18T15:59:12.533Z</time></trkpt><trkpt lat="39.111745" lon="16.501045"><ele>1138.0</ele><time>2026-04-18T15:59:13.532Z</time></trkpt><trkpt lat="39.1117467" lon="16.501185"><ele>1140.6666666666665</ele><time>2026-04-18T15:59:14.531Z</time></trkpt><trkpt lat="39.1117683" lon="16.50131"><ele>1143.3333333333333</ele><time>2026-04-18T15:59:15.532Z</time></trkpt><trkpt lat="39.111795" lon="16.5014167"><ele>1146.0</ele><time>2026-04-18T15:59:16.532Z</time></trkpt><trkpt lat="39.11183" lon="16.5015133"><ele>1148.6666666666667</ele><time>2026-04-18T15:59:17.53Z</time></trkpt><trkpt lat="39.1118633" lon="16.501595"><ele>1151.3333333333335</ele><time>2026-04-18T15:59:18.533Z</time></trkpt><trkpt lat="39.1118967" lon="16.5016683"><ele>1154.0</ele><time>2026-04-18T15:59:19.533Z</time></trkpt><trkpt lat="39.1119383" lon="16.50174"><ele>1154.0</ele><time>2026-04-18T15:59:20.531Z</time></trkpt><trkpt lat="39.1119867" lon="16.5018083"><ele>1154.0</ele><time>2026-04-18T15:59:21.531Z</time></trkpt><trkpt lat="39.1120267" lon="16.5018967"><ele>1154.0</ele><time>2026-04-18T15:59:22.531Z</time></trkpt><trkpt lat="39.11207" lon="16.5019883"><ele>1154.0</ele><time>2026-04-18T15:59:23.531Z</time></trkpt><trkpt lat="39.11211" lon="16.5020917"><ele>1154.0</ele><time>2026-04-18T15:59:24.53Z</time></trkpt><trkpt lat="39.112155" lon="16.5021917"><ele>1154.0</ele><time>2026-04-18T15:59:25.534Z</time></trkpt><trkpt lat="39.1122017" lon="16.5022767"><ele>1156.6666666666667</ele><time>2026-04-18T15:59:26.532Z</time></trkpt><trkpt lat="39.112245" lon="16.5023583"><ele>1159.3333333333335</ele><time>2026-04-18T15:59:27.535Z</time></trkpt><trkpt lat="39.112295" lon="16.502445"><ele>1162.0</ele><time>2026-04-18T15:59:28.532Z</time></trkpt><trkpt lat="39.1123283" lon="16.5025433"><ele>1164.6666666666667</ele><time>2026-04-18T15:59:29.532Z</time></trkpt><trkpt lat="39.1123633" lon="16.5026367"><ele>1167.3333333333333</ele><time>2026-04-18T15:59:30.532Z</time></trkpt><trkpt lat="39.1123867" lon="16.50274"><ele>1170.0</ele><time>2026-04-18T15:59:31.532Z</time></trkpt><trkpt lat="39.1124133" lon="16.50284"><ele>1165.6666666666667</ele><time>2026-04-18T15:59:32.533Z</time></trkpt><trkpt lat="39.1124383" lon="16.5029233"><ele>1161.3333333333333</ele><time>2026-04-18T15:59:33.536Z</time></trkpt><trkpt lat="39.1124567" lon="16.5030183"><ele>1157.0</ele><time>2026-04-18T15:59:34.533Z</time></trkpt><trkpt lat="39.11251" lon="16.503095"><ele>1152.6666666666665</ele><time>2026-04-18T15:59:35.537Z</time></trkpt><trkpt lat="39.11254" lon="16.5032017"><ele>1148.3333333333333</ele><time>2026-04-18T15:59:36.535Z</time></trkpt><trkpt lat="39.1126" lon="16.5033117"><ele>1144.0</ele><time>2026-04-18T15:59:37.534Z</time></trkpt><trkpt lat="39.1126717" lon="16.50342"><ele>1144.0</ele><time>2026-04-18T15:59:38.532Z</time></trkpt><trkpt lat="39.1127267" lon="16.50354"><ele>1144.0</ele><time>2026-04-18T15:59:39.533Z</time></trkpt><trkpt lat="39.11278" lon="16.5036333"><ele>1144.0</ele><time>2026-04-18T15:59:40.534Z</time></trkpt><trkpt lat="39.1128267" lon="16.5037183"><ele>1144.0</ele><time>2026-04-18T15:59:41.533Z</time></trkpt><trkpt lat="39.1128733" lon="16.5038017"><ele>1144.0</ele><time>2026-04-18T15:59:42.536Z</time></trkpt><trkpt lat="39.11291" lon="16.5038917"><ele>1144.0</ele><time>2026-04-18T15:59:43.534Z</time></trkpt><trkpt lat="39.1129317" lon="16.5039917"><ele>1146.8333333333333</ele><time>2026-04-18T15:59:44.533Z</time></trkpt><trkpt lat="39.1129383" lon="16.5041067"><ele>1149.6666666666665</ele><time>2026-04-18T15:59:45.534Z</time></trkpt><trkpt lat="39.112935" lon="16.50424"><ele>1152.5</ele><time>2026-04-18T15:59:46.534Z</time></trkpt><trkpt lat="39.1129183" lon="16.5043483"><ele>1155.3333333333333</ele><time>2026-04-18T15:59:47.535Z</time></trkpt><trkpt lat="39.1128883" lon="16.5044283"><ele>1158.1666666666667</ele><time>2026-04-18T15:59:48.533Z</time></trkpt><trkpt lat="39.1128467" lon="16.5044917"><ele>1161.0</ele><time>2026-04-18T15:59:49.533Z</time></trkpt><trkpt lat="39.1128033" lon="16.5045533"><ele>1162.2</ele><time>2026-04-18T15:59:50.535Z</time></trkpt><trkpt lat="39.1127733" lon="16.50468"><ele>1163.3999999999999</ele><time>2026-04-18T15:59:52.533Z</time></trkpt><trkpt lat="39.1128217" lon="16.5047967"><ele>1164.6</ele><time>2026-04-18T15:59:54.535Z</time></trkpt><trkpt lat="39.11287" lon="16.5048683"><ele>1165.8</ele><time>2026-04-18T15:59:55.532Z</time></trkpt><trkpt lat="39.1129167" lon="16.50496"><ele>1167.0</ele><time>2026-04-18T15:59:56.534Z</time></trkpt><trkpt lat="39.1129633" lon="16.5050767"><ele>1167.0</ele><time>2026-04-18T15:59:57.534Z</time></trkpt><trkpt lat="39.1129967" lon="16.5052117"><ele>1167.0</ele><time>2026-04-18T15:59:58.535Z</time></trkpt><trkpt lat="39.1130117" lon="16.505355"><ele>1167.0</ele><time>2026-04-18T15:59:59.532Z</time></trkpt><trkpt lat="39.113015" lon="16.5054967"><ele>1167.0</ele><time>2026-04-18T16:00:00.535Z</time></trkpt><trkpt lat="39.1130083" lon="16.5056333"><ele>1167.0</ele><time>2026-04-18T16:00:01.535Z</time></trkpt><trkpt lat="39.1130233" lon="16.5057683"><ele>1167.0</ele><time>2026-04-18T16:00:02.535Z</time></trkpt><trkpt lat="39.1130233" lon="16.505905"><ele>1167.0</ele><time>2026-04-18T16:00:03.535Z</time></trkpt><trkpt lat="39.1130133" lon="16.5060383"><ele>1167.0</ele><time>2026-04-18T16:00:04.534Z</time></trkpt><trkpt lat="39.1129733" lon="16.5061717"><ele>1167.0</ele><time>2026-04-18T16:00:05.532Z</time></trkpt><trkpt lat="39.11296" lon="16.5062967"><ele>1167.0</ele><time>2026-04-18T16:00:06.536Z</time></trkpt><trkpt lat="39.11295" lon="16.5064183"><ele>1166.6</ele><time>2026-04-18T16:00:07.533Z</time></trkpt><trkpt lat="39.11295" lon="16.50654"><ele>1166.2</ele><time>2026-04-18T16:00:08.531Z</time></trkpt><trkpt lat="39.1129583" lon="16.5066633"><ele>1165.8</ele><time>2026-04-18T16:00:09.536Z</time></trkpt><trkpt lat="39.1129617" lon="16.5067883"><ele>1165.4</ele><time>2026-04-18T16:00:10.531Z</time></trkpt><trkpt lat="39.1129517" lon="16.50692"><ele>1165.0</ele><time>2026-04-18T16:00:11.532Z</time></trkpt><trkpt lat="39.112965" lon="16.507055"><ele>1162.0</ele><time>2026-04-18T16:00:12.533Z</time></trkpt><trkpt lat="39.1129417" lon="16.5071783"><ele>1159.0</ele><time>2026-04-18T16:00:13.532Z</time></trkpt><trkpt lat="39.1129083" lon="16.50729"><ele>1156.0</ele><time>2026-04-18T16:00:14.532Z</time></trkpt><trkpt lat="39.112885" lon="16.5073933"><ele>1153.0</ele><time>2026-04-18T16:00:15.532Z</time></trkpt><trkpt lat="39.11284" lon="16.5074783"><ele>1150.0</ele><time>2026-04-18T16:00:16.53Z</time></trkpt><trkpt lat="39.1127933" lon="16.50757"><ele>1147.0</ele><time>2026-04-18T16:00:17.532Z</time></trkpt><trkpt lat="39.1127283" lon="16.5076317"><ele>1147.0</ele><time>2026-04-18T16:00:18.533Z</time></trkpt><trkpt lat="39.1126533" lon="16.5076817"><ele>1147.0</ele><time>2026-04-18T16:00:19.533Z</time></trkpt><trkpt lat="39.112595" lon="16.5077567"><ele>1147.0</ele><time>2026-04-18T16:00:20.534Z</time></trkpt><trkpt lat="39.1125183" lon="16.5078017"><ele>1147.0</ele><time>2026-04-18T16:00:21.531Z</time></trkpt><trkpt lat="39.1124433" lon="16.5078517"><ele>1147.0</ele><time>2026-04-18T16:00:22.534Z</time></trkpt><trkpt lat="39.112365" lon="16.507885"><ele>1147.0</ele><time>2026-04-18T16:00:23.536Z</time></trkpt><trkpt lat="39.1122917" lon="16.507925"><ele>1148.5714285714284</ele><time>2026-04-18T16:00:24.535Z</time></trkpt><trkpt lat="39.1122317" lon="16.50799"><ele>1150.142857142857</ele><time>2026-04-18T16:00:25.535Z</time></trkpt><trkpt lat="39.11219" lon="16.5080583"><ele>1151.7142857142858</ele><time>2026-04-18T16:00:26.534Z</time></trkpt><trkpt lat="39.1121533" lon="16.508135"><ele>1153.2857142857142</ele><time>2026-04-18T16:00:27.537Z</time></trkpt><trkpt lat="39.1121283" lon="16.5082183"><ele>1154.857142857143</ele><time>2026-04-18T16:00:28.537Z</time></trkpt><trkpt lat="39.1121233" lon="16.5083233"><ele>1156.4285714285713</ele><time>2026-04-18T16:00:29.533Z</time></trkpt><trkpt lat="39.1121067" lon="16.5084133"><ele>1158.0</ele><time>2026-04-18T16:00:30.535Z</time></trkpt><trkpt lat="39.1120717" lon="16.5084933"><ele>1158.0</ele><time>2026-04-18T16:00:31.534Z</time></trkpt><trkpt lat="39.1120217" lon="16.50857"><ele>1158.0</ele><time>2026-04-18T16:00:32.533Z</time></trkpt><trkpt lat="39.111965" lon="16.50865"><ele>1158.0</ele><time>2026-04-18T16:00:33.534Z</time></trkpt><trkpt lat="39.1119017" lon="16.5087467"><ele>1158.0</ele><time>2026-04-18T16:00:34.534Z</time></trkpt><trkpt lat="39.1118183" lon="16.5088417"><ele>1158.0</ele><time>2026-04-18T16:00:35.531Z</time></trkpt><trkpt lat="39.1117183" lon="16.508905"><ele>1158.6666666666667</ele><time>2026-04-18T16:00:36.534Z</time></trkpt><trkpt lat="39.11164" lon="16.50898"><ele>1159.3333333333333</ele><time>2026-04-18T16:00:37.532Z</time></trkpt><trkpt lat="39.1115567" lon="16.5090233"><ele>1160.0</ele><time>2026-04-18T16:00:38.536Z</time></trkpt><trkpt lat="39.1115117" lon="16.5090883"><ele>1160.6666666666665</ele><time>2026-04-18T16:00:39.534Z</time></trkpt><trkpt lat="39.1114883" lon="16.509165"><ele>1161.3333333333333</ele><time>2026-04-18T16:00:40.534Z</time></trkpt><trkpt lat="39.1115183" lon="16.50931"><ele>1162.0</ele><time>2026-04-18T16:00:42.531Z</time></trkpt><trkpt lat="39.1115383" lon="16.5093883"><ele>1162.0</ele><time>2026-04-18T16:00:43.533Z</time></trkpt><trkpt lat="39.1115583" lon="16.50947"><ele>1162.0</ele><time>2026-04-18T16:00:44.531Z</time></trkpt><trkpt lat="39.111575" lon="16.50956"><ele>1162.0</ele><time>2026-04-18T16:00:45.532Z</time></trkpt><trkpt lat="39.1115883" lon="16.5096583"><ele>1162.0</ele><time>2026-04-18T16:00:46.531Z</time></trkpt><trkpt lat="39.111605" lon="16.509755"><ele>1162.0</ele><time>2026-04-18T16:00:47.531Z</time></trkpt><trkpt lat="39.1115767" lon="16.50986"><ele>1162.0</ele><time>2026-04-18T16:00:48.533Z</time></trkpt><trkpt lat="39.1115633" lon="16.5100033"><ele>1159.5</ele><time>2026-04-18T16:00:49.532Z</time></trkpt><trkpt lat="39.1114633" lon="16.5101117"><ele>1157.0</ele><time>2026-04-18T16:00:50.532Z</time></trkpt><trkpt lat="39.1113933" lon="16.5102433"><ele>1154.5</ele><time>2026-04-18T16:00:51.531Z</time></trkpt><trkpt lat="39.111335" lon="16.51036"><ele>1152.0</ele><time>2026-04-18T16:00:52.534Z</time></trkpt><trkpt lat="39.1112483" lon="16.5104267"><ele>1147.5</ele><time>2026-04-18T16:00:53.532Z</time></trkpt><trkpt lat="39.1111833" lon="16.5105"><ele>1143.0</ele><time>2026-04-18T16:00:54.532Z</time></trkpt><trkpt lat="39.1111217" lon="16.5105567"><ele>1138.5</ele><time>2026-04-18T16:00:55.532Z</time></trkpt><trkpt lat="39.111065" lon="16.5106383"><ele>1134.0</ele><time>2026-04-18T16:00:57.532Z</time></trkpt><trkpt lat="39.1109767" lon="16.5106183"><ele>1129.5</ele><time>2026-04-18T16:00:59.533Z</time></trkpt><trkpt lat="39.110895" lon="16.5105833"><ele>1125.0</ele><time>2026-04-18T16:01:01.532Z</time></trkpt><trkpt lat="39.1108017" lon="16.510535"><ele>1124.3333333333333</ele><time>2026-04-18T16:01:03.534Z</time></trkpt><trkpt lat="39.1107367" lon="16.5105167"><ele>1123.6666666666667</ele><time>2026-04-18T16:01:04.533Z</time></trkpt><trkpt lat="39.1106467" lon="16.51051"><ele>1123.0</ele><time>2026-04-18T16:01:05.532Z</time></trkpt><trkpt lat="39.1105633" lon="16.5105333"><ele>1122.3333333333335</ele><time>2026-04-18T16:01:06.536Z</time></trkpt><trkpt lat="39.110465" lon="16.5105633"><ele>1121.6666666666667</ele><time>2026-04-18T16:01:07.533Z</time></trkpt><trkpt lat="39.1103633" lon="16.51057"><ele>1121.0</ele><time>2026-04-18T16:01:08.535Z</time></trkpt><trkpt lat="39.1102683" lon="16.5105633"><ele>1121.0</ele><time>2026-04-18T16:01:09.535Z</time></trkpt><trkpt lat="39.1101917" lon="16.510545"><ele>1121.0</ele><time>2026-04-18T16:01:10.533Z</time></trkpt><trkpt lat="39.110135" lon="16.5105017"><ele>1121.0</ele><time>2026-04-18T16:01:11.532Z</time></trkpt><trkpt lat="39.1101" lon="16.5104283"><ele>1121.0</ele><time>2026-04-18T16:01:12.531Z</time></trkpt><trkpt lat="39.11008" lon="16.5103283"><ele>1121.0</ele><time>2026-04-18T16:01:13.534Z</time></trkpt><trkpt lat="39.1100433" lon="16.5102517"><ele>1121.0</ele><time>2026-04-18T16:01:14.533Z</time></trkpt><trkpt lat="39.1099967" lon="16.5101883"><ele>1121.0</ele><time>2026-04-18T16:01:15.533Z</time></trkpt><trkpt lat="39.10988" lon="16.5101417"><ele>1122.0</ele><time>2026-04-18T16:01:17.532Z</time></trkpt><trkpt lat="39.1097717" lon="16.5101367"><ele>1123.0</ele><time>2026-04-18T16:01:19.536Z</time></trkpt><trkpt lat="39.1096617" lon="16.510225"><ele>1124.0</ele><time>2026-04-18T16:01:21.534Z</time></trkpt><trkpt lat="39.1096017" lon="16.5102633"><ele>1125.0</ele><time>2026-04-18T16:01:22.531Z</time></trkpt><trkpt lat="39.1095017" lon="16.5102967"><ele>1126.0</ele><time>2026-04-18T16:01:24.533Z</time></trkpt><trkpt lat="39.109455" lon="16.5102417"><ele>1126.0</ele><time>2026-04-18T16:01:26.532Z</time></trkpt><trkpt lat="39.1094483" lon="16.510095"><ele>1126.0</ele><time>2026-04-18T16:01:28.532Z</time></trkpt><trkpt lat="39.1093867" lon="16.5099567"><ele>1126.0</ele><time>2026-04-18T16:01:30.531Z</time></trkpt><trkpt lat="39.1092833" lon="16.50987"><ele>1126.0</ele><time>2026-04-18T16:01:32.536Z</time></trkpt><trkpt lat="39.1091933" lon="16.5098483"><ele>1126.0</ele><time>2026-04-18T16:01:33.533Z</time></trkpt><trkpt lat="39.10911" lon="16.50977"><ele>1126.0</ele><time>2026-04-18T16:01:34.532Z</time></trkpt><trkpt lat="39.1090033" lon="16.5097633"><ele>1126.0</ele><time>2026-04-18T16:01:35.531Z</time></trkpt><trkpt lat="39.1089833" lon="16.5096783"><ele>1126.0</ele><time>2026-04-18T16:01:36.531Z</time></trkpt><trkpt lat="39.10888" lon="16.509685"><ele>1126.0</ele><time>2026-04-18T16:01:37.535Z</time></trkpt><trkpt lat="39.1088017" lon="16.5096633"><ele>1126.1666666666665</ele><time>2026-04-18T16:01:38.534Z</time></trkpt><trkpt lat="39.1087383" lon="16.509625"><ele>1126.3333333333333</ele><time>2026-04-18T16:01:39.532Z</time></trkpt><trkpt lat="39.1086767" lon="16.5095833"><ele>1126.5</ele><time>2026-04-18T16:01:40.531Z</time></trkpt><trkpt lat="39.108635" lon="16.5095083"><ele>1126.6666666666667</ele><time>2026-04-18T16:01:41.533Z</time></trkpt><trkpt lat="39.1086" lon="16.5094183"><ele>1126.8333333333335</ele><time>2026-04-18T16:01:42.533Z</time></trkpt><trkpt lat="39.1085617" lon="16.50932"><ele>1127.0</ele><time>2026-04-18T16:01:43.531Z</time></trkpt><trkpt lat="39.1085317" lon="16.5092067"><ele>1127.0</ele><time>2026-04-18T16:01:44.536Z</time></trkpt><trkpt lat="39.1085" lon="16.5090933"><ele>1127.0</ele><time>2026-04-18T16:01:45.535Z</time></trkpt><trkpt lat="39.1084917" lon="16.5089567"><ele>1127.0</ele><time>2026-04-18T16:01:46.536Z</time></trkpt><trkpt lat="39.1084667" lon="16.5088383"><ele>1127.0</ele><time>2026-04-18T16:01:47.538Z</time></trkpt><trkpt lat="39.1084133" lon="16.5087517"><ele>1127.0</ele><time>2026-04-18T16:01:48.535Z</time></trkpt><trkpt lat="39.10835" lon="16.5086933"><ele>1127.0</ele><time>2026-04-18T16:01:49.533Z</time></trkpt><trkpt lat="39.1082767" lon="16.5086433"><ele>1127.0</ele><time>2026-04-18T16:01:50.532Z</time></trkpt><trkpt lat="39.1082033" lon="16.508585"><ele>1127.0</ele><time>2026-04-18T16:01:51.532Z</time></trkpt><trkpt lat="39.1081383" lon="16.508545"><ele>1127.0</ele><time>2026-04-18T16:01:52.535Z</time></trkpt><trkpt lat="39.1080633" lon="16.5084567"><ele>1127.0</ele><time>2026-04-18T16:01:54.531Z</time></trkpt><trkpt lat="39.1080067" lon="16.5083917"><ele>1127.0</ele><time>2026-04-18T16:01:56.535Z</time></trkpt><trkpt lat="39.1079917" lon="16.5083117"><ele>1127.0</ele><time>2026-04-18T16:01:57.535Z</time></trkpt><trkpt lat="39.107985" lon="16.5082183"><ele>1127.0</ele><time>2026-04-18T16:01:58.535Z</time></trkpt><trkpt lat="39.1079867" lon="16.5081"><ele>1127.0</ele><time>2026-04-18T16:01:59.536Z</time></trkpt><trkpt lat="39.1079717" lon="16.507975"><ele>1127.0</ele><time>2026-04-18T16:02:00.533Z</time></trkpt><trkpt lat="39.1079733" lon="16.5078383"><ele>1127.0</ele><time>2026-04-18T16:02:01.534Z</time></trkpt><trkpt lat="39.1079833" lon="16.5077017"><ele>1131.2</ele><time>2026-04-18T16:02:02.531Z</time></trkpt><trkpt lat="39.1079867" lon="16.5075783"><ele>1135.4</ele><time>2026-04-18T16:02:03.532Z</time></trkpt><trkpt lat="39.108005" lon="16.5074733"><ele>1139.6</ele><time>2026-04-18T16:02:04.532Z</time></trkpt><trkpt lat="39.1080283" lon="16.507385"><ele>1143.8</ele><time>2026-04-18T16:02:05.531Z</time></trkpt><trkpt lat="39.1081017" lon="16.50725"><ele>1148.0</ele><time>2026-04-18T16:02:07.531Z</time></trkpt><trkpt lat="39.1081167" lon="16.50711"><ele>1148.0</ele><time>2026-04-18T16:02:09.532Z</time></trkpt><trkpt lat="39.108055" lon="16.5069833"><ele>1148.0</ele><time>2026-04-18T16:02:11.533Z</time></trkpt><trkpt lat="39.108" lon="16.50694"><ele>1148.0</ele><time>2026-04-18T16:02:12.536Z</time></trkpt><trkpt lat="39.1079367" lon="16.50694"><ele>1148.0</ele><time>2026-04-18T16:02:13.534Z</time></trkpt><trkpt lat="39.1078717" lon="16.5069833"><ele>1148.0</ele><time>2026-04-18T16:02:14.533Z</time></trkpt><trkpt lat="39.107795" lon="16.5070783"><ele>1148.0</ele><time>2026-04-18T16:02:15.615Z</time></trkpt><trkpt lat="39.1077467" lon="16.5071883"><ele>1148.0</ele><time>2026-04-18T16:02:16.531Z</time></trkpt><trkpt lat="39.1077333" lon="16.5072967"><ele>1148.0</ele><time>2026-04-18T16:02:17.535Z</time></trkpt><trkpt lat="39.1077317" lon="16.5074017"><ele>1148.0</ele><time>2026-04-18T16:02:19.531Z</time></trkpt><trkpt lat="39.10763" lon="16.5075267"><ele>1148.0</ele><time>2026-04-18T16:02:20.532Z</time></trkpt><trkpt lat="39.1075167" lon="16.5076217"><ele>1148.0</ele><time>2026-04-18T16:02:21.534Z</time></trkpt><trkpt lat="39.1074317" lon="16.507725"><ele>1146.3333333333335</ele><time>2026-04-18T16:02:23.534Z</time></trkpt><trkpt lat="39.1073567" lon="16.507755"><ele>1144.6666666666667</ele><time>2026-04-18T16:02:25.533Z</time></trkpt><trkpt lat="39.1073083" lon="16.5078467"><ele>1143.0</ele><time>2026-04-18T16:02:26.537Z</time></trkpt><trkpt lat="39.1072817" lon="16.5079533"><ele>1141.3333333333333</ele><time>2026-04-18T16:02:27.533Z</time></trkpt><trkpt lat="39.1072533" lon="16.5080633"><ele>1139.6666666666665</ele><time>2026-04-18T16:02:28.536Z</time></trkpt><trkpt lat="39.1072117" lon="16.5081717"><ele>1138.0</ele><time>2026-04-18T16:02:29.531Z</time></trkpt><trkpt lat="39.10715" lon="16.5082667"><ele>1138.0</ele><time>2026-04-18T16:02:30.533Z</time></trkpt><trkpt lat="39.1070867" lon="16.508345"><ele>1138.0</ele><time>2026-04-18T16:02:31.531Z</time></trkpt><trkpt lat="39.10703" lon="16.5084033"><ele>1138.0</ele><time>2026-04-18T16:02:32.533Z</time></trkpt><trkpt lat="39.1069517" lon="16.5084033"><ele>1138.0</ele><time>2026-04-18T16:02:33.532Z</time></trkpt><trkpt lat="39.1068767" lon="16.5083933"><ele>1138.0</ele><time>2026-04-18T16:02:34.532Z</time></trkpt><trkpt lat="39.1067933" lon="16.5083533"><ele>1138.0</ele><time>2026-04-18T16:02:35.533Z</time></trkpt><trkpt lat="39.1067067" lon="16.5083217"><ele>1138.0</ele><time>2026-04-18T16:02:36.531Z</time></trkpt><trkpt lat="39.1066367" lon="16.5082367"><ele>1138.0</ele><time>2026-04-18T16:02:37.532Z</time></trkpt><trkpt lat="39.1065717" lon="16.508145"><ele>1138.0</ele><time>2026-04-18T16:02:38.615Z</time></trkpt><trkpt lat="39.1064983" lon="16.508065"><ele>1138.0</ele><time>2026-04-18T16:02:39.53Z</time></trkpt><trkpt lat="39.1064" lon="16.5080217"><ele>1138.0</ele><time>2026-04-18T16:02:40.536Z</time></trkpt><trkpt lat="39.1063517" lon="16.5079483"><ele>1138.3333333333333</ele><time>2026-04-18T16:02:41.531Z</time></trkpt><trkpt lat="39.10627" lon="16.5079133"><ele>1138.6666666666665</ele><time>2026-04-18T16:02:42.532Z</time></trkpt><trkpt lat="39.10619" lon="16.507875"><ele>1139.0</ele><time>2026-04-18T16:02:43.533Z</time></trkpt><trkpt lat="39.10614" lon="16.5077917"><ele>1139.3333333333333</ele><time>2026-04-18T16:02:44.532Z</time></trkpt><trkpt lat="39.1060867" lon="16.5077283"><ele>1139.6666666666667</ele><time>2026-04-18T16:02:45.532Z</time></trkpt><trkpt lat="39.1060317" lon="16.5076767"><ele>1140.0</ele><time>2026-04-18T16:02:46.534Z</time></trkpt><trkpt lat="39.10597" lon="16.5076417"><ele>1140.0</ele><time>2026-04-18T16:02:47.533Z</time></trkpt><trkpt lat="39.1059083" lon="16.5076117"><ele>1140.0</ele><time>2026-04-18T16:02:48.533Z</time></trkpt><trkpt lat="39.1057933" lon="16.5076333"><ele>1140.0</ele><time>2026-04-18T16:02:50.533Z</time></trkpt><trkpt lat="39.10579" lon="16.5077967"><ele>1140.0</ele><time>2026-04-18T16:02:52.531Z</time></trkpt><trkpt lat="39.1058017" lon="16.50788"><ele>1140.0</ele><time>2026-04-18T16:02:53.535Z</time></trkpt><trkpt lat="39.105825" lon="16.5080067"><ele>1140.0</ele><time>2026-04-18T16:02:54.533Z</time></trkpt><trkpt lat="39.1058467" lon="16.50813"><ele>1140.0</ele><time>2026-04-18T16:02:55.533Z</time></trkpt><trkpt lat="39.10582" lon="16.5082533"><ele>1140.0</ele><time>2026-04-18T16:02:56.534Z</time></trkpt><trkpt lat="39.10581" lon="16.5083883"><ele>1140.0</ele><time>2026-04-18T16:02:57.531Z</time></trkpt><trkpt lat="39.10577" lon="16.50849"><ele>1140.0</ele><time>2026-04-18T16:02:58.533Z</time></trkpt><trkpt lat="39.1057217" lon="16.5085767"><ele>1137.8</ele><time>2026-04-18T16:02:59.531Z</time></trkpt><trkpt lat="39.1056817" lon="16.5086633"><ele>1135.6</ele><time>2026-04-18T16:03:00.533Z</time></trkpt><trkpt lat="39.1056533" lon="16.50875"><ele>1133.4</ele><time>2026-04-18T16:03:01.534Z</time></trkpt><trkpt lat="39.1055867" lon="16.5088517"><ele>1131.2</ele><time>2026-04-18T16:03:03.535Z</time></trkpt><trkpt lat="39.10552" lon="16.5089667"><ele>1129.0</ele><time>2026-04-18T16:03:05.532Z</time></trkpt><trkpt lat="39.1054067" lon="16.5090383"><ele>1129.0</ele><time>2026-04-18T16:03:07.534Z</time></trkpt><trkpt lat="39.1052717" lon="16.5090333"><ele>1129.0</ele><time>2026-04-18T16:03:09.537Z</time></trkpt><trkpt lat="39.1052" lon="16.5090183"><ele>1129.0</ele><time>2026-04-18T16:03:10.533Z</time></trkpt><trkpt lat="39.10512" lon="16.5090233"><ele>1129.0</ele><time>2026-04-18T16:03:11.535Z</time></trkpt><trkpt lat="39.1050417" lon="16.5090433"><ele>1129.0</ele><time>2026-04-18T16:03:12.534Z</time></trkpt><trkpt lat="39.1049517" lon="16.5090483"><ele>1128.0</ele><time>2026-04-18T16:03:13.531Z</time></trkpt><trkpt lat="39.104865" lon="16.5090817"><ele>1127.0</ele><time>2026-04-18T16:03:14.53Z</time></trkpt><trkpt lat="39.1047817" lon="16.509095"><ele>1126.0</ele><time>2026-04-18T16:03:15.531Z</time></trkpt><trkpt lat="39.1047033" lon="16.5091117"><ele>1125.0</ele><time>2026-04-18T16:03:16.53Z</time></trkpt><trkpt lat="39.1046317" lon="16.5091083"><ele>1124.0</ele><time>2026-04-18T16:03:17.532Z</time></trkpt><trkpt lat="39.10457" lon="16.509085"><ele>1123.0</ele><time>2026-04-18T16:03:18.536Z</time></trkpt><trkpt lat="39.1045183" lon="16.509035"><ele>1123.0</ele><time>2026-04-18T16:03:19.534Z</time></trkpt><trkpt lat="39.10447" lon="16.508925"><ele>1123.0</ele><time>2026-04-18T16:03:21.531Z</time></trkpt><trkpt lat="39.1044883" lon="16.5087567"><ele>1123.0</ele><time>2026-04-18T16:03:23.531Z</time></trkpt><trkpt lat="39.1045133" lon="16.5086567"><ele>1123.0</ele><time>2026-04-18T16:03:24.533Z</time></trkpt><trkpt lat="39.1045133" lon="16.50856"><ele>1123.0</ele><time>2026-04-18T16:03:25.532Z</time></trkpt><trkpt lat="39.1045417" lon="16.50845"><ele>1125.5</ele><time>2026-04-18T16:03:26.534Z</time></trkpt><trkpt lat="39.104545" lon="16.5083533"><ele>1128.0</ele><time>2026-04-18T16:03:27.533Z</time></trkpt><trkpt lat="39.10449" lon="16.5082267"><ele>1130.5</ele><time>2026-04-18T16:03:29.534Z</time></trkpt><trkpt lat="39.104375" lon="16.5082133"><ele>1133.0</ele><time>2026-04-18T16:03:31.536Z</time></trkpt><trkpt lat="39.1043117" lon="16.5082233"><ele>1135.5</ele><time>2026-04-18T16:03:32.535Z</time></trkpt><trkpt lat="39.104245" lon="16.5082083"><ele>1138.0</ele><time>2026-04-18T16:03:33.534Z</time></trkpt><trkpt lat="39.1041717" lon="16.5082167"><ele>1138.0</ele><time>2026-04-18T16:03:34.532Z</time></trkpt><trkpt lat="39.1040917" lon="16.5082217"><ele>1138.0</ele><time>2026-04-18T16:03:35.533Z</time></trkpt><trkpt lat="39.1040067" lon="16.5082517"><ele>1138.0</ele><time>2026-04-18T16:03:36.533Z</time></trkpt><trkpt lat="39.1039167" lon="16.5082633"><ele>1138.0</ele><time>2026-04-18T16:03:37.532Z</time></trkpt><trkpt lat="39.1038283" lon="16.508285"><ele>1138.0</ele><time>2026-04-18T16:03:38.532Z</time></trkpt><trkpt lat="39.1037483" lon="16.5082933"><ele>1138.0</ele><time>2026-04-18T16:03:39.533Z</time></trkpt><trkpt lat="39.10368" lon="16.5082917"><ele>1136.8333333333333</ele><time>2026-04-18T16:03:40.534Z</time></trkpt><trkpt lat="39.1035717" lon="16.50828"><ele>1135.6666666666665</ele><time>2026-04-18T16:03:42.532Z</time></trkpt><trkpt lat="39.1035117" lon="16.5082183"><ele>1134.5</ele><time>2026-04-18T16:03:44.532Z</time></trkpt><trkpt lat="39.1035083" lon="16.5080667"><ele>1133.3333333333333</ele><time>2026-04-18T16:03:46.533Z</time></trkpt><trkpt lat="39.10352" lon="16.507975"><ele>1132.1666666666667</ele><time>2026-04-18T16:03:47.529Z</time></trkpt><trkpt lat="39.1035117" lon="16.5078867"><ele>1131.0</ele><time>2026-04-18T16:03:48.532Z</time></trkpt><trkpt lat="39.1034417" lon="16.507795"><ele>1132.6</ele><time>2026-04-18T16:03:50.53Z</time></trkpt><trkpt lat="39.1033283" lon="16.50782"><ele>1134.1999999999998</ele><time>2026-04-18T16:03:52.533Z</time></trkpt><trkpt lat="39.1032033" lon="16.5078533"><ele>1135.8000000000002</ele><time>2026-04-18T16:03:54.534Z</time></trkpt><trkpt lat="39.10314" lon="16.507915"><ele>1137.4</ele><time>2026-04-18T16:03:55.538Z</time></trkpt><trkpt lat="39.1030233" lon="16.5079333"><ele>1139.0</ele><time>2026-04-18T16:03:57.532Z</time></trkpt><trkpt lat="39.102945" lon="16.5080017"><ele>1139.0</ele><time>2026-04-18T16:03:59.531Z</time></trkpt><trkpt lat="39.102905" lon="16.5080817"><ele>1139.0</ele><time>2026-04-18T16:04:01.531Z</time></trkpt><trkpt lat="39.1029283" lon="16.50818"><ele>1139.0</ele><time>2026-04-18T16:04:03.532Z</time></trkpt><trkpt lat="39.1028917" lon="16.5082767"><ele>1139.0</ele><time>2026-04-18T16:04:05.531Z</time></trkpt><trkpt lat="39.1028033" lon="16.50829"><ele>1139.0</ele><time>2026-04-18T16:04:07.532Z</time></trkpt><trkpt lat="39.102695" lon="16.5082483"><ele>1139.0</ele><time>2026-04-18T16:04:09.533Z</time></trkpt><trkpt lat="39.1025817" lon="16.5082467"><ele>1139.0</ele><time>2026-04-18T16:04:11.536Z</time></trkpt><trkpt lat="39.102515" lon="16.5082733"><ele>1139.0</ele><time>2026-04-18T16:04:13.536Z</time></trkpt><trkpt lat="39.1024633" lon="16.5083633"><ele>1139.0</ele><time>2026-04-18T16:04:15.534Z</time></trkpt><trkpt lat="39.10246" lon="16.5085083"><ele>1139.0</ele><time>2026-04-18T16:04:17.531Z</time></trkpt><trkpt lat="39.10244" lon="16.5086017"><ele>1139.0</ele><time>2026-04-18T16:04:18.533Z</time></trkpt><trkpt lat="39.1024" lon="16.5087"><ele>1139.0</ele><time>2026-04-18T16:04:19.537Z</time></trkpt><trkpt lat="39.1023533" lon="16.5087933"><ele>1139.0</ele><time>2026-04-18T16:04:20.534Z</time></trkpt><trkpt lat="39.1022883" lon="16.5088867"><ele>1139.0</ele><time>2026-04-18T16:04:21.536Z</time></trkpt><trkpt lat="39.1022967" lon="16.5090083"><ele>1139.0</ele><time>2026-04-18T16:04:22.531Z</time></trkpt><trkpt lat="39.1022317" lon="16.509025"><ele>1139.0</ele><time>2026-04-18T16:04:23.533Z</time></trkpt><trkpt lat="39.1021567" lon="16.5090433"><ele>1139.0</ele><time>2026-04-18T16:04:24.535Z</time></trkpt><trkpt lat="39.102055" lon="16.509025"><ele>1139.0</ele><time>2026-04-18T16:04:26.535Z</time></trkpt><trkpt lat="39.101985" lon="16.5089933"><ele>1139.0</ele><time>2026-04-18T16:04:28.534Z</time></trkpt><trkpt lat="39.1019167" lon="16.5089767"><ele>1139.0</ele><time>2026-04-18T16:04:30.536Z</time></trkpt><trkpt lat="39.1017967" lon="16.5089733"><ele>1139.0</ele><time>2026-04-18T16:04:32.537Z</time></trkpt><trkpt lat="39.1016933" lon="16.5090083"><ele>1139.0</ele><time>2026-04-18T16:04:34.534Z</time></trkpt><trkpt lat="39.101655" lon="16.509105"><ele>1139.0</ele><time>2026-04-18T16:04:36.534Z</time></trkpt><trkpt lat="39.1016583" lon="16.50919"><ele>1139.0</ele><time>2026-04-18T16:04:38.53Z</time></trkpt><trkpt lat="39.101645" lon="16.5093017"><ele>1139.0</ele><time>2026-04-18T16:04:41.534Z</time></trkpt><trkpt lat="39.1016267" lon="16.5093967"><ele>1139.0</ele><time>2026-04-18T16:04:43.532Z</time></trkpt><trkpt lat="39.1015617" lon="16.5094583"><ele>1139.0</ele><time>2026-04-18T16:04:45.532Z</time></trkpt><trkpt lat="39.1014867" lon="16.50954"><ele>1139.0</ele><time>2026-04-18T16:04:47.535Z</time></trkpt><trkpt lat="39.1014233" lon="16.5095717"><ele>1139.0</ele><time>2026-04-18T16:04:48.532Z</time></trkpt><trkpt lat="39.1013567" lon="16.50958"><ele>1139.0</ele><time>2026-04-18T16:04:49.533Z</time></trkpt><trkpt lat="39.1012817" lon="16.5095883"><ele>1139.6000000000001</ele><time>2026-04-18T16:04:50.533Z</time></trkpt><trkpt lat="39.1012033" lon="16.509595"><ele>1140.2</ele><time>2026-04-18T16:04:51.533Z</time></trkpt><trkpt lat="39.1011383" lon="16.5095267"><ele>1140.8000000000002</ele><time>2026-04-18T16:04:52.532Z</time></trkpt><trkpt lat="39.10105" lon="16.5094833"><ele>1141.4</ele><time>2026-04-18T16:04:53.531Z</time></trkpt><trkpt lat="39.1009233" lon="16.5094667"><ele>1142.0</ele><time>2026-04-18T16:04:54.532Z</time></trkpt><trkpt lat="39.10083" lon="16.5094067"><ele>1140.5</ele><time>2026-04-18T16:04:55.533Z</time></trkpt><trkpt lat="39.1007283" lon="16.5093417"><ele>1139.0</ele><time>2026-04-18T16:04:56.533Z</time></trkpt><trkpt lat="39.1006317" lon="16.5092667"><ele>1137.5</ele><time>2026-04-18T16:04:57.533Z</time></trkpt><trkpt lat="39.1005417" lon="16.5091667"><ele>1136.0</ele><time>2026-04-18T16:04:58.533Z</time></trkpt><trkpt lat="39.1004317" lon="16.5091367"><ele>1136.0</ele><time>2026-04-18T16:04:59.532Z</time></trkpt><trkpt lat="39.1003133" lon="16.5091083"><ele>1136.0</ele><time>2026-04-18T16:05:00.535Z</time></trkpt><trkpt lat="39.100185" lon="16.5091117"><ele>1136.0</ele><time>2026-04-18T16:05:01.533Z</time></trkpt><trkpt lat="39.10002" lon="16.509145"><ele>1136.0</ele><time>2026-04-18T16:05:02.534Z</time></trkpt><trkpt lat="39.0999017" lon="16.5091433"><ele>1135.0</ele><time>2026-04-18T16:05:03.534Z</time></trkpt><trkpt lat="39.0997783" lon="16.5091233"><ele>1134.0</ele><time>2026-04-18T16:05:04.531Z</time></trkpt><trkpt lat="39.0996567" lon="16.509075"><ele>1133.0</ele><time>2026-04-18T16:05:05.532Z</time></trkpt><trkpt lat="39.099545" lon="16.5090183"><ele>1132.0</ele><time>2026-04-18T16:05:06.533Z</time></trkpt><trkpt lat="39.0994217" lon="16.5089117"><ele>1132.0</ele><time>2026-04-18T16:05:07.533Z</time></trkpt><trkpt lat="39.0993017" lon="16.5087867"><ele>1132.0</ele><time>2026-04-18T16:05:08.537Z</time></trkpt><trkpt lat="39.0992067" lon="16.508635"><ele>1132.0</ele><time>2026-04-18T16:05:09.533Z</time></trkpt><trkpt lat="39.0990883" lon="16.5085133"><ele>1131.75</ele><time>2026-04-18T16:05:10.536Z</time></trkpt><trkpt lat="39.0989533" lon="16.5085133"><ele>1131.5</ele><time>2026-04-18T16:05:11.532Z</time></trkpt><trkpt lat="39.0988233" lon="16.5084333"><ele>1131.25</ele><time>2026-04-18T16:05:12.534Z</time></trkpt><trkpt lat="39.0986733" lon="16.5083933"><ele>1131.0</ele><time>2026-04-18T16:05:13.533Z</time></trkpt><trkpt lat="39.0985433" lon="16.5083483"><ele>1131.0</ele><time>2026-04-18T16:05:14.533Z</time></trkpt><trkpt lat="39.0984567" lon="16.5081933"><ele>1131.0</ele><time>2026-04-18T16:05:15.534Z</time></trkpt><trkpt lat="39.098315" lon="16.5081283"><ele>1131.0</ele><time>2026-04-18T16:05:16.531Z</time></trkpt><trkpt lat="39.0981817" lon="16.508045"><ele>1131.0</ele><time>2026-04-18T16:05:17.534Z</time></trkpt><trkpt lat="39.09808" lon="16.507925"><ele>1132.0</ele><time>2026-04-18T16:05:18.535Z</time></trkpt><trkpt lat="39.098015" lon="16.5078033"><ele>1133.0</ele><time>2026-04-18T16:05:19.535Z</time></trkpt><trkpt lat="39.09794" lon="16.5076783"><ele>1134.0</ele><time>2026-04-18T16:05:20.532Z</time></trkpt><trkpt lat="39.0978817" lon="16.5075533"><ele>1135.0</ele><time>2026-04-18T16:05:21.532Z</time></trkpt><trkpt lat="39.0978383" lon="16.507445"><ele>1136.0</ele><time>2026-04-18T16:05:22.53Z</time></trkpt><trkpt lat="39.0978033" lon="16.5073633"><ele>1136.0</ele><time>2026-04-18T16:05:23.531Z</time></trkpt><trkpt lat="39.0977233" lon="16.5073183"><ele>1136.0</ele><time>2026-04-18T16:05:25.532Z</time></trkpt><trkpt lat="39.0976867" lon="16.507405"><ele>1136.0</ele><time>2026-04-18T16:05:28.534Z</time></trkpt><trkpt lat="39.097705" lon="16.5075333"><ele>1136.0</ele><time>2026-04-18T16:05:30.531Z</time></trkpt><trkpt lat="39.09771" lon="16.5076183"><ele>1136.0</ele><time>2026-04-18T16:05:31.533Z</time></trkpt><trkpt lat="39.09772" lon="16.507705"><ele>1136.0</ele><time>2026-04-18T16:05:32.534Z</time></trkpt><trkpt lat="39.09775" lon="16.5078533"><ele>1135.0</ele><time>2026-04-18T16:05:34.534Z</time></trkpt><trkpt lat="39.0977633" lon="16.5080017"><ele>1134.0</ele><time>2026-04-18T16:05:36.534Z</time></trkpt><trkpt lat="39.0977683" lon="16.5081583"><ele>1133.0</ele><time>2026-04-18T16:05:38.534Z</time></trkpt><trkpt lat="39.09778" lon="16.50831"><ele>1132.0</ele><time>2026-04-18T16:05:40.536Z</time></trkpt><trkpt lat="39.0977767" lon="16.5083917"><ele>1131.0</ele><time>2026-04-18T16:05:41.534Z</time></trkpt><trkpt lat="39.097775" lon="16.5085417"><ele>1131.0</ele><time>2026-04-18T16:05:43.53Z</time></trkpt><trkpt lat="39.0977483" lon="16.50866"><ele>1131.0</ele><time>2026-04-18T16:05:45.53Z</time></trkpt><trkpt lat="39.097665" lon="16.5087117"><ele>1131.0</ele><time>2026-04-18T16:05:47.532Z</time></trkpt><trkpt lat="39.0975633" lon="16.508735"><ele>1131.0</ele><time>2026-04-18T16:05:49.532Z</time></trkpt><trkpt lat="39.0974783" lon="16.5086683"><ele>1131.0</ele><time>2026-04-18T16:05:51.532Z</time></trkpt><trkpt lat="39.0974233" lon="16.5085167"><ele>1130.5714285714287</ele><time>2026-04-18T16:05:53.531Z</time></trkpt><trkpt lat="39.0973933" lon="16.508435"><ele>1130.142857142857</ele><time>2026-04-18T16:05:54.536Z</time></trkpt><trkpt lat="39.0973617" lon="16.5083567"><ele>1129.7142857142858</ele><time>2026-04-18T16:05:55.532Z</time></trkpt><trkpt lat="39.0973117" lon="16.508305"><ele>1129.2857142857142</ele><time>2026-04-18T16:05:56.532Z</time></trkpt><trkpt lat="39.0972483" lon="16.50827"><ele>1128.857142857143</ele><time>2026-04-18T16:05:57.531Z</time></trkpt><trkpt lat="39.0971733" lon="16.508245"><ele>1128.4285714285716</ele><time>2026-04-18T16:05:58.534Z</time></trkpt><trkpt lat="39.0970967" lon="16.5082283"><ele>1128.0</ele><time>2026-04-18T16:05:59.534Z</time></trkpt><trkpt lat="39.096995" lon="16.508165"><ele>1128.0</ele><time>2026-04-18T16:06:01.532Z</time></trkpt><trkpt lat="39.0969317" lon="16.5080367"><ele>1128.0</ele><time>2026-04-18T16:06:03.537Z</time></trkpt><trkpt lat="39.09688" lon="16.50792"><ele>1128.0</ele><time>2026-04-18T16:06:05.533Z</time></trkpt><trkpt lat="39.0968217" lon="16.5078433"><ele>1128.0</ele><time>2026-04-18T16:06:07.534Z</time></trkpt><trkpt lat="39.0967583" lon="16.507785"><ele>1128.0</ele><time>2026-04-18T16:06:09.533Z</time></trkpt><trkpt lat="39.09666" lon="16.5077833"><ele>1129.25</ele><time>2026-04-18T16:06:11.533Z</time></trkpt><trkpt lat="39.0965667" lon="16.507825"><ele>1130.5</ele><time>2026-04-18T16:06:13.534Z</time></trkpt><trkpt lat="39.0964633" lon="16.5078983"><ele>1131.75</ele><time>2026-04-18T16:06:15.531Z</time></trkpt><trkpt lat="39.0963833" lon="16.5080133"><ele>1133.0</ele><time>2026-04-18T16:06:17.53Z</time></trkpt><trkpt lat="39.0963533" lon="16.5081583"><ele>1134.4</ele><time>2026-04-18T16:06:19.533Z</time></trkpt><trkpt lat="39.0963317" lon="16.5083267"><ele>1135.8</ele><time>2026-04-18T16:06:21.531Z</time></trkpt><trkpt lat="39.096355" lon="16.5084033"><ele>1137.2</ele><time>2026-04-18T16:06:22.535Z</time></trkpt><trkpt lat="39.0963533" lon="16.5084983"><ele>1138.6</ele><time>2026-04-18T16:06:23.53Z</time></trkpt><trkpt lat="39.0963683" lon="16.5085883"><ele>1140.0</ele><time>2026-04-18T16:06:24.532Z</time></trkpt><trkpt lat="39.0964133" lon="16.50873"><ele>1141.0</ele><time>2026-04-18T16:06:26.535Z</time></trkpt><trkpt lat="39.0964717" lon="16.50885"><ele>1142.0</ele><time>2026-04-18T16:06:28.53Z</time></trkpt><trkpt lat="39.0965067" lon="16.5089217"><ele>1143.0</ele><time>2026-04-18T16:06:29.53Z</time></trkpt><trkpt lat="39.0965567" lon="16.50898"><ele>1144.0</ele><time>2026-04-18T16:06:30.534Z</time></trkpt><trkpt lat="39.0966067" lon="16.509045"><ele>1145.0</ele><time>2026-04-18T16:06:31.536Z</time></trkpt><trkpt lat="39.0966567" lon="16.5091133"><ele>1146.0</ele><time>2026-04-18T16:06:32.534Z</time></trkpt><trkpt lat="39.0967" lon="16.509175"><ele>1145.3999999999999</ele><time>2026-04-18T16:06:33.53Z</time></trkpt><trkpt lat="39.0967583" lon="16.5093017"><ele>1144.8</ele><time>2026-04-18T16:06:35.53Z</time></trkpt><trkpt lat="39.096755" lon="16.5094417"><ele>1144.1999999999998</ele><time>2026-04-18T16:06:37.535Z</time></trkpt><trkpt lat="39.0966867" lon="16.5095667"><ele>1143.6</ele><time>2026-04-18T16:06:39.531Z</time></trkpt><trkpt lat="39.096625" lon="16.5096017"><ele>1143.0</ele><time>2026-04-18T16:06:40.531Z</time></trkpt><trkpt lat="39.0965267" lon="16.5096767"><ele>1143.0</ele><time>2026-04-18T16:06:42.533Z</time></trkpt><trkpt lat="39.0964433" lon="16.5098133"><ele>1143.0</ele><time>2026-04-18T16:06:44.533Z</time></trkpt><trkpt lat="39.09641" lon="16.5099067"><ele>1143.0</ele><time>2026-04-18T16:06:45.533Z</time></trkpt><trkpt lat="39.09638" lon="16.5099983"><ele>1143.0</ele><time>2026-04-18T16:06:46.534Z</time></trkpt><trkpt lat="39.0963517" lon="16.5100867"><ele>1143.0</ele><time>2026-04-18T16:06:47.534Z</time></trkpt><trkpt lat="39.0963217" lon="16.5101667"><ele>1143.0</ele><time>2026-04-18T16:06:48.535Z</time></trkpt><trkpt lat="39.0962433" lon="16.5102683"><ele>1143.0</ele><time>2026-04-18T16:06:50.534Z</time></trkpt><trkpt lat="39.0961217" lon="16.510315"><ele>1143.0</ele><time>2026-04-18T16:06:52.532Z</time></trkpt><trkpt lat="39.09605" lon="16.51033"><ele>1143.0</ele><time>2026-04-18T16:06:53.531Z</time></trkpt><trkpt lat="39.09598" lon="16.5103467"><ele>1143.0</ele><time>2026-04-18T16:06:54.532Z</time></trkpt><trkpt lat="39.0959183" lon="16.51037"><ele>1143.0</ele><time>2026-04-18T16:06:55.534Z</time></trkpt><trkpt lat="39.095835" lon="16.5104483"><ele>1143.0</ele><time>2026-04-18T16:06:57.534Z</time></trkpt><trkpt lat="39.0958" lon="16.51056"><ele>1141.0</ele><time>2026-04-18T16:06:59.531Z</time></trkpt><trkpt lat="39.0958267" lon="16.51067"><ele>1139.0</ele><time>2026-04-18T16:07:01.535Z</time></trkpt><trkpt lat="39.0958767" lon="16.510745"><ele>1137.0</ele><time>2026-04-18T16:07:03.533Z</time></trkpt><trkpt lat="39.0959183" lon="16.5108367"><ele>1135.0</ele><time>2026-04-18T16:07:05.535Z</time></trkpt><trkpt lat="39.0959567" lon="16.5109317"><ele>1133.0</ele><time>2026-04-18T16:07:07.534Z</time></trkpt><trkpt lat="39.09597" lon="16.511085"><ele>1133.0</ele><time>2026-04-18T16:07:09.535Z</time></trkpt><trkpt lat="39.09597" lon="16.51118"><ele>1133.0</ele><time>2026-04-18T16:07:10.531Z</time></trkpt><trkpt lat="39.0959717" lon="16.5112833"><ele>1133.0</ele><time>2026-04-18T16:07:11.533Z</time></trkpt><trkpt lat="39.095975" lon="16.5113767"><ele>1133.0</ele><time>2026-04-18T16:07:12.533Z</time></trkpt><trkpt lat="39.09594" lon="16.51152"><ele>1133.0</ele><time>2026-04-18T16:07:14.53Z</time></trkpt><trkpt lat="39.095895" lon="16.511635"><ele>1133.0</ele><time>2026-04-18T16:07:16.531Z</time></trkpt><trkpt lat="39.0958217" lon="16.5117467"><ele>1131.8333333333335</ele><time>2026-04-18T16:07:18.532Z</time></trkpt><trkpt lat="39.09573" lon="16.511865"><ele>1130.6666666666667</ele><time>2026-04-18T16:07:20.532Z</time></trkpt><trkpt lat="39.0956817" lon="16.5119383"><ele>1129.5</ele><time>2026-04-18T16:07:21.533Z</time></trkpt><trkpt lat="39.0956317" lon="16.51201"><ele>1128.3333333333333</ele><time>2026-04-18T16:07:22.531Z</time></trkpt><trkpt lat="39.0955767" lon="16.5120683"><ele>1127.1666666666665</ele><time>2026-04-18T16:07:23.532Z</time></trkpt><trkpt lat="39.0955433" lon="16.5121483"><ele>1126.0</ele><time>2026-04-18T16:07:24.532Z</time></trkpt><trkpt lat="39.0954917" lon="16.5122"><ele>1126.0</ele><time>2026-04-18T16:07:25.532Z</time></trkpt><trkpt lat="39.095375" lon="16.5122417"><ele>1126.0</ele><time>2026-04-18T16:07:27.534Z</time></trkpt><trkpt lat="39.09526" lon="16.5122733"><ele>1126.0</ele><time>2026-04-18T16:07:29.532Z</time></trkpt><trkpt lat="39.095195" lon="16.5122733"><ele>1126.0</ele><time>2026-04-18T16:07:30.532Z</time></trkpt><trkpt lat="39.09508" lon="16.5122683"><ele>1126.0</ele><time>2026-04-18T16:07:32.532Z</time></trkpt><trkpt lat="39.0949683" lon="16.5122083"><ele>1128.2</ele><time>2026-04-18T16:07:34.534Z</time></trkpt><trkpt lat="39.0948667" lon="16.5121667"><ele>1130.3999999999999</ele><time>2026-04-18T16:07:36.53Z</time></trkpt><trkpt lat="39.0947517" lon="16.512165"><ele>1132.6</ele><time>2026-04-18T16:07:38.533Z</time></trkpt><trkpt lat="39.0946333" lon="16.51213"><ele>1134.8</ele><time>2026-04-18T16:07:40.531Z</time></trkpt><trkpt lat="39.09458" lon="16.5120833"><ele>1137.0</ele><time>2026-04-18T16:07:41.53Z</time></trkpt><trkpt lat="39.094525" lon="16.5120317"><ele>1137.0</ele><time>2026-04-18T16:07:42.53Z</time></trkpt><trkpt lat="39.0944117" lon="16.5120067"><ele>1137.0</ele><time>2026-04-18T16:07:44.529Z</time></trkpt><trkpt lat="39.0943083" lon="16.5120583"><ele>1137.0</ele><time>2026-04-18T16:07:46.531Z</time></trkpt><trkpt lat="39.0942517" lon="16.51216"><ele>1137.0</ele><time>2026-04-18T16:07:48.533Z</time></trkpt><trkpt lat="39.0942567" lon="16.5122417"><ele>1137.0</ele><time>2026-04-18T16:07:50.531Z</time></trkpt><trkpt lat="39.0943267" lon="16.512315"><ele>1137.0</ele><time>2026-04-18T16:07:52.531Z</time></trkpt><trkpt lat="39.09441" lon="16.5124067"><ele>1137.0</ele><time>2026-04-18T16:07:54.531Z</time></trkpt><trkpt lat="39.0944867" lon="16.51251"><ele>1137.0</ele><time>2026-04-18T16:07:56.53Z</time></trkpt><trkpt lat="39.0945283" lon="16.5126583"><ele>1137.0</ele><time>2026-04-18T16:07:58.529Z</time></trkpt><trkpt lat="39.094555" lon="16.5127333"><ele>1137.0</ele><time>2026-04-18T16:07:59.533Z</time></trkpt><trkpt lat="39.094605" lon="16.5129033"><ele>1137.8</ele><time>2026-04-18T16:08:01.533Z</time></trkpt><trkpt lat="39.0946333" lon="16.5129867"><ele>1138.6</ele><time>2026-04-18T16:08:02.535Z</time></trkpt><trkpt lat="39.0946883" lon="16.5131733"><ele>1139.3999999999999</ele><time>2026-04-18T16:08:04.534Z</time></trkpt><trkpt lat="39.0947167" lon="16.5132717"><ele>1140.2</ele><time>2026-04-18T16:08:05.532Z</time></trkpt><trkpt lat="39.0947383" lon="16.5134017"><ele>1141.0</ele><time>2026-04-18T16:08:07.536Z</time></trkpt><trkpt lat="39.0947117" lon="16.5134883"><ele>1141.0</ele><time>2026-04-18T16:08:09.536Z</time></trkpt><trkpt lat="39.0946883" lon="16.5136067"><ele>1141.0</ele><time>2026-04-18T16:08:11.532Z</time></trkpt><trkpt lat="39.0946" lon="16.513675"><ele>1141.0</ele><time>2026-04-18T16:08:13.534Z</time></trkpt><trkpt lat="39.094505" lon="16.51374"><ele>1141.0</ele><time>2026-04-18T16:08:15.536Z</time></trkpt><trkpt lat="39.094445" lon="16.5138233"><ele>1141.0</ele><time>2026-04-18T16:08:17.533Z</time></trkpt><trkpt lat="39.0943983" lon="16.513945"><ele>1139.2</ele><time>2026-04-18T16:08:19.539Z</time></trkpt><trkpt lat="39.0943467" lon="16.5140667"><ele>1137.3999999999999</ele><time>2026-04-18T16:08:21.533Z</time></trkpt><trkpt lat="39.0942667" lon="16.51416"><ele>1135.6</ele><time>2026-04-18T16:08:23.535Z</time></trkpt><trkpt lat="39.09418" lon="16.514265"><ele>1133.8</ele><time>2026-04-18T16:08:25.535Z</time></trkpt><trkpt lat="39.0941317" lon="16.5143183"><ele>1132.0</ele><time>2026-04-18T16:08:26.531Z</time></trkpt><trkpt lat="39.0940767" lon="16.5143617"><ele>1132.0</ele><time>2026-04-18T16:08:27.533Z</time></trkpt><trkpt lat="39.0940283" lon="16.5144267"><ele>1132.0</ele><time>2026-04-18T16:08:28.532Z</time></trkpt><trkpt lat="39.093925" lon="16.51451"><ele>1132.0</ele><time>2026-04-18T16:08:30.531Z</time></trkpt><trkpt lat="39.093815" lon="16.5145283"><ele>1132.0</ele><time>2026-04-18T16:08:32.532Z</time></trkpt><trkpt lat="39.0937133" lon="16.514455"><ele>1132.0</ele><time>2026-04-18T16:08:34.532Z</time></trkpt><trkpt lat="39.0936517" lon="16.514415"><ele>1132.0</ele><time>2026-04-18T16:08:35.532Z</time></trkpt><trkpt lat="39.0935917" lon="16.51436"><ele>1132.0</ele><time>2026-04-18T16:08:36.535Z</time></trkpt><trkpt lat="39.0935367" lon="16.5143033"><ele>1132.0</ele><time>2026-04-18T16:08:37.535Z</time></trkpt><trkpt lat="39.0934783" lon="16.5142617"><ele>1132.0</ele><time>2026-04-18T16:08:38.537Z</time></trkpt><trkpt lat="39.0934183" lon="16.51421"><ele>1132.0</ele><time>2026-04-18T16:08:39.532Z</time></trkpt><trkpt lat="39.0933533" lon="16.5141583"><ele>1132.0</ele><time>2026-04-18T16:08:40.533Z</time></trkpt><trkpt lat="39.0932917" lon="16.5141"><ele>1132.0</ele><time>2026-04-18T16:08:41.532Z</time></trkpt><trkpt lat="39.0932267" lon="16.51404"><ele>1133.1666666666665</ele><time>2026-04-18T16:08:42.534Z</time></trkpt><trkpt lat="39.0931633" lon="16.5139783"><ele>1134.3333333333333</ele><time>2026-04-18T16:08:43.532Z</time></trkpt><trkpt lat="39.0931033" lon="16.5139083"><ele>1135.5</ele><time>2026-04-18T16:08:44.533Z</time></trkpt><trkpt lat="39.0930483" lon="16.51384"><ele>1136.6666666666667</ele><time>2026-04-18T16:08:45.536Z</time></trkpt><trkpt lat="39.0930067" lon="16.51376"><ele>1137.8333333333335</ele><time>2026-04-18T16:08:46.535Z</time></trkpt><trkpt lat="39.092965" lon="16.51369"><ele>1139.0</ele><time>2026-04-18T16:08:47.533Z</time></trkpt><trkpt lat="39.0928733" lon="16.5136167"><ele>1139.0</ele><time>2026-04-18T16:08:49.533Z</time></trkpt><trkpt lat="39.0927783" lon="16.5136733"><ele>1139.0</ele><time>2026-04-18T16:08:51.532Z</time></trkpt><trkpt lat="39.09272" lon="16.5138117"><ele>1139.0</ele><time>2026-04-18T16:08:53.534Z</time></trkpt><trkpt lat="39.0927" lon="16.5139"><ele>1139.0</ele><time>2026-04-18T16:08:54.533Z</time></trkpt><trkpt lat="39.092695" lon="16.5140033"><ele>1139.0</ele><time>2026-04-18T16:08:55.534Z</time></trkpt><trkpt lat="39.0926817" lon="16.5140883"><ele>1139.0</ele><time>2026-04-18T16:08:56.533Z</time></trkpt><trkpt lat="39.0926617" lon="16.5141733"><ele>1139.0</ele><time>2026-04-18T16:08:57.533Z</time></trkpt><trkpt lat="39.092695" lon="16.5142433"><ele>1139.0</ele><time>2026-04-18T16:08:58.53Z</time></trkpt><trkpt lat="39.09278" lon="16.5143683"><ele>1139.0</ele><time>2026-04-18T16:09:00.534Z</time></trkpt><trkpt lat="39.092845" lon="16.5144033"><ele>1139.0</ele><time>2026-04-18T16:09:01.533Z</time></trkpt><trkpt lat="39.0929083" lon="16.51443"><ele>1139.0</ele><time>2026-04-18T16:09:02.536Z</time></trkpt><trkpt lat="39.0929583" lon="16.514485"><ele>1139.0</ele><time>2026-04-18T16:09:03.535Z</time></trkpt><trkpt lat="39.0930117" lon="16.5146233"><ele>1139.8333333333335</ele><time>2026-04-18T16:09:05.53Z</time></trkpt><trkpt lat="39.09297" lon="16.5147583"><ele>1140.6666666666667</ele><time>2026-04-18T16:09:07.536Z</time></trkpt><trkpt lat="39.0929183" lon="16.5148083"><ele>1141.5</ele><time>2026-04-18T16:09:08.537Z</time></trkpt><trkpt lat="39.092875" lon="16.514875"><ele>1142.3333333333333</ele><time>2026-04-18T16:09:09.538Z</time></trkpt><trkpt lat="39.09283" lon="16.5149517"><ele>1143.1666666666665</ele><time>2026-04-18T16:09:10.532Z</time></trkpt><trkpt lat="39.0927933" lon="16.5150283"><ele>1144.0</ele><time>2026-04-18T16:09:11.535Z</time></trkpt><trkpt lat="39.0927667" lon="16.5151233"><ele>1144.0</ele><time>2026-04-18T16:09:12.535Z</time></trkpt><trkpt lat="39.0927433" lon="16.515225"><ele>1144.0</ele><time>2026-04-18T16:09:13.532Z</time></trkpt><trkpt lat="39.0927333" lon="16.515325"><ele>1144.0</ele><time>2026-04-18T16:09:14.535Z</time></trkpt><trkpt lat="39.0927183" lon="16.5154067"><ele>1144.0</ele><time>2026-04-18T16:09:15.531Z</time></trkpt><trkpt lat="39.09263" lon="16.51551"><ele>1144.0</ele><time>2026-04-18T16:09:17.531Z</time></trkpt><trkpt lat="39.0924983" lon="16.515575"><ele>1144.5</ele><time>2026-04-18T16:09:19.537Z</time></trkpt><trkpt lat="39.0924167" lon="16.5155883"><ele>1145.0</ele><time>2026-04-18T16:09:20.532Z</time></trkpt><trkpt lat="39.0923467" lon="16.51561"><ele>1145.5</ele><time>2026-04-18T16:09:21.534Z</time></trkpt><trkpt lat="39.0922767" lon="16.5156183"><ele>1146.0</ele><time>2026-04-18T16:09:22.531Z</time></trkpt><trkpt lat="39.0922033" lon="16.5156217"><ele>1146.5</ele><time>2026-04-18T16:09:23.53Z</time></trkpt><trkpt lat="39.0921133" lon="16.5155983"><ele>1147.0</ele><time>2026-04-18T16:09:24.533Z</time></trkpt><trkpt lat="39.09203" lon="16.515595"><ele>1147.0</ele><time>2026-04-18T16:09:25.534Z</time></trkpt><trkpt lat="39.0919633" lon="16.515595"><ele>1147.0</ele><time>2026-04-18T16:09:26.535Z</time></trkpt><trkpt lat="39.09189" lon="16.5156517"><ele>1147.0</ele><time>2026-04-18T16:09:28.532Z</time></trkpt><trkpt lat="39.0918483" lon="16.5157633"><ele>1147.0</ele><time>2026-04-18T16:09:31.533Z</time></trkpt><trkpt lat="39.0918717" lon="16.5158883"><ele>1147.0</ele><time>2026-04-18T16:09:33.533Z</time></trkpt><trkpt lat="39.0919117" lon="16.5160233"><ele>1147.0</ele><time>2026-04-18T16:09:35.534Z</time></trkpt><trkpt lat="39.09189" lon="16.5161567"><ele>1147.0</ele><time>2026-04-18T16:09:37.533Z</time></trkpt><trkpt lat="39.0918183" lon="16.5162517"><ele>1147.0</ele><time>2026-04-18T16:09:39.534Z</time></trkpt><trkpt lat="39.0917533" lon="16.51629"><ele>1147.0</ele><time>2026-04-18T16:09:41.533Z</time></trkpt><trkpt lat="39.0917" lon="16.5163667"><ele>1147.0</ele><time>2026-04-18T16:09:43.534Z</time></trkpt><trkpt lat="39.0916083" lon="16.5164733"><ele>1147.0</ele><time>2026-04-18T16:09:45.533Z</time></trkpt><trkpt lat="39.0915617" lon="16.516535"><ele>1147.0</ele><time>2026-04-18T16:09:46.532Z</time></trkpt><trkpt lat="39.0915317" lon="16.5166067"><ele>1147.0</ele><time>2026-04-18T16:09:47.535Z</time></trkpt><trkpt lat="39.0914583" lon="16.51672"><ele>1147.0</ele><time>2026-04-18T16:09:49.532Z</time></trkpt><trkpt lat="39.0914117" lon="16.516815"><ele>1147.0</ele><time>2026-04-18T16:09:51.534Z</time></trkpt><trkpt lat="39.0913317" lon="16.51685"><ele>1147.0</ele><time>2026-04-18T16:09:53.53Z</time></trkpt><trkpt lat="39.09127" lon="16.51683"><ele>1147.0</ele><time>2026-04-18T16:09:54.53Z</time></trkpt><trkpt lat="39.0911817" lon="16.516845"><ele>1147.0</ele><time>2026-04-18T16:09:56.534Z</time></trkpt><trkpt lat="39.091125" lon="16.5169267"><ele>1147.0</ele><time>2026-04-18T16:09:58.534Z</time></trkpt><trkpt lat="39.0911083" lon="16.5170483"><ele>1147.0</ele><time>2026-04-18T16:10:00.538Z</time></trkpt><trkpt lat="39.0911583" lon="16.51716"><ele>1147.0</ele><time>2026-04-18T16:10:02.531Z</time></trkpt><trkpt lat="39.0911767" lon="16.5172683"><ele>1147.0</ele><time>2026-04-18T16:10:04.535Z</time></trkpt><trkpt lat="39.091155" lon="16.5173583"><ele>1147.0</ele><time>2026-04-18T16:10:06.534Z</time></trkpt><trkpt lat="39.0910567" lon="16.5173583"><ele>1147.0</ele><time>2026-04-18T16:10:09.531Z</time></trkpt><trkpt lat="39.09096" lon="16.5172933"><ele>1147.0</ele><time>2026-04-18T16:10:11.533Z</time></trkpt><trkpt lat="39.09089" lon="16.5171767"><ele>1147.0</ele><time>2026-04-18T16:10:13.533Z</time></trkpt><trkpt lat="39.0908783" lon="16.5170183"><ele>1147.0</ele><time>2026-04-18T16:10:15.536Z</time></trkpt><trkpt lat="39.0908467" lon="16.5168717"><ele>1147.0</ele><time>2026-04-18T16:10:17.53Z</time></trkpt><trkpt lat="39.0907533" lon="16.516785"><ele>1147.0</ele><time>2026-04-18T16:10:19.531Z</time></trkpt><trkpt lat="39.090705" lon="16.5167217"><ele>1147.0</ele><time>2026-04-18T16:10:20.535Z</time></trkpt><trkpt lat="39.09066" lon="16.5166517"><ele>1147.0</ele><time>2026-04-18T16:10:21.532Z</time></trkpt><trkpt lat="39.0906083" lon="16.5165733"><ele>1149.6666666666665</ele><time>2026-04-18T16:10:22.53Z</time></trkpt><trkpt lat="39.09054" lon="16.5165117"><ele>1152.3333333333333</ele><time>2026-04-18T16:10:23.531Z</time></trkpt><trkpt lat="39.0904717" lon="16.5164383"><ele>1155.0</ele><time>2026-04-18T16:10:24.53Z</time></trkpt><trkpt lat="39.090405" lon="16.516385"><ele>1157.6666666666667</ele><time>2026-04-18T16:10:25.533Z</time></trkpt><trkpt lat="39.0903383" lon="16.5163333"><ele>1160.3333333333335</ele><time>2026-04-18T16:10:26.531Z</time></trkpt><trkpt lat="39.0902617" lon="16.5163183"><ele>1163.0</ele><time>2026-04-18T16:10:27.533Z</time></trkpt><trkpt lat="39.0901367" lon="16.5162933"><ele>1163.0</ele><time>2026-04-18T16:10:29.532Z</time></trkpt><trkpt lat="39.0900833" lon="16.5162333"><ele>1163.0</ele><time>2026-04-18T16:10:30.531Z</time></trkpt><trkpt lat="39.0900183" lon="16.5162433"><ele>1163.0</ele><time>2026-04-18T16:10:31.532Z</time></trkpt><trkpt lat="39.0899583" lon="16.5162183"><ele>1163.0</ele><time>2026-04-18T16:10:32.532Z</time></trkpt><trkpt lat="39.0898933" lon="16.5162383"><ele>1163.0</ele><time>2026-04-18T16:10:33.531Z</time></trkpt><trkpt lat="39.0897817" lon="16.51617"><ele>1163.0</ele><time>2026-04-18T16:10:35.532Z</time></trkpt><trkpt lat="39.089685" lon="16.5161267"><ele>1163.1666666666667</ele><time>2026-04-18T16:10:37.531Z</time></trkpt><trkpt lat="39.0896167" lon="16.5160583"><ele>1163.3333333333335</ele><time>2026-04-18T16:10:38.535Z</time></trkpt><trkpt lat="39.08955" lon="16.51603"><ele>1163.5</ele><time>2026-04-18T16:10:39.531Z</time></trkpt><trkpt lat="39.0894967" lon="16.5159767"><ele>1163.6666666666667</ele><time>2026-04-18T16:10:40.532Z</time></trkpt><trkpt lat="39.0894167" lon="16.51595"><ele>1163.8333333333333</ele><time>2026-04-18T16:10:41.53Z</time></trkpt><trkpt lat="39.0893583" lon="16.5159167"><ele>1164.0</ele><time>2026-04-18T16:10:42.533Z</time></trkpt><trkpt lat="39.0892483" lon="16.5158817"><ele>1164.0</ele><time>2026-04-18T16:10:44.532Z</time></trkpt><trkpt lat="39.08919" lon="16.5158417"><ele>1164.0</ele><time>2026-04-18T16:10:45.536Z</time></trkpt><trkpt lat="39.0891267" lon="16.5158133"><ele>1164.0</ele><time>2026-04-18T16:10:46.535Z</time></trkpt><trkpt lat="39.089065" lon="16.5157667"><ele>1164.0</ele><time>2026-04-18T16:10:47.532Z</time></trkpt><trkpt lat="39.0889967" lon="16.5157417"><ele>1164.0</ele><time>2026-04-18T16:10:48.531Z</time></trkpt><trkpt lat="39.0889233" lon="16.5157117"><ele>1164.0</ele><time>2026-04-18T16:10:49.533Z</time></trkpt><trkpt lat="39.0888333" lon="16.5156767"><ele>1164.0</ele><time>2026-04-18T16:10:50.533Z</time></trkpt><trkpt lat="39.0887517" lon="16.515655"><ele>1162.8333333333333</ele><time>2026-04-18T16:10:51.531Z</time></trkpt><trkpt lat="39.0886733" lon="16.5156433"><ele>1161.6666666666667</ele><time>2026-04-18T16:10:52.533Z</time></trkpt><trkpt lat="39.0885917" lon="16.51564"><ele>1160.5</ele><time>2026-04-18T16:10:53.534Z</time></trkpt><trkpt lat="39.0885117" lon="16.51565"><ele>1159.3333333333335</ele><time>2026-04-18T16:10:54.531Z</time></trkpt><trkpt lat="39.08843" lon="16.51564"><ele>1158.1666666666667</ele><time>2026-04-18T16:10:55.533Z</time></trkpt><trkpt lat="39.0883433" lon="16.5156483"><ele>1157.0</ele><time>2026-04-18T16:10:56.536Z</time></trkpt><trkpt lat="39.0882567" lon="16.5156533"><ele>1155.8333333333335</ele><time>2026-04-18T16:10:57.536Z</time></trkpt><trkpt lat="39.0881783" lon="16.5156717"><ele>1154.6666666666667</ele><time>2026-04-18T16:10:58.535Z</time></trkpt><trkpt lat="39.0881" lon="16.5156883"><ele>1153.5</ele><time>2026-04-18T16:10:59.532Z</time></trkpt><trkpt lat="39.0880267" lon="16.5157033"><ele>1152.3333333333333</ele><time>2026-04-18T16:11:00.535Z</time></trkpt><trkpt lat="39.0879433" lon="16.515715"><ele>1151.1666666666665</ele><time>2026-04-18T16:11:01.535Z</time></trkpt><trkpt lat="39.087865" lon="16.5157183"><ele>1150.0</ele><time>2026-04-18T16:11:02.536Z</time></trkpt><trkpt lat="39.087785" lon="16.515725"><ele>1150.0</ele><time>2026-04-18T16:11:03.534Z</time></trkpt><trkpt lat="39.0877" lon="16.5157417"><ele>1150.0</ele><time>2026-04-18T16:11:04.533Z</time></trkpt><trkpt lat="39.0876083" lon="16.5157117"><ele>1150.0</ele><time>2026-04-18T16:11:05.53Z</time></trkpt><trkpt lat="39.087525" lon="16.5156867"><ele>1150.0</ele><time>2026-04-18T16:11:06.532Z</time></trkpt><trkpt lat="39.0874617" lon="16.51566"><ele>1150.0</ele><time>2026-04-18T16:11:07.532Z</time></trkpt><trkpt lat="39.087365" lon="16.5156417"><ele>1150.0</ele><time>2026-04-18T16:11:08.532Z</time></trkpt><trkpt lat="39.0872717" lon="16.5156133"><ele>1148.8333333333333</ele><time>2026-04-18T16:11:09.535Z</time></trkpt><trkpt lat="39.0872117" lon="16.5156567"><ele>1147.6666666666665</ele><time>2026-04-18T16:11:10.531Z</time></trkpt><trkpt lat="39.087145" lon="16.5156583"><ele>1146.5</ele><time>2026-04-18T16:11:11.53Z</time></trkpt><trkpt lat="39.08706" lon="16.5156067"><ele>1145.3333333333333</ele><time>2026-04-18T16:11:12.532Z</time></trkpt><trkpt lat="39.0869683" lon="16.5155617"><ele>1144.1666666666667</ele><time>2026-04-18T16:11:13.532Z</time></trkpt><trkpt lat="39.0868717" lon="16.5155417"><ele>1143.0</ele><time>2026-04-18T16:11:14.531Z</time></trkpt><trkpt lat="39.0867917" lon="16.5155317"><ele>1143.0</ele><time>2026-04-18T16:11:15.532Z</time></trkpt><trkpt lat="39.0867183" lon="16.51549"><ele>1143.0</ele><time>2026-04-18T16:11:16.533Z</time></trkpt><trkpt lat="39.0866417" lon="16.5154417"><ele>1143.0</ele><time>2026-04-18T16:11:17.533Z</time></trkpt><trkpt lat="39.0865667" lon="16.5154283"><ele>1143.0</ele><time>2026-04-18T16:11:18.532Z</time></trkpt><trkpt lat="39.0865033" lon="16.51543"><ele>1143.0</ele><time>2026-04-18T16:11:19.532Z</time></trkpt><trkpt lat="39.0863883" lon="16.5154783"><ele>1143.0</ele><time>2026-04-18T16:11:21.534Z</time></trkpt><trkpt lat="39.0863233" lon="16.5154883"><ele>1141.6666666666667</ele><time>2026-04-18T16:11:22.534Z</time></trkpt><trkpt lat="39.086225" lon="16.5155133"><ele>1140.3333333333333</ele><time>2026-04-18T16:11:24.532Z</time></trkpt><trkpt lat="39.0861533" lon="16.5155383"><ele>1139.0</ele><time>2026-04-18T16:11:25.532Z</time></trkpt><trkpt lat="39.0860733" lon="16.5155667"><ele>1137.6666666666665</ele><time>2026-04-18T16:11:26.532Z</time></trkpt><trkpt lat="39.0859917" lon="16.5155983"><ele>1136.3333333333333</ele><time>2026-04-18T16:11:27.532Z</time></trkpt><trkpt lat="39.085905" lon="16.5156233"><ele>1135.0</ele><time>2026-04-18T16:11:28.534Z</time></trkpt><trkpt lat="39.085825" lon="16.51566"><ele>1134.6666666666665</ele><time>2026-04-18T16:11:29.531Z</time></trkpt><trkpt lat="39.0857383" lon="16.5156817"><ele>1134.3333333333333</ele><time>2026-04-18T16:11:30.536Z</time></trkpt><trkpt lat="39.085655" lon="16.5156567"><ele>1134.0</ele><time>2026-04-18T16:11:31.531Z</time></trkpt><trkpt lat="39.0855717" lon="16.5156333"><ele>1133.6666666666667</ele><time>2026-04-18T16:11:32.532Z</time></trkpt><trkpt lat="39.085545" lon="16.5155567"><ele>1133.3333333333335</ele><time>2026-04-18T16:11:33.533Z</time></trkpt><trkpt lat="39.0854567" lon="16.5155267"><ele>1133.0</ele><time>2026-04-18T16:11:34.533Z</time></trkpt><trkpt lat="39.0853483" lon="16.5155033"><ele>1133.2</ele><time>2026-04-18T16:11:35.531Z</time></trkpt><trkpt lat="39.0853033" lon="16.515385"><ele>1133.4</ele><time>2026-04-18T16:11:37.535Z</time></trkpt><trkpt lat="39.085265" lon="16.5152567"><ele>1133.6000000000001</ele><time>2026-04-18T16:11:39.534Z</time></trkpt><trkpt lat="39.085245" lon="16.515145"><ele>1133.8</ele><time>2026-04-18T16:11:42.53Z</time></trkpt><trkpt lat="39.085185" lon="16.5150633"><ele>1134.0</ele><time>2026-04-18T16:11:43.53Z</time></trkpt><trkpt lat="39.0851333" lon="16.5149667"><ele>1134.0</ele><time>2026-04-18T16:11:44.532Z</time></trkpt><trkpt lat="39.0850817" lon="16.51486"><ele>1134.0</ele><time>2026-04-18T16:11:46.531Z</time></trkpt><trkpt lat="39.0849967" lon="16.5147817"><ele>1134.0</ele><time>2026-04-18T16:11:48.532Z</time></trkpt><trkpt lat="39.0849483" lon="16.5147217"><ele>1134.0</ele><time>2026-04-18T16:11:50.534Z</time></trkpt><trkpt lat="39.08488" lon="16.5146683"><ele>1134.0</ele><time>2026-04-18T16:11:52.532Z</time></trkpt><trkpt lat="39.08481" lon="16.5145817"><ele>1134.0</ele><time>2026-04-18T16:11:55.532Z</time></trkpt><trkpt lat="39.0847117" lon="16.5144883"><ele>1134.0</ele><time>2026-04-18T16:11:57.535Z</time></trkpt><trkpt lat="39.084665" lon="16.5144217"><ele>1134.0</ele><time>2026-04-18T16:11:58.533Z</time></trkpt><trkpt lat="39.0846183" lon="16.514365"><ele>1134.0</ele><time>2026-04-18T16:11:59.533Z</time></trkpt><trkpt lat="39.084545" lon="16.51424"><ele>1134.0</ele><time>2026-04-18T16:12:01.533Z</time></trkpt><trkpt lat="39.0844983" lon="16.5141683"><ele>1134.0</ele><time>2026-04-18T16:12:02.532Z</time></trkpt><trkpt lat="39.084435" lon="16.5141017"><ele>1134.0</ele><time>2026-04-18T16:12:03.535Z</time></trkpt><trkpt lat="39.08437" lon="16.514035"><ele>1134.0</ele><time>2026-04-18T16:12:04.533Z</time></trkpt><trkpt lat="39.0843017" lon="16.5139683"><ele>1134.0</ele><time>2026-04-18T16:12:05.532Z</time></trkpt><trkpt lat="39.0842183" lon="16.5139183"><ele>1134.0</ele><time>2026-04-18T16:12:06.536Z</time></trkpt><trkpt lat="39.0841383" lon="16.5138633"><ele>1134.0</ele><time>2026-04-18T16:12:07.535Z</time></trkpt><trkpt lat="39.0840567" lon="16.513805"><ele>1134.0</ele><time>2026-04-18T16:12:08.534Z</time></trkpt><trkpt lat="39.08398" lon="16.5137633"><ele>1134.0</ele><time>2026-04-18T16:12:09.533Z</time></trkpt><trkpt lat="39.0838983" lon="16.5137333"><ele>1133.142857142857</ele><time>2026-04-18T16:12:10.538Z</time></trkpt><trkpt lat="39.0838183" lon="16.51371"><ele>1132.2857142857142</ele><time>2026-04-18T16:12:11.533Z</time></trkpt><trkpt lat="39.0837467" lon="16.51366"><ele>1131.4285714285716</ele><time>2026-04-18T16:12:12.533Z</time></trkpt><trkpt lat="39.0836783" lon="16.5136333"><ele>1130.5714285714284</ele><time>2026-04-18T16:12:13.533Z</time></trkpt><trkpt lat="39.0836167" lon="16.51361"><ele>1129.7142857142858</ele><time>2026-04-18T16:12:14.535Z</time></trkpt><trkpt lat="39.083545" lon="16.5135883"><ele>1128.857142857143</ele><time>2026-04-18T16:12:15.534Z</time></trkpt><trkpt lat="39.08348" lon="16.513595"><ele>1128.0</ele><time>2026-04-18T16:12:16.534Z</time></trkpt><trkpt lat="39.08341" lon="16.51361"><ele>1128.0</ele><time>2026-04-18T16:12:17.533Z</time></trkpt><trkpt lat="39.0833383" lon="16.5136417"><ele>1128.0</ele><time>2026-04-18T16:12:18.532Z</time></trkpt><trkpt lat="39.0832617" lon="16.5136683"><ele>1128.0</ele><time>2026-04-18T16:12:19.532Z</time></trkpt><trkpt lat="39.0831767" lon="16.5137117"><ele>1128.0</ele><time>2026-04-18T16:12:20.532Z</time></trkpt><trkpt lat="39.0831" lon="16.513745"><ele>1128.0</ele><time>2026-04-18T16:12:21.533Z</time></trkpt><trkpt lat="39.08302" lon="16.5138117"><ele>1128.0</ele><time>2026-04-18T16:12:23.531Z</time></trkpt><trkpt lat="39.0829767" lon="16.5138867"><ele>1128.4</ele><time>2026-04-18T16:12:25.533Z</time></trkpt><trkpt lat="39.0829383" lon="16.5139867"><ele>1128.8</ele><time>2026-04-18T16:12:27.533Z</time></trkpt><trkpt lat="39.0829067" lon="16.51409"><ele>1129.2</ele><time>2026-04-18T16:12:29.533Z</time></trkpt><trkpt lat="39.0828767" lon="16.514165"><ele>1129.6</ele><time>2026-04-18T16:12:30.536Z</time></trkpt><trkpt lat="39.0828017" lon="16.51429"><ele>1130.0</ele><time>2026-04-18T16:12:32.536Z</time></trkpt><trkpt lat="39.0827033" lon="16.5143867"><ele>1130.0</ele><time>2026-04-18T16:12:34.532Z</time></trkpt><trkpt lat="39.0826417" lon="16.5144233"><ele>1130.0</ele><time>2026-04-18T16:12:35.533Z</time></trkpt><trkpt lat="39.0825167" lon="16.514485"><ele>1130.0</ele><time>2026-04-18T16:12:37.533Z</time></trkpt><trkpt lat="39.0824517" lon="16.51451"><ele>1130.0</ele><time>2026-04-18T16:12:38.532Z</time></trkpt><trkpt lat="39.0823783" lon="16.51453"><ele>1130.0</ele><time>2026-04-18T16:12:39.533Z</time></trkpt><trkpt lat="39.082305" lon="16.5145467"><ele>1130.0</ele><time>2026-04-18T16:12:40.532Z</time></trkpt><trkpt lat="39.0822267" lon="16.5145867"><ele>1130.6666666666667</ele><time>2026-04-18T16:12:41.534Z</time></trkpt><trkpt lat="39.0821433" lon="16.5146217"><ele>1131.3333333333335</ele><time>2026-04-18T16:12:42.532Z</time></trkpt><trkpt lat="39.082065" lon="16.5146583"><ele>1132.0</ele><time>2026-04-18T16:12:43.534Z</time></trkpt><trkpt lat="39.0819917" lon="16.514705"><ele>1132.6666666666667</ele><time>2026-04-18T16:12:44.532Z</time></trkpt><trkpt lat="39.081925" lon="16.51476"><ele>1133.3333333333333</ele><time>2026-04-18T16:12:45.534Z</time></trkpt><trkpt lat="39.0818633" lon="16.5148183"><ele>1134.0</ele><time>2026-04-18T16:12:46.535Z</time></trkpt><trkpt lat="39.0818167" lon="16.5148767"><ele>1134.0</ele><time>2026-04-18T16:12:47.532Z</time></trkpt><trkpt lat="39.0817683" lon="16.5149367"><ele>1134.0</ele><time>2026-04-18T16:12:48.532Z</time></trkpt><trkpt lat="39.0817183" lon="16.51501"><ele>1134.0</ele><time>2026-04-18T16:12:49.535Z</time></trkpt><trkpt lat="39.081625" lon="16.5151283"><ele>1134.0</ele><time>2026-04-18T16:12:51.535Z</time></trkpt><trkpt lat="39.0815567" lon="16.5151817"><ele>1134.0</ele><time>2026-04-18T16:12:52.533Z</time></trkpt><trkpt lat="39.0814933" lon="16.5152333"><ele>1134.0</ele><time>2026-04-18T16:12:53.533Z</time></trkpt><trkpt lat="39.0814333" lon="16.515295"><ele>1133.8333333333333</ele><time>2026-04-18T16:12:54.531Z</time></trkpt><trkpt lat="39.0813683" lon="16.5153433"><ele>1133.6666666666667</ele><time>2026-04-18T16:12:55.532Z</time></trkpt><trkpt lat="39.0813017" lon="16.5153967"><ele>1133.5</ele><time>2026-04-18T16:12:56.532Z</time></trkpt><trkpt lat="39.0812433" lon="16.5154533"><ele>1133.3333333333335</ele><time>2026-04-18T16:12:57.535Z</time></trkpt><trkpt lat="39.0811933" lon="16.5155217"><ele>1133.1666666666667</ele><time>2026-04-18T16:12:58.533Z</time></trkpt><trkpt lat="39.0811217" lon="16.5156017"><ele>1133.0</ele><time>2026-04-18T16:12:59.539Z</time></trkpt><trkpt lat="39.0810367" lon="16.51563"><ele>1133.6</ele><time>2026-04-18T16:13:00.53Z</time></trkpt><trkpt lat="39.0809567" lon="16.515655"><ele>1134.1999999999998</ele><time>2026-04-18T16:13:01.53Z</time></trkpt><trkpt lat="39.080885" lon="16.5157517"><ele>1134.8</ele><time>2026-04-18T16:13:02.531Z</time></trkpt><trkpt lat="39.08079" lon="16.515805"><ele>1135.3999999999999</ele><time>2026-04-18T16:13:03.532Z</time></trkpt><trkpt lat="39.0807033" lon="16.5158683"><ele>1136.0</ele><time>2026-04-18T16:13:05.533Z</time></trkpt><trkpt lat="39.08057" lon="16.5160033"><ele>1135.75</ele><time>2026-04-18T16:13:06.53Z</time></trkpt><trkpt lat="39.08049" lon="16.516095"><ele>1135.5</ele><time>2026-04-18T16:13:08.53Z</time></trkpt><trkpt lat="39.080355" lon="16.51624"><ele>1135.25</ele><time>2026-04-18T16:13:09.532Z</time></trkpt><trkpt lat="39.0802367" lon="16.5163667"><ele>1135.0</ele><time>2026-04-18T16:13:10.53Z</time></trkpt><trkpt lat="39.08012" lon="16.516465"><ele>1135.0</ele><time>2026-04-18T16:13:11.532Z</time></trkpt><trkpt lat="39.0800417" lon="16.5165467"><ele>1135.0</ele><time>2026-04-18T16:13:12.536Z</time></trkpt><trkpt lat="39.0799283" lon="16.516595"><ele>1135.0</ele><time>2026-04-18T16:13:13.534Z</time></trkpt><trkpt lat="39.079865" lon="16.51667"><ele>1135.0</ele><time>2026-04-18T16:13:14.534Z</time></trkpt><trkpt lat="39.0797783" lon="16.5167067"><ele>1135.0</ele><time>2026-04-18T16:13:15.532Z</time></trkpt><trkpt lat="39.0797067" lon="16.5167917"><ele>1136.0</ele><time>2026-04-18T16:13:16.533Z</time></trkpt><trkpt lat="39.07962" lon="16.516865"><ele>1137.0</ele><time>2026-04-18T16:13:17.534Z</time></trkpt><trkpt lat="39.0795383" lon="16.516865"><ele>1138.0</ele><time>2026-04-18T16:13:18.533Z</time></trkpt><trkpt lat="39.0794867" lon="16.516935"><ele>1139.0</ele><time>2026-04-18T16:13:19.532Z</time></trkpt><trkpt lat="39.0794217" lon="16.5169633"><ele>1140.0</ele><time>2026-04-18T16:13:20.535Z</time></trkpt><trkpt lat="39.0793767" lon="16.51707"><ele>1141.0</ele><time>2026-04-18T16:13:21.536Z</time></trkpt><trkpt lat="39.0793133" lon="16.5170783"><ele>1141.0</ele><time>2026-04-18T16:13:22.535Z</time></trkpt><trkpt lat="39.07925" lon="16.5170983"><ele>1141.0</ele><time>2026-04-18T16:13:23.532Z</time></trkpt><trkpt lat="39.0791917" lon="16.517135"><ele>1141.0</ele><time>2026-04-18T16:13:24.533Z</time></trkpt><trkpt lat="39.079085" lon="16.5172317"><ele>1141.0</ele><time>2026-04-18T16:13:26.534Z</time></trkpt><trkpt lat="39.0790467" lon="16.517305"><ele>1141.0</ele><time>2026-04-18T16:13:27.535Z</time></trkpt><trkpt lat="39.0790267" lon="16.517385"><ele>1141.0</ele><time>2026-04-18T16:13:28.533Z</time></trkpt><trkpt lat="39.0790217" lon="16.5174917"><ele>1139.6666666666665</ele><time>2026-04-18T16:13:29.537Z</time></trkpt><trkpt lat="39.078995" lon="16.517595"><ele>1138.3333333333333</ele><time>2026-04-18T16:13:30.534Z</time></trkpt><trkpt lat="39.0789967" lon="16.51771"><ele>1137.0</ele><time>2026-04-18T16:13:31.532Z</time></trkpt><trkpt lat="39.0789633" lon="16.5178067"><ele>1135.6666666666667</ele><time>2026-04-18T16:13:32.531Z</time></trkpt><trkpt lat="39.078905" lon="16.5178867"><ele>1134.3333333333335</ele><time>2026-04-18T16:13:33.533Z</time></trkpt><trkpt lat="39.07887" lon="16.5179783"><ele>1133.0</ele><time>2026-04-18T16:13:34.535Z</time></trkpt><trkpt lat="39.0788" lon="16.5180483"><ele>1136.6666666666667</ele><time>2026-04-18T16:13:35.531Z</time></trkpt><trkpt lat="39.0787383" lon="16.5181267"><ele>1140.3333333333335</ele><time>2026-04-18T16:13:36.534Z</time></trkpt><trkpt lat="39.0786833" lon="16.5182033"><ele>1144.0</ele><time>2026-04-18T16:13:37.531Z</time></trkpt><trkpt lat="39.0786333" lon="16.518275"><ele>1147.6666666666667</ele><time>2026-04-18T16:13:38.533Z</time></trkpt><trkpt lat="39.0786083" lon="16.518355"><ele>1151.3333333333333</ele><time>2026-04-18T16:13:39.532Z</time></trkpt><trkpt lat="39.078545" lon="16.5184783"><ele>1155.0</ele><time>2026-04-18T16:13:41.532Z</time></trkpt><trkpt lat="39.0785033" lon="16.5185467"><ele>1155.0</ele><time>2026-04-18T16:13:42.531Z</time></trkpt><trkpt lat="39.078445" lon="16.51868"><ele>1155.0</ele><time>2026-04-18T16:13:44.535Z</time></trkpt><trkpt lat="39.078415" lon="16.5187533"><ele>1155.0</ele><time>2026-04-18T16:13:45.532Z</time></trkpt><trkpt lat="39.0783667" lon="16.5188133"><ele>1155.0</ele><time>2026-04-18T16:13:46.534Z</time></trkpt><trkpt lat="39.0783133" lon="16.5189683"><ele>1155.0</ele><time>2026-04-18T16:13:48.533Z</time></trkpt><trkpt lat="39.0782983" lon="16.5190583"><ele>1155.7142857142858</ele><time>2026-04-18T16:13:49.532Z</time></trkpt><trkpt lat="39.0782383" lon="16.5191183"><ele>1156.4285714285716</ele><time>2026-04-18T16:13:50.536Z</time></trkpt><trkpt lat="39.07819" lon="16.5191783"><ele>1157.142857142857</ele><time>2026-04-18T16:13:51.534Z</time></trkpt><trkpt lat="39.07815" lon="16.5192667"><ele>1157.857142857143</ele><time>2026-04-18T16:13:53.533Z</time></trkpt><trkpt lat="39.0780983" lon="16.51935"><ele>1158.5714285714287</ele><time>2026-04-18T16:13:57.533Z</time></trkpt><trkpt lat="39.0780717" lon="16.519435"><ele>1159.2857142857142</ele><time>2026-04-18T16:13:59.533Z</time></trkpt><trkpt lat="39.07803" lon="16.5195033"><ele>1160.0</ele><time>2026-04-18T16:14:01.532Z</time></trkpt><trkpt lat="39.0779817" lon="16.5195583"><ele>1159.1666666666667</ele><time>2026-04-18T16:14:03.533Z</time></trkpt><trkpt lat="39.07794" lon="16.519625"><ele>1158.3333333333335</ele><time>2026-04-18T16:14:05.535Z</time></trkpt><trkpt lat="39.077885" lon="16.5196733"><ele>1157.5</ele><time>2026-04-18T16:14:07.535Z</time></trkpt><trkpt lat="39.0778367" lon="16.519735"><ele>1156.6666666666667</ele><time>2026-04-18T16:14:09.534Z</time></trkpt><trkpt lat="39.0777717" lon="16.5198133"><ele>1155.8333333333333</ele><time>2026-04-18T16:14:12.533Z</time></trkpt><trkpt lat="39.0777133" lon="16.5199017"><ele>1155.0</ele><time>2026-04-18T16:14:15.533Z</time></trkpt><trkpt lat="39.0776633" lon="16.5199983"><ele>1155.0</ele><time>2026-04-18T16:14:17.53Z</time></trkpt><trkpt lat="39.077615" lon="16.520095"><ele>1155.0</ele><time>2026-04-18T16:14:19.531Z</time></trkpt><trkpt lat="39.0775667" lon="16.5201517"><ele>1155.0</ele><time>2026-04-18T16:14:21.531Z</time></trkpt><trkpt lat="39.0775233" lon="16.5202533"><ele>1155.0</ele><time>2026-04-18T16:14:24.533Z</time></trkpt><trkpt lat="39.0774983" lon="16.5203383"><ele>1155.0</ele><time>2026-04-18T16:14:26.535Z</time></trkpt><trkpt lat="39.07748" lon="16.5204933"><ele>1155.0</ele><time>2026-04-18T16:14:28.536Z</time></trkpt><trkpt lat="39.07743" lon="16.52066"><ele>1156.0</ele><time>2026-04-18T16:14:30.532Z</time></trkpt><trkpt lat="39.0774217" lon="16.5207683"><ele>1157.0</ele><time>2026-04-18T16:14:31.533Z</time></trkpt><trkpt lat="39.077375" lon="16.520865"><ele>1158.0</ele><time>2026-04-18T16:14:32.532Z</time></trkpt><trkpt lat="39.0773183" lon="16.520925"><ele>1159.0</ele><time>2026-04-18T16:14:33.532Z</time></trkpt><trkpt lat="39.0772583" lon="16.5210317"><ele>1160.0</ele><time>2026-04-18T16:14:34.532Z</time></trkpt><trkpt lat="39.0772067" lon="16.5211817"><ele>1162.25</ele><time>2026-04-18T16:14:35.532Z</time></trkpt><trkpt lat="39.0771283" lon="16.5213067"><ele>1164.5</ele><time>2026-04-18T16:14:36.532Z</time></trkpt><trkpt lat="39.0770267" lon="16.5213917"><ele>1166.75</ele><time>2026-04-18T16:14:37.531Z</time></trkpt><trkpt lat="39.0769283" lon="16.52148"><ele>1169.0</ele><time>2026-04-18T16:14:38.532Z</time></trkpt><trkpt lat="39.0768333" lon="16.521575"><ele>1169.0</ele><time>2026-04-18T16:14:39.532Z</time></trkpt><trkpt lat="39.076775" lon="16.5217283"><ele>1169.0</ele><time>2026-04-18T16:14:40.533Z</time></trkpt><trkpt lat="39.0766833" lon="16.521825"><ele>1169.0</ele><time>2026-04-18T16:14:41.532Z</time></trkpt><trkpt lat="39.07651" lon="16.5219183"><ele>1169.0</ele><time>2026-04-18T16:14:42.532Z</time></trkpt><trkpt lat="39.0764883" lon="16.5220667"><ele>1170.75</ele><time>2026-04-18T16:14:43.536Z</time></trkpt><trkpt lat="39.07639" lon="16.5221667"><ele>1172.5</ele><time>2026-04-18T16:14:44.536Z</time></trkpt><trkpt lat="39.0763583" lon="16.52234"><ele>1174.25</ele><time>2026-04-18T16:14:45.536Z</time></trkpt><trkpt lat="39.0763333" lon="16.5224983"><ele>1176.0</ele><time>2026-04-18T16:14:46.532Z</time></trkpt><trkpt lat="39.0762517" lon="16.5226483"><ele>1176.0</ele><time>2026-04-18T16:14:47.532Z</time></trkpt><trkpt lat="39.0762517" lon="16.5228233"><ele>1176.0</ele><time>2026-04-18T16:14:48.533Z</time></trkpt><trkpt lat="39.0761733" lon="16.522935"><ele>1176.0</ele><time>2026-04-18T16:14:49.531Z</time></trkpt><trkpt lat="39.0761083" lon="16.5230467"><ele>1176.0</ele><time>2026-04-18T16:14:50.532Z</time></trkpt><trkpt lat="39.0760133" lon="16.5231217"><ele>1175.5</ele><time>2026-04-18T16:14:51.535Z</time></trkpt><trkpt lat="39.07592" lon="16.523215"><ele>1175.0</ele><time>2026-04-18T16:14:52.532Z</time></trkpt><trkpt lat="39.0758283" lon="16.5233233"><ele>1174.5</ele><time>2026-04-18T16:14:53.534Z</time></trkpt><trkpt lat="39.0757383" lon="16.523445"><ele>1174.0</ele><time>2026-04-18T16:14:54.536Z</time></trkpt><trkpt lat="39.07565" lon="16.5235617"><ele>1173.25</ele><time>2026-04-18T16:14:55.533Z</time></trkpt><trkpt lat="39.075555" lon="16.5236733"><ele>1172.5</ele><time>2026-04-18T16:14:56.535Z</time></trkpt><trkpt lat="39.075455" lon="16.5237667"><ele>1171.75</ele><time>2026-04-18T16:14:57.531Z</time></trkpt><trkpt lat="39.0753667" lon="16.5238417"><ele>1171.0</ele><time>2026-04-18T16:14:58.534Z</time></trkpt><trkpt lat="39.07528" lon="16.5239117"><ele>1171.0</ele><time>2026-04-18T16:14:59.532Z</time></trkpt><trkpt lat="39.0751917" lon="16.5239783"><ele>1171.0</ele><time>2026-04-18T16:15:00.531Z</time></trkpt><trkpt lat="39.0750883" lon="16.5240033"><ele>1171.0</ele><time>2026-04-18T16:15:01.534Z</time></trkpt><trkpt lat="39.074975" lon="16.5240317"><ele>1171.0</ele><time>2026-04-18T16:15:02.532Z</time></trkpt><trkpt lat="39.0748667" lon="16.52406"><ele>1171.0</ele><time>2026-04-18T16:15:03.532Z</time></trkpt><trkpt lat="39.0747583" lon="16.5240917"><ele>1172.0</ele><time>2026-04-18T16:15:04.534Z</time></trkpt><trkpt lat="39.0746517" lon="16.5241317"><ele>1173.0</ele><time>2026-04-18T16:15:05.534Z</time></trkpt><trkpt lat="39.0745383" lon="16.5242033"><ele>1174.0</ele><time>2026-04-18T16:15:06.533Z</time></trkpt><trkpt lat="39.07443" lon="16.5242817"><ele>1175.0</ele><time>2026-04-18T16:15:07.533Z</time></trkpt><trkpt lat="39.0743133" lon="16.5243833"><ele>1175.0</ele><time>2026-04-18T16:15:08.532Z</time></trkpt><trkpt lat="39.0742017" lon="16.52448"><ele>1175.0</ele><time>2026-04-18T16:15:09.533Z</time></trkpt><trkpt lat="39.07409" lon="16.52458"><ele>1175.0</ele><time>2026-04-18T16:15:10.532Z</time></trkpt><trkpt lat="39.0739933" lon="16.524675"><ele>1175.0</ele><time>2026-04-18T16:15:11.533Z</time></trkpt><trkpt lat="39.07387" lon="16.524775"><ele>1178.5</ele><time>2026-04-18T16:15:12.535Z</time></trkpt><trkpt lat="39.0737517" lon="16.5248667"><ele>1182.0</ele><time>2026-04-18T16:15:13.531Z</time></trkpt><trkpt lat="39.0736317" lon="16.5249583"><ele>1185.5</ele><time>2026-04-18T16:15:14.532Z</time></trkpt><trkpt lat="39.0735183" lon="16.52505"><ele>1189.0</ele><time>2026-04-18T16:15:15.535Z</time></trkpt><trkpt lat="39.073405" lon="16.5251567"><ele>1189.0</ele><time>2026-04-18T16:15:16.532Z</time></trkpt><trkpt lat="39.0733033" lon="16.5252633"><ele>1189.0</ele><time>2026-04-18T16:15:17.533Z</time></trkpt><trkpt lat="39.0731983" lon="16.52537"><ele>1189.0</ele><time>2026-04-18T16:15:18.531Z</time></trkpt><trkpt lat="39.0730983" lon="16.5254733"><ele>1189.0</ele><time>2026-04-18T16:15:19.534Z</time></trkpt><trkpt lat="39.073015" lon="16.5256"><ele>1190.6000000000001</ele><time>2026-04-18T16:15:20.532Z</time></trkpt><trkpt lat="39.0729383" lon="16.5257183"><ele>1192.2</ele><time>2026-04-18T16:15:21.534Z</time></trkpt><trkpt lat="39.072875" lon="16.5258333"><ele>1193.8000000000002</ele><time>2026-04-18T16:15:22.531Z</time></trkpt><trkpt lat="39.0728217" lon="16.525935"><ele>1195.4</ele><time>2026-04-18T16:15:23.533Z</time></trkpt><trkpt lat="39.0727583" lon="16.5260033"><ele>1197.0</ele><time>2026-04-18T16:15:24.531Z</time></trkpt><trkpt lat="39.0727033" lon="16.526045"><ele>1197.0</ele><time>2026-04-18T16:15:25.533Z</time></trkpt><trkpt lat="39.0726283" lon="16.5260917"><ele>1197.0</ele><time>2026-04-18T16:15:26.531Z</time></trkpt><trkpt lat="39.0725433" lon="16.52609"><ele>1197.0</ele><time>2026-04-18T16:15:27.531Z</time></trkpt><trkpt lat="39.07247" lon="16.52605"><ele>1197.0</ele><time>2026-04-18T16:15:28.531Z</time></trkpt><trkpt lat="39.0724083" lon="16.5259967"><ele>1197.0</ele><time>2026-04-18T16:15:29.53Z</time></trkpt><trkpt lat="39.07235" lon="16.5259267"><ele>1197.0</ele><time>2026-04-18T16:15:30.53Z</time></trkpt><trkpt lat="39.0722917" lon="16.5258717"><ele>1198.6</ele><time>2026-04-18T16:15:31.531Z</time></trkpt><trkpt lat="39.0722" lon="16.5258467"><ele>1200.2</ele><time>2026-04-18T16:15:32.533Z</time></trkpt><trkpt lat="39.07211" lon="16.525835"><ele>1201.8</ele><time>2026-04-18T16:15:33.537Z</time></trkpt><trkpt lat="39.0720017" lon="16.5258667"><ele>1203.4</ele><time>2026-04-18T16:15:34.531Z</time></trkpt><trkpt lat="39.0718683" lon="16.525915"><ele>1205.0</ele><time>2026-04-18T16:15:35.532Z</time></trkpt><trkpt lat="39.0717133" lon="16.5259717"><ele>1206.75</ele><time>2026-04-18T16:15:36.531Z</time></trkpt><trkpt lat="39.0715917" lon="16.5260217"><ele>1208.5</ele><time>2026-04-18T16:15:37.53Z</time></trkpt><trkpt lat="39.0714767" lon="16.52607"><ele>1210.25</ele><time>2026-04-18T16:15:38.533Z</time></trkpt><trkpt lat="39.0713633" lon="16.5261367"><ele>1212.0</ele><time>2026-04-18T16:15:39.537Z</time></trkpt><trkpt lat="39.0712617" lon="16.5262217"><ele>1213.25</ele><time>2026-04-18T16:15:40.531Z</time></trkpt><trkpt lat="39.071175" lon="16.5263017"><ele>1214.5</ele><time>2026-04-18T16:15:41.533Z</time></trkpt><trkpt lat="39.07109" lon="16.5263817"><ele>1215.75</ele><time>2026-04-18T16:15:42.532Z</time></trkpt><trkpt lat="39.0709917" lon="16.5264833"><ele>1217.0</ele><time>2026-04-18T16:15:43.533Z</time></trkpt><trkpt lat="39.0708967" lon="16.526575"><ele>1217.0</ele><time>2026-04-18T16:15:44.532Z</time></trkpt><trkpt lat="39.0708033" lon="16.52664"><ele>1217.0</ele><time>2026-04-18T16:15:45.53Z</time></trkpt><trkpt lat="39.0707017" lon="16.526735"><ele>1217.0</ele><time>2026-04-18T16:15:46.532Z</time></trkpt><trkpt lat="39.0706" lon="16.5268217"><ele>1217.0</ele><time>2026-04-18T16:15:47.53Z</time></trkpt><trkpt lat="39.0704967" lon="16.526865"><ele>1217.0</ele><time>2026-04-18T16:15:48.531Z</time></trkpt><trkpt lat="39.0703933" lon="16.52692"><ele>1217.0</ele><time>2026-04-18T16:15:49.531Z</time></trkpt><trkpt lat="39.0702817" lon="16.526965"><ele>1217.0</ele><time>2026-04-18T16:15:50.533Z</time></trkpt><trkpt lat="39.07018" lon="16.5270167"><ele>1217.0</ele><time>2026-04-18T16:15:51.532Z</time></trkpt><trkpt lat="39.070085" lon="16.527085"><ele>1217.0</ele><time>2026-04-18T16:15:52.529Z</time></trkpt><trkpt lat="39.06999" lon="16.5271483"><ele>1217.25</ele><time>2026-04-18T16:15:53.531Z</time></trkpt><trkpt lat="39.0698967" lon="16.5271933"><ele>1217.5</ele><time>2026-04-18T16:15:54.534Z</time></trkpt><trkpt lat="39.069815" lon="16.527265"><ele>1217.75</ele><time>2026-04-18T16:15:55.531Z</time></trkpt><trkpt lat="39.06969" lon="16.5273533"><ele>1218.0</ele><time>2026-04-18T16:15:56.532Z</time></trkpt><trkpt lat="39.0695617" lon="16.527435"><ele>1218.0</ele><time>2026-04-18T16:15:57.532Z</time></trkpt><trkpt lat="39.0694233" lon="16.5275183"><ele>1218.0</ele><time>2026-04-18T16:15:58.534Z</time></trkpt><trkpt lat="39.069305" lon="16.5276083"><ele>1218.0</ele><time>2026-04-18T16:15:59.531Z</time></trkpt><trkpt lat="39.069205" lon="16.5276667"><ele>1218.0</ele><time>2026-04-18T16:16:00.535Z</time></trkpt><trkpt lat="39.0691117" lon="16.5277017"><ele>1220.0</ele><time>2026-04-18T16:16:01.532Z</time></trkpt><trkpt lat="39.0690133" lon="16.5277183"><ele>1222.0</ele><time>2026-04-18T16:16:02.533Z</time></trkpt><trkpt lat="39.068905" lon="16.52773"><ele>1224.0</ele><time>2026-04-18T16:16:03.534Z</time></trkpt><trkpt lat="39.0687917" lon="16.5277017"><ele>1226.0</ele><time>2026-04-18T16:16:04.532Z</time></trkpt><trkpt lat="39.0686617" lon="16.52769"><ele>1226.0</ele><time>2026-04-18T16:16:05.533Z</time></trkpt><trkpt lat="39.06853" lon="16.5276717"><ele>1226.0</ele><time>2026-04-18T16:16:06.533Z</time></trkpt><trkpt lat="39.068405" lon="16.5276167"><ele>1226.0</ele><time>2026-04-18T16:16:07.533Z</time></trkpt><trkpt lat="39.06828" lon="16.5275933"><ele>1226.0</ele><time>2026-04-18T16:16:08.533Z</time></trkpt><trkpt lat="39.06817" lon="16.527535"><ele>1228.0</ele><time>2026-04-18T16:16:09.533Z</time></trkpt><trkpt lat="39.068045" lon="16.527495"><ele>1230.0</ele><time>2026-04-18T16:16:10.531Z</time></trkpt><trkpt lat="39.0679167" lon="16.5274867"><ele>1232.0</ele><time>2026-04-18T16:16:11.533Z</time></trkpt><trkpt lat="39.06779" lon="16.5274117"><ele>1234.0</ele><time>2026-04-18T16:16:12.531Z</time></trkpt><trkpt lat="39.067665" lon="16.5273783"><ele>1234.0</ele><time>2026-04-18T16:16:13.531Z</time></trkpt><trkpt lat="39.06753" lon="16.527375"><ele>1234.0</ele><time>2026-04-18T16:16:14.534Z</time></trkpt><trkpt lat="39.06739" lon="16.52733"><ele>1234.0</ele><time>2026-04-18T16:16:15.532Z</time></trkpt><trkpt lat="39.06726" lon="16.5273433"><ele>1234.0</ele><time>2026-04-18T16:16:16.532Z</time></trkpt><trkpt lat="39.0671267" lon="16.5273483"><ele>1236.0</ele><time>2026-04-18T16:16:17.531Z</time></trkpt><trkpt lat="39.0670067" lon="16.5273467"><ele>1238.0</ele><time>2026-04-18T16:16:18.531Z</time></trkpt><trkpt lat="39.06688" lon="16.5273333"><ele>1240.0</ele><time>2026-04-18T16:16:19.536Z</time></trkpt><trkpt lat="39.0667667" lon="16.52733"><ele>1242.0</ele><time>2026-04-18T16:16:20.533Z</time></trkpt><trkpt lat="39.06667" lon="16.5273817"><ele>1243.25</ele><time>2026-04-18T16:16:21.533Z</time></trkpt><trkpt lat="39.0665833" lon="16.5274333"><ele>1244.5</ele><time>2026-04-18T16:16:22.534Z</time></trkpt><trkpt lat="39.06648" lon="16.52748"><ele>1245.75</ele><time>2026-04-18T16:16:23.535Z</time></trkpt><trkpt lat="39.0663733" lon="16.5275483"><ele>1247.0</ele><time>2026-04-18T16:16:24.533Z</time></trkpt><trkpt lat="39.066255" lon="16.5276417"><ele>1247.0</ele><time>2026-04-18T16:16:25.534Z</time></trkpt><trkpt lat="39.0661317" lon="16.52775"><ele>1247.0</ele><time>2026-04-18T16:16:26.535Z</time></trkpt><trkpt lat="39.065995" lon="16.5278567"><ele>1247.0</ele><time>2026-04-18T16:16:27.536Z</time></trkpt><trkpt lat="39.0658617" lon="16.527965"><ele>1245.3333333333335</ele><time>2026-04-18T16:16:28.534Z</time></trkpt><trkpt lat="39.0657333" lon="16.528085"><ele>1243.6666666666667</ele><time>2026-04-18T16:16:29.532Z</time></trkpt><trkpt lat="39.0656067" lon="16.5282033"><ele>1242.0</ele><time>2026-04-18T16:16:30.534Z</time></trkpt><trkpt lat="39.06547" lon="16.5282833"><ele>1242.0</ele><time>2026-04-18T16:16:31.532Z</time></trkpt><trkpt lat="39.0653417" lon="16.528375"><ele>1242.0</ele><time>2026-04-18T16:16:32.532Z</time></trkpt><trkpt lat="39.0652217" lon="16.5284783"><ele>1242.0</ele><time>2026-04-18T16:16:33.535Z</time></trkpt><trkpt lat="39.0651067" lon="16.5286117"><ele>1242.0</ele><time>2026-04-18T16:16:34.533Z</time></trkpt><trkpt lat="39.0649817" lon="16.5287367"><ele>1246.6666666666667</ele><time>2026-04-18T16:16:35.535Z</time></trkpt><trkpt lat="39.0648667" lon="16.5288817"><ele>1251.3333333333335</ele><time>2026-04-18T16:16:36.536Z</time></trkpt><trkpt lat="39.064735" lon="16.52902"><ele>1256.0</ele><time>2026-04-18T16:16:37.534Z</time></trkpt><trkpt lat="39.0646083" lon="16.52917"><ele>1256.0</ele><time>2026-04-18T16:16:38.534Z</time></trkpt><trkpt lat="39.0644867" lon="16.5293117"><ele>1256.0</ele><time>2026-04-18T16:16:39.538Z</time></trkpt><trkpt lat="39.0643867" lon="16.5294783"><ele>1256.0</ele><time>2026-04-18T16:16:40.533Z</time></trkpt><trkpt lat="39.0642867" lon="16.52964"><ele>1256.6666666666667</ele><time>2026-04-18T16:16:41.533Z</time></trkpt><trkpt lat="39.0641633" lon="16.529795"><ele>1257.3333333333333</ele><time>2026-04-18T16:16:42.532Z</time></trkpt><trkpt lat="39.06404" lon="16.5299517"><ele>1258.0</ele><time>2026-04-18T16:16:43.533Z</time></trkpt><trkpt lat="39.0639433" lon="16.5301267"><ele>1260.0</ele><time>2026-04-18T16:16:44.534Z</time></trkpt><trkpt lat="39.06383" lon="16.53027"><ele>1262.0</ele><time>2026-04-18T16:16:45.534Z</time></trkpt><trkpt lat="39.0637217" lon="16.5304067"><ele>1264.0</ele><time>2026-04-18T16:16:46.532Z</time></trkpt><trkpt lat="39.063605" lon="16.530535"><ele>1264.0</ele><time>2026-04-18T16:16:47.536Z</time></trkpt><trkpt lat="39.0634817" lon="16.53065"><ele>1264.0</ele><time>2026-04-18T16:16:48.533Z</time></trkpt><trkpt lat="39.0633583" lon="16.53076"><ele>1264.0</ele><time>2026-04-18T16:16:49.533Z</time></trkpt><trkpt lat="39.0632467" lon="16.5308767"><ele>1264.0</ele><time>2026-04-18T16:16:50.532Z</time></trkpt><trkpt lat="39.0631183" lon="16.53098"><ele>1264.25</ele><time>2026-04-18T16:16:51.531Z</time></trkpt><trkpt lat="39.0629967" lon="16.5310767"><ele>1264.5</ele><time>2026-04-18T16:16:52.535Z</time></trkpt><trkpt lat="39.062895" lon="16.5311917"><ele>1264.75</ele><time>2026-04-18T16:16:53.53Z</time></trkpt><trkpt lat="39.0628217" lon="16.5313067"><ele>1265.0</ele><time>2026-04-18T16:16:54.531Z</time></trkpt><trkpt lat="39.06274" lon="16.5313683"><ele>1265.0</ele><time>2026-04-18T16:16:55.531Z</time></trkpt><trkpt lat="39.0626317" lon="16.5313933"><ele>1265.0</ele><time>2026-04-18T16:16:56.532Z</time></trkpt><trkpt lat="39.0625067" lon="16.531405"><ele>1265.0</ele><time>2026-04-18T16:16:57.534Z</time></trkpt><trkpt lat="39.0623767" lon="16.531425"><ele>1265.0</ele><time>2026-04-18T16:16:58.531Z</time></trkpt><trkpt lat="39.0622367" lon="16.53142"><ele>1264.5</ele><time>2026-04-18T16:16:59.53Z</time></trkpt><trkpt lat="39.06209" lon="16.531385"><ele>1264.0</ele><time>2026-04-18T16:17:00.531Z</time></trkpt><trkpt lat="39.0619417" lon="16.5313383"><ele>1263.5</ele><time>2026-04-18T16:17:01.532Z</time></trkpt><trkpt lat="39.0618033" lon="16.5312817"><ele>1263.0</ele><time>2026-04-18T16:17:02.53Z</time></trkpt><trkpt lat="39.0616633" lon="16.5312733"><ele>1264.4</ele><time>2026-04-18T16:17:03.535Z</time></trkpt><trkpt lat="39.0615383" lon="16.53123"><ele>1265.8</ele><time>2026-04-18T16:17:04.532Z</time></trkpt><trkpt lat="39.0614217" lon="16.53119"><ele>1267.2</ele><time>2026-04-18T16:17:05.532Z</time></trkpt><trkpt lat="39.061315" lon="16.53117"><ele>1268.6</ele><time>2026-04-18T16:17:06.533Z</time></trkpt><trkpt lat="39.061225" lon="16.5311767"><ele>1270.0</ele><time>2026-04-18T16:17:07.534Z</time></trkpt><trkpt lat="39.0611467" lon="16.5311917"><ele>1270.0</ele><time>2026-04-18T16:17:08.534Z</time></trkpt><trkpt lat="39.06107" lon="16.5312317"><ele>1270.0</ele><time>2026-04-18T16:17:09.532Z</time></trkpt><trkpt lat="39.0610067" lon="16.5313133"><ele>1270.0</ele><time>2026-04-18T16:17:10.534Z</time></trkpt><trkpt lat="39.06095" lon="16.5314017"><ele>1270.0</ele><time>2026-04-18T16:17:11.533Z</time></trkpt><trkpt lat="39.0608767" lon="16.53148"><ele>1270.0</ele><time>2026-04-18T16:17:12.534Z</time></trkpt><trkpt lat="39.060825" lon="16.5315767"><ele>1270.0</ele><time>2026-04-18T16:17:13.535Z</time></trkpt><trkpt lat="39.0607633" lon="16.53169"><ele>1269.75</ele><time>2026-04-18T16:17:14.533Z</time></trkpt><trkpt lat="39.0606817" lon="16.531815"><ele>1269.5</ele><time>2026-04-18T16:17:15.534Z</time></trkpt><trkpt lat="39.0605933" lon="16.531945"><ele>1269.25</ele><time>2026-04-18T16:17:16.531Z</time></trkpt><trkpt lat="39.0605067" lon="16.5320383"><ele>1269.0</ele><time>2026-04-18T16:17:17.534Z</time></trkpt><trkpt lat="39.060415" lon="16.5321167"><ele>1269.0</ele><time>2026-04-18T16:17:18.532Z</time></trkpt><trkpt lat="39.0603117" lon="16.5321983"><ele>1269.0</ele><time>2026-04-18T16:17:19.536Z</time></trkpt><trkpt lat="39.0602117" lon="16.5322667"><ele>1269.0</ele><time>2026-04-18T16:17:20.532Z</time></trkpt><trkpt lat="39.06012" lon="16.5323317"><ele>1269.0</ele><time>2026-04-18T16:17:21.532Z</time></trkpt><trkpt lat="39.06003" lon="16.53238"><ele>1269.0</ele><time>2026-04-18T16:17:22.535Z</time></trkpt><trkpt lat="39.0599217" lon="16.5324333"><ele>1271.6</ele><time>2026-04-18T16:17:23.531Z</time></trkpt><trkpt lat="39.0598233" lon="16.5324833"><ele>1274.2</ele><time>2026-04-18T16:17:24.534Z</time></trkpt><trkpt lat="39.059715" lon="16.5325167"><ele>1276.8</ele><time>2026-04-18T16:17:25.532Z</time></trkpt><trkpt lat="39.05961" lon="16.532545"><ele>1279.3999999999999</ele><time>2026-04-18T16:17:26.535Z</time></trkpt><trkpt lat="39.0595117" lon="16.5326033"><ele>1282.0</ele><time>2026-04-18T16:17:27.533Z</time></trkpt><trkpt lat="39.0594183" lon="16.53269"><ele>1282.0</ele><time>2026-04-18T16:17:28.531Z</time></trkpt><trkpt lat="39.05932" lon="16.5327583"><ele>1282.0</ele><time>2026-04-18T16:17:29.533Z</time></trkpt><trkpt lat="39.0592333" lon="16.53283"><ele>1282.0</ele><time>2026-04-18T16:17:30.533Z</time></trkpt><trkpt lat="39.059145" lon="16.53291"><ele>1282.0</ele><time>2026-04-18T16:17:31.535Z</time></trkpt><trkpt lat="39.059065" lon="16.5330133"><ele>1282.0</ele><time>2026-04-18T16:17:32.531Z</time></trkpt><trkpt lat="39.0589883" lon="16.53311"><ele>1280.6</ele><time>2026-04-18T16:17:33.535Z</time></trkpt><trkpt lat="39.0589133" lon="16.533225"><ele>1279.1999999999998</ele><time>2026-04-18T16:17:34.532Z</time></trkpt><trkpt lat="39.0588383" lon="16.533335"><ele>1277.8</ele><time>2026-04-18T16:17:35.531Z</time></trkpt><trkpt lat="39.05877" lon="16.5334367"><ele>1276.4</ele><time>2026-04-18T16:17:36.53Z</time></trkpt><trkpt lat="39.0586967" lon="16.5335233"><ele>1275.0</ele><time>2026-04-18T16:17:37.532Z</time></trkpt><trkpt lat="39.0586167" lon="16.5336033"><ele>1275.0</ele><time>2026-04-18T16:17:38.533Z</time></trkpt><trkpt lat="39.0585233" lon="16.533675"><ele>1275.0</ele><time>2026-04-18T16:17:39.533Z</time></trkpt><trkpt lat="39.0584283" lon="16.5337283"><ele>1275.0</ele><time>2026-04-18T16:17:40.533Z</time></trkpt><trkpt lat="39.0583367" lon="16.533785"><ele>1275.0</ele><time>2026-04-18T16:17:41.531Z</time></trkpt><trkpt lat="39.0582417" lon="16.53382"><ele>1275.0</ele><time>2026-04-18T16:17:42.532Z</time></trkpt><trkpt lat="39.0581517" lon="16.5338417"><ele>1268.2</ele><time>2026-04-18T16:17:43.532Z</time></trkpt><trkpt lat="39.05807" lon="16.5338683"><ele>1261.4</ele><time>2026-04-18T16:17:44.532Z</time></trkpt><trkpt lat="39.0579667" lon="16.5338617"><ele>1254.6</ele><time>2026-04-18T16:17:45.534Z</time></trkpt><trkpt lat="39.0578683" lon="16.53385"><ele>1247.8</ele><time>2026-04-18T16:17:46.533Z</time></trkpt><trkpt lat="39.05775" lon="16.5338183"><ele>1241.0</ele><time>2026-04-18T16:17:47.533Z</time></trkpt><trkpt lat="39.0576717" lon="16.5337767"><ele>1241.0</ele><time>2026-04-18T16:17:48.535Z</time></trkpt><trkpt lat="39.0575917" lon="16.5337583"><ele>1241.0</ele><time>2026-04-18T16:17:49.533Z</time></trkpt><trkpt lat="39.057515" lon="16.5337267"><ele>1241.0</ele><time>2026-04-18T16:17:50.532Z</time></trkpt><trkpt lat="39.0574317" lon="16.533705"><ele>1241.0</ele><time>2026-04-18T16:17:51.534Z</time></trkpt><trkpt lat="39.0573517" lon="16.5336867"><ele>1241.0</ele><time>2026-04-18T16:17:52.531Z</time></trkpt><trkpt lat="39.0572667" lon="16.5336717"><ele>1241.0</ele><time>2026-04-18T16:17:53.535Z</time></trkpt><trkpt lat="39.0571933" lon="16.5336833"><ele>1242.0</ele><time>2026-04-18T16:17:54.532Z</time></trkpt><trkpt lat="39.057075" lon="16.5337117"><ele>1243.0</ele><time>2026-04-18T16:17:56.532Z</time></trkpt><trkpt lat="39.0569767" lon="16.5337983"><ele>1244.0</ele><time>2026-04-18T16:17:58.533Z</time></trkpt><trkpt lat="39.05692" lon="16.5338867"><ele>1245.0</ele><time>2026-04-18T16:17:59.531Z</time></trkpt><trkpt lat="39.0568483" lon="16.53396"><ele>1246.0</ele><time>2026-04-18T16:18:00.532Z</time></trkpt><trkpt lat="39.05676" lon="16.53404"><ele>1246.0</ele><time>2026-04-18T16:18:01.534Z</time></trkpt><trkpt lat="39.0566467" lon="16.53414"><ele>1246.0</ele><time>2026-04-18T16:18:02.531Z</time></trkpt><trkpt lat="39.0565283" lon="16.5342083"><ele>1246.0</ele><time>2026-04-18T16:18:03.533Z</time></trkpt><trkpt lat="39.0564183" lon="16.5342933"><ele>1246.0</ele><time>2026-04-18T16:18:04.531Z</time></trkpt><trkpt lat="39.0563067" lon="16.53438"><ele>1245.0</ele><time>2026-04-18T16:18:05.533Z</time></trkpt><trkpt lat="39.0562167" lon="16.53448"><ele>1244.0</ele><time>2026-04-18T16:18:06.532Z</time></trkpt><trkpt lat="39.0561267" lon="16.5345783"><ele>1243.0</ele><time>2026-04-18T16:18:07.531Z</time></trkpt><trkpt lat="39.0560433" lon="16.5347217"><ele>1242.0</ele><time>2026-04-18T16:18:08.534Z</time></trkpt><trkpt lat="39.05596" lon="16.5348717"><ele>1242.25</ele><time>2026-04-18T16:18:09.53Z</time></trkpt><trkpt lat="39.0558533" lon="16.5350017"><ele>1242.5</ele><time>2026-04-18T16:18:10.533Z</time></trkpt><trkpt lat="39.0557433" lon="16.5351283"><ele>1242.75</ele><time>2026-04-18T16:18:11.53Z</time></trkpt><trkpt lat="39.0556417" lon="16.535255"><ele>1243.0</ele><time>2026-04-18T16:18:12.53Z</time></trkpt><trkpt lat="39.055555" lon="16.5353917"><ele>1244.75</ele><time>2026-04-18T16:18:13.53Z</time></trkpt><trkpt lat="39.0554683" lon="16.5355033"><ele>1246.5</ele><time>2026-04-18T16:18:14.53Z</time></trkpt><trkpt lat="39.055385" lon="16.5356083"><ele>1248.25</ele><time>2026-04-18T16:18:15.532Z</time></trkpt><trkpt lat="39.0552933" lon="16.5357017"><ele>1250.0</ele><time>2026-04-18T16:18:16.53Z</time></trkpt><trkpt lat="39.0552017" lon="16.5357983"><ele>1250.0</ele><time>2026-04-18T16:18:17.532Z</time></trkpt><trkpt lat="39.0551217" lon="16.5359"><ele>1250.0</ele><time>2026-04-18T16:18:18.53Z</time></trkpt><trkpt lat="39.055045" lon="16.5359867"><ele>1250.0</ele><time>2026-04-18T16:18:19.531Z</time></trkpt><trkpt lat="39.0549783" lon="16.5360767"><ele>1250.0</ele><time>2026-04-18T16:18:20.532Z</time></trkpt><trkpt lat="39.0548883" lon="16.536105"><ele>1250.0</ele><time>2026-04-18T16:18:21.532Z</time></trkpt><trkpt lat="39.0547867" lon="16.5361717"><ele>1246.75</ele><time>2026-04-18T16:18:22.53Z</time></trkpt><trkpt lat="39.0546767" lon="16.5362333"><ele>1243.5</ele><time>2026-04-18T16:18:23.535Z</time></trkpt><trkpt lat="39.0545483" lon="16.53625"><ele>1240.25</ele><time>2026-04-18T16:18:24.532Z</time></trkpt><trkpt lat="39.0544267" lon="16.5362733"><ele>1237.0</ele><time>2026-04-18T16:18:25.531Z</time></trkpt><trkpt lat="39.0543033" lon="16.5362867"><ele>1237.0</ele><time>2026-04-18T16:18:26.532Z</time></trkpt><trkpt lat="39.0541867" lon="16.5362717"><ele>1237.0</ele><time>2026-04-18T16:18:27.532Z</time></trkpt><trkpt lat="39.0540783" lon="16.536255"><ele>1237.0</ele><time>2026-04-18T16:18:28.533Z</time></trkpt><trkpt lat="39.05399" lon="16.5361933"><ele>1237.0</ele><time>2026-04-18T16:18:29.534Z</time></trkpt><trkpt lat="39.0539083" lon="16.5361333"><ele>1237.0</ele><time>2026-04-18T16:18:30.534Z</time></trkpt><trkpt lat="39.053815" lon="16.536105"><ele>1233.0</ele><time>2026-04-18T16:18:31.534Z</time></trkpt><trkpt lat="39.0537167" lon="16.5360933"><ele>1229.0</ele><time>2026-04-18T16:18:32.534Z</time></trkpt><trkpt lat="39.0536183" lon="16.53609"><ele>1225.0</ele><time>2026-04-18T16:18:33.534Z</time></trkpt><trkpt lat="39.05352" lon="16.5361067"><ele>1221.0</ele><time>2026-04-18T16:18:34.533Z</time></trkpt><trkpt lat="39.053425" lon="16.5361033"><ele>1217.0</ele><time>2026-04-18T16:18:35.533Z</time></trkpt><trkpt lat="39.0533467" lon="16.5360967"><ele>1215.6</ele><time>2026-04-18T16:18:36.534Z</time></trkpt><trkpt lat="39.0532817" lon="16.5361167"><ele>1214.2</ele><time>2026-04-18T16:18:37.533Z</time></trkpt><trkpt lat="39.053165" lon="16.5361667"><ele>1212.8</ele><time>2026-04-18T16:18:39.536Z</time></trkpt><trkpt lat="39.053105" lon="16.5362933"><ele>1211.4</ele><time>2026-04-18T16:18:41.532Z</time></trkpt><trkpt lat="39.0530367" lon="16.536435"><ele>1210.0</ele><time>2026-04-18T16:18:43.531Z</time></trkpt><trkpt lat="39.0529733" lon="16.5364867"><ele>1210.0</ele><time>2026-04-18T16:18:44.532Z</time></trkpt><trkpt lat="39.0528883" lon="16.5365367"><ele>1210.0</ele><time>2026-04-18T16:18:45.534Z</time></trkpt><trkpt lat="39.05279" lon="16.536595"><ele>1210.0</ele><time>2026-04-18T16:18:46.534Z</time></trkpt><trkpt lat="39.05268" lon="16.5366083"><ele>1210.0</ele><time>2026-04-18T16:18:47.532Z</time></trkpt><trkpt lat="39.0525767" lon="16.5366"><ele>1210.0</ele><time>2026-04-18T16:18:48.532Z</time></trkpt><trkpt lat="39.052455" lon="16.5366183"><ele>1207.25</ele><time>2026-04-18T16:18:49.535Z</time></trkpt><trkpt lat="39.0523333" lon="16.536635"><ele>1204.5</ele><time>2026-04-18T16:18:50.531Z</time></trkpt><trkpt lat="39.0521933" lon="16.5366867"><ele>1201.75</ele><time>2026-04-18T16:18:51.531Z</time></trkpt><trkpt lat="39.052065" lon="16.5367167"><ele>1199.0</ele><time>2026-04-18T16:18:52.533Z</time></trkpt><trkpt lat="39.0519433" lon="16.5367283"><ele>1199.0</ele><time>2026-04-18T16:18:53.536Z</time></trkpt><trkpt lat="39.0518167" lon="16.5367417"><ele>1199.0</ele><time>2026-04-18T16:18:54.532Z</time></trkpt><trkpt lat="39.051695" lon="16.53679"><ele>1199.0</ele><time>2026-04-18T16:18:55.531Z</time></trkpt><trkpt lat="39.0515833" lon="16.5368017"><ele>1199.0</ele><time>2026-04-18T16:18:56.532Z</time></trkpt><trkpt lat="39.0514833" lon="16.5368233"><ele>1197.6000000000001</ele><time>2026-04-18T16:18:57.534Z</time></trkpt><trkpt lat="39.0513933" lon="16.5368417"><ele>1196.2</ele><time>2026-04-18T16:18:58.532Z</time></trkpt><trkpt lat="39.0512933" lon="16.536825"><ele>1194.8000000000002</ele><time>2026-04-18T16:18:59.533Z</time></trkpt><trkpt lat="39.0511933" lon="16.5368083"><ele>1193.4</ele><time>2026-04-18T16:19:00.533Z</time></trkpt><trkpt lat="39.051105" lon="16.5367383"><ele>1192.0</ele><time>2026-04-18T16:19:01.534Z</time></trkpt><trkpt lat="39.0510183" lon="16.5366517"><ele>1192.0</ele><time>2026-04-18T16:19:02.533Z</time></trkpt><trkpt lat="39.05094" lon="16.5366333"><ele>1192.0</ele><time>2026-04-18T16:19:03.533Z</time></trkpt><trkpt lat="39.05086" lon="16.53663"><ele>1192.0</ele><time>2026-04-18T16:19:04.533Z</time></trkpt><trkpt lat="39.05076" lon="16.5366167"><ele>1192.0</ele><time>2026-04-18T16:19:05.534Z</time></trkpt><trkpt lat="39.0506517" lon="16.5366333"><ele>1192.0</ele><time>2026-04-18T16:19:06.532Z</time></trkpt><trkpt lat="39.05053" lon="16.5366517"><ele>1192.5</ele><time>2026-04-18T16:19:07.533Z</time></trkpt><trkpt lat="39.05041" lon="16.53673"><ele>1193.0</ele><time>2026-04-18T16:19:08.533Z</time></trkpt><trkpt lat="39.050265" lon="16.5367533"><ele>1193.5</ele><time>2026-04-18T16:19:09.534Z</time></trkpt><trkpt lat="39.0501233" lon="16.5367983"><ele>1194.0</ele><time>2026-04-18T16:19:10.532Z</time></trkpt><trkpt lat="39.04999" lon="16.53685"><ele>1194.5</ele><time>2026-04-18T16:19:11.532Z</time></trkpt><trkpt lat="39.049865" lon="16.53686"><ele>1195.0</ele><time>2026-04-18T16:19:12.533Z</time></trkpt><trkpt lat="39.04975" lon="16.5368883"><ele>1195.5</ele><time>2026-04-18T16:19:13.533Z</time></trkpt><trkpt lat="39.04966" lon="16.53696"><ele>1196.0</ele><time>2026-04-18T16:19:14.533Z</time></trkpt><trkpt lat="39.0495883" lon="16.5370683"><ele>1193.5</ele><time>2026-04-18T16:19:15.533Z</time></trkpt><trkpt lat="39.0495217" lon="16.53718"><ele>1191.0</ele><time>2026-04-18T16:19:16.533Z</time></trkpt><trkpt lat="39.0494583" lon="16.5372967"><ele>1188.5</ele><time>2026-04-18T16:19:17.532Z</time></trkpt><trkpt lat="39.04942" lon="16.5374467"><ele>1186.0</ele><time>2026-04-18T16:19:18.533Z</time></trkpt><trkpt lat="39.049365" lon="16.53758"><ele>1186.0</ele><time>2026-04-18T16:19:19.532Z</time></trkpt><trkpt lat="39.0493217" lon="16.537715"><ele>1186.0</ele><time>2026-04-18T16:19:20.534Z</time></trkpt><trkpt lat="39.0492683" lon="16.5378467"><ele>1186.0</ele><time>2026-04-18T16:19:21.535Z</time></trkpt><trkpt lat="39.0492017" lon="16.5379667"><ele>1186.0</ele><time>2026-04-18T16:19:22.534Z</time></trkpt><trkpt lat="39.0491" lon="16.5380533"><ele>1180.75</ele><time>2026-04-18T16:19:23.533Z</time></trkpt><trkpt lat="39.0489833" lon="16.5381217"><ele>1175.5</ele><time>2026-04-18T16:19:24.534Z</time></trkpt><trkpt lat="39.0488617" lon="16.538205"><ele>1170.25</ele><time>2026-04-18T16:19:25.534Z</time></trkpt><trkpt lat="39.04874" lon="16.53832"><ele>1165.0</ele><time>2026-04-18T16:19:26.534Z</time></trkpt><trkpt lat="39.0485983" lon="16.538385"><ele>1165.0</ele><time>2026-04-18T16:19:27.534Z</time></trkpt><trkpt lat="39.048455" lon="16.5384683"><ele>1165.0</ele><time>2026-04-18T16:19:28.535Z</time></trkpt><trkpt lat="39.0483267" lon="16.53858"><ele>1165.0</ele><time>2026-04-18T16:19:29.533Z</time></trkpt><trkpt lat="39.0481883" lon="16.5386617"><ele>1160.3333333333333</ele><time>2026-04-18T16:19:30.533Z</time></trkpt><trkpt lat="39.0480483" lon="16.538735"><ele>1155.6666666666667</ele><time>2026-04-18T16:19:31.533Z</time></trkpt><trkpt lat="39.0478933" lon="16.5387733"><ele>1151.0</ele><time>2026-04-18T16:19:32.535Z</time></trkpt><trkpt lat="39.047745" lon="16.5388383"><ele>1151.0</ele><time>2026-04-18T16:19:33.536Z</time></trkpt><trkpt lat="39.0475983" lon="16.53891"><ele>1151.0</ele><time>2026-04-18T16:19:34.538Z</time></trkpt><trkpt lat="39.0474567" lon="16.5389967"><ele>1151.0</ele><time>2026-04-18T16:19:35.532Z</time></trkpt><trkpt lat="39.0473333" lon="16.53911"><ele>1149.5</ele><time>2026-04-18T16:19:36.537Z</time></trkpt><trkpt lat="39.04721" lon="16.5391867"><ele>1148.0</ele><time>2026-04-18T16:19:37.534Z</time></trkpt><trkpt lat="39.0470983" lon="16.53927"><ele>1146.5</ele><time>2026-04-18T16:19:38.532Z</time></trkpt><trkpt lat="39.0469867" lon="16.5393517"><ele>1145.0</ele><time>2026-04-18T16:19:39.535Z</time></trkpt><trkpt lat="39.0468733" lon="16.539245"><ele>1145.0</ele><time>2026-04-18T16:19:40.534Z</time></trkpt><trkpt lat="39.0467983" lon="16.539385"><ele>1145.0</ele><time>2026-04-18T16:19:41.535Z</time></trkpt><trkpt lat="39.0467133" lon="16.5394717"><ele>1145.0</ele><time>2026-04-18T16:19:42.538Z</time></trkpt><trkpt lat="39.04663" lon="16.5395033"><ele>1145.0</ele><time>2026-04-18T16:19:43.531Z</time></trkpt><trkpt lat="39.046565" lon="16.5394733"><ele>1145.0</ele><time>2026-04-18T16:19:44.532Z</time></trkpt><trkpt lat="39.04648" lon="16.5394633"><ele>1144.1666666666667</ele><time>2026-04-18T16:19:45.532Z</time></trkpt><trkpt lat="39.0464" lon="16.5394467"><ele>1143.3333333333335</ele><time>2026-04-18T16:19:46.531Z</time></trkpt><trkpt lat="39.0463317" lon="16.5394067"><ele>1142.5</ele><time>2026-04-18T16:19:47.534Z</time></trkpt><trkpt lat="39.0462517" lon="16.5393817"><ele>1141.6666666666667</ele><time>2026-04-18T16:19:48.534Z</time></trkpt><trkpt lat="39.0461633" lon="16.5393583"><ele>1140.8333333333333</ele><time>2026-04-18T16:19:49.531Z</time></trkpt><trkpt lat="39.0460717" lon="16.5393617"><ele>1140.0</ele><time>2026-04-18T16:19:50.533Z</time></trkpt><trkpt lat="39.0459917" lon="16.5393833"><ele>1140.0</ele><time>2026-04-18T16:19:51.534Z</time></trkpt><trkpt lat="39.04592" lon="16.5394283"><ele>1140.0</ele><time>2026-04-18T16:19:52.537Z</time></trkpt><trkpt lat="39.045875" lon="16.5395217"><ele>1140.0</ele><time>2026-04-18T16:19:53.532Z</time></trkpt><trkpt lat="39.0458283" lon="16.5396233"><ele>1140.0</ele><time>2026-04-18T16:19:54.534Z</time></trkpt><trkpt lat="39.0458033" lon="16.5397433"><ele>1140.0</ele><time>2026-04-18T16:19:55.533Z</time></trkpt><trkpt lat="39.0457717" lon="16.5398683"><ele>1136.0</ele><time>2026-04-18T16:19:56.534Z</time></trkpt><trkpt lat="39.0457283" lon="16.539995"><ele>1132.0</ele><time>2026-04-18T16:19:57.534Z</time></trkpt><trkpt lat="39.0456917" lon="16.5401283"><ele>1128.0</ele><time>2026-04-18T16:19:58.534Z</time></trkpt><trkpt lat="39.0456533" lon="16.5402667"><ele>1124.0</ele><time>2026-04-18T16:19:59.533Z</time></trkpt><trkpt lat="39.0456183" lon="16.5404"><ele>1120.0</ele><time>2026-04-18T16:20:00.534Z</time></trkpt><trkpt lat="39.0455733" lon="16.540535"><ele>1119.2</ele><time>2026-04-18T16:20:01.534Z</time></trkpt><trkpt lat="39.0455317" lon="16.54066"><ele>1118.4</ele><time>2026-04-18T16:20:02.534Z</time></trkpt><trkpt lat="39.0454633" lon="16.540765"><ele>1117.6</ele><time>2026-04-18T16:20:03.536Z</time></trkpt><trkpt lat="39.0453883" lon="16.5408517"><ele>1116.8</ele><time>2026-04-18T16:20:04.535Z</time></trkpt><trkpt lat="39.0452967" lon="16.5409067"><ele>1116.0</ele><time>2026-04-18T16:20:05.534Z</time></trkpt><trkpt lat="39.0452" lon="16.5409367"><ele>1116.0</ele><time>2026-04-18T16:20:06.535Z</time></trkpt><trkpt lat="39.0451067" lon="16.541"><ele>1116.0</ele><time>2026-04-18T16:20:07.535Z</time></trkpt><trkpt lat="39.0450183" lon="16.54106"><ele>1116.0</ele><time>2026-04-18T16:20:08.532Z</time></trkpt><trkpt lat="39.0449383" lon="16.54112"><ele>1116.0</ele><time>2026-04-18T16:20:09.534Z</time></trkpt><trkpt lat="39.04487" lon="16.5411917"><ele>1116.0</ele><time>2026-04-18T16:20:10.534Z</time></trkpt><trkpt lat="39.04482" lon="16.541285"><ele>1114.6666666666667</ele><time>2026-04-18T16:20:11.533Z</time></trkpt><trkpt lat="39.04479" lon="16.5413867"><ele>1113.3333333333333</ele><time>2026-04-18T16:20:12.533Z</time></trkpt><trkpt lat="39.0447617" lon="16.5414983"><ele>1112.0</ele><time>2026-04-18T16:20:13.534Z</time></trkpt><trkpt lat="39.0447217" lon="16.5416033"><ele>1110.6666666666665</ele><time>2026-04-18T16:20:14.532Z</time></trkpt><trkpt lat="39.0446933" lon="16.5417167"><ele>1109.3333333333333</ele><time>2026-04-18T16:20:15.536Z</time></trkpt><trkpt lat="39.04469" lon="16.5418283"><ele>1108.0</ele><time>2026-04-18T16:20:16.534Z</time></trkpt><trkpt lat="39.044685" lon="16.5419483"><ele>1107.2</ele><time>2026-04-18T16:20:17.534Z</time></trkpt><trkpt lat="39.0446617" lon="16.54207"><ele>1106.4</ele><time>2026-04-18T16:20:18.532Z</time></trkpt><trkpt lat="39.044635" lon="16.5421983"><ele>1105.6000000000001</ele><time>2026-04-18T16:20:19.534Z</time></trkpt><trkpt lat="39.0446133" lon="16.54232"><ele>1104.8</ele><time>2026-04-18T16:20:20.531Z</time></trkpt><trkpt lat="39.04459" lon="16.54241"><ele>1104.0</ele><time>2026-04-18T16:20:21.531Z</time></trkpt><trkpt lat="39.0445017" lon="16.5425217"><ele>1104.0</ele><time>2026-04-18T16:20:23.533Z</time></trkpt><trkpt lat="39.0444367" lon="16.5425533"><ele>1104.0</ele><time>2026-04-18T16:20:24.534Z</time></trkpt><trkpt lat="39.04437" lon="16.5425683"><ele>1104.0</ele><time>2026-04-18T16:20:25.537Z</time></trkpt><trkpt lat="39.04429" lon="16.5425467"><ele>1104.0</ele><time>2026-04-18T16:20:26.532Z</time></trkpt><trkpt lat="39.0442133" lon="16.5425033"><ele>1104.0</ele><time>2026-04-18T16:20:27.536Z</time></trkpt><trkpt lat="39.04415" lon="16.5424867"><ele>1104.0</ele><time>2026-04-18T16:20:28.532Z</time></trkpt><trkpt lat="39.0440383" lon="16.54252"><ele>1104.2</ele><time>2026-04-18T16:20:30.533Z</time></trkpt><trkpt lat="39.0439683" lon="16.5426317"><ele>1104.4</ele><time>2026-04-18T16:20:32.534Z</time></trkpt><trkpt lat="39.0439583" lon="16.5427167"><ele>1104.6</ele><time>2026-04-18T16:20:33.533Z</time></trkpt><trkpt lat="39.0439617" lon="16.5428317"><ele>1104.8</ele><time>2026-04-18T16:20:34.535Z</time></trkpt><trkpt lat="39.043965" lon="16.542955"><ele>1105.0</ele><time>2026-04-18T16:20:35.532Z</time></trkpt><trkpt lat="39.0439867" lon="16.5431017"><ele>1105.0</ele><time>2026-04-18T16:20:36.532Z</time></trkpt><trkpt lat="39.0439933" lon="16.5432467"><ele>1105.0</ele><time>2026-04-18T16:20:37.531Z</time></trkpt><trkpt lat="39.0440167" lon="16.5433833"><ele>1105.0</ele><time>2026-04-18T16:20:38.533Z</time></trkpt><trkpt lat="39.044015" lon="16.5435317"><ele>1105.0</ele><time>2026-04-18T16:20:39.534Z</time></trkpt><trkpt lat="39.0440083" lon="16.5436817"><ele>1103.4</ele><time>2026-04-18T16:20:40.532Z</time></trkpt><trkpt lat="39.0439867" lon="16.5438133"><ele>1101.8</ele><time>2026-04-18T16:20:41.532Z</time></trkpt><trkpt lat="39.04393" lon="16.5439467"><ele>1100.2</ele><time>2026-04-18T16:20:42.531Z</time></trkpt><trkpt lat="39.043875" lon="16.544065"><ele>1098.6</ele><time>2026-04-18T16:20:43.533Z</time></trkpt><trkpt lat="39.0438083" lon="16.5441817"><ele>1097.0</ele><time>2026-04-18T16:20:44.535Z</time></trkpt><trkpt lat="39.0437167" lon="16.5442567"><ele>1097.0</ele><time>2026-04-18T16:20:45.534Z</time></trkpt><trkpt lat="39.0436217" lon="16.5443167"><ele>1097.0</ele><time>2026-04-18T16:20:46.535Z</time></trkpt><trkpt lat="39.0435233" lon="16.5443783"><ele>1097.0</ele><time>2026-04-18T16:20:47.531Z</time></trkpt><trkpt lat="39.043435" lon="16.5444383"><ele>1097.0</ele><time>2026-04-18T16:20:48.532Z</time></trkpt><trkpt lat="39.0433133" lon="16.5444433"><ele>1097.0</ele><time>2026-04-18T16:20:49.534Z</time></trkpt><trkpt lat="39.0431917" lon="16.5444533"><ele>1091.25</ele><time>2026-04-18T16:20:50.531Z</time></trkpt><trkpt lat="39.0430717" lon="16.544445"><ele>1085.5</ele><time>2026-04-18T16:20:51.531Z</time></trkpt><trkpt lat="39.0429583" lon="16.5444417"><ele>1079.75</ele><time>2026-04-18T16:20:52.53Z</time></trkpt><trkpt lat="39.0428333" lon="16.5444467"><ele>1074.0</ele><time>2026-04-18T16:20:53.533Z</time></trkpt><trkpt lat="39.0427083" lon="16.5444817"><ele>1074.0</ele><time>2026-04-18T16:20:54.531Z</time></trkpt><trkpt lat="39.04259" lon="16.5445"><ele>1074.0</ele><time>2026-04-18T16:20:55.534Z</time></trkpt><trkpt lat="39.0424583" lon="16.5445267"><ele>1074.0</ele><time>2026-04-18T16:20:56.533Z</time></trkpt><trkpt lat="39.0423233" lon="16.5445533"><ele>1074.0</ele><time>2026-04-18T16:20:57.536Z</time></trkpt><trkpt lat="39.042195" lon="16.544565"><ele>1073.5</ele><time>2026-04-18T16:20:58.532Z</time></trkpt><trkpt lat="39.0420633" lon="16.544575"><ele>1073.0</ele><time>2026-04-18T16:20:59.533Z</time></trkpt><trkpt lat="39.0419283" lon="16.544585"><ele>1072.5</ele><time>2026-04-18T16:21:00.533Z</time></trkpt><trkpt lat="39.04179" lon="16.5445783"><ele>1072.0</ele><time>2026-04-18T16:21:01.531Z</time></trkpt><trkpt lat="39.0416567" lon="16.5445683"><ele>1069.0</ele><time>2026-04-18T16:21:02.533Z</time></trkpt><trkpt lat="39.0415433" lon="16.5445883"><ele>1066.0</ele><time>2026-04-18T16:21:03.535Z</time></trkpt><trkpt lat="39.0414333" lon="16.5445617"><ele>1063.0</ele><time>2026-04-18T16:21:04.534Z</time></trkpt><trkpt lat="39.04132" lon="16.5445517"><ele>1060.0</ele><time>2026-04-18T16:21:05.534Z</time></trkpt><trkpt lat="39.0412233" lon="16.544585"><ele>1057.0</ele><time>2026-04-18T16:21:06.531Z</time></trkpt><trkpt lat="39.0411317" lon="16.544605"><ele>1057.0</ele><time>2026-04-18T16:21:07.533Z</time></trkpt><trkpt lat="39.04103" lon="16.544655"><ele>1057.0</ele><time>2026-04-18T16:21:08.534Z</time></trkpt><trkpt lat="39.0409483" lon="16.54474"><ele>1057.0</ele><time>2026-04-18T16:21:09.531Z</time></trkpt><trkpt lat="39.0408983" lon="16.5448633"><ele>1057.0</ele><time>2026-04-18T16:21:10.534Z</time></trkpt><trkpt lat="39.0408567" lon="16.5449833"><ele>1057.0</ele><time>2026-04-18T16:21:11.534Z</time></trkpt><trkpt lat="39.0408233" lon="16.5451017"><ele>1057.0</ele><time>2026-04-18T16:21:12.531Z</time></trkpt><trkpt lat="39.0408167" lon="16.54521"><ele>1057.0</ele><time>2026-04-18T16:21:13.533Z</time></trkpt><trkpt lat="39.0408433" lon="16.5453067"><ele>1057.0</ele><time>2026-04-18T16:21:14.531Z</time></trkpt><trkpt lat="39.04088" lon="16.5454"><ele>1057.0</ele><time>2026-04-18T16:21:15.535Z</time></trkpt><trkpt lat="39.0409183" lon="16.5455033"><ele>1057.0</ele><time>2026-04-18T16:21:16.53Z</time></trkpt><trkpt lat="39.0409617" lon="16.5455867"><ele>1057.0</ele><time>2026-04-18T16:21:17.532Z</time></trkpt><trkpt lat="39.0410017" lon="16.545665"><ele>1054.8</ele><time>2026-04-18T16:21:18.532Z</time></trkpt><trkpt lat="39.0410183" lon="16.54581"><ele>1052.6</ele><time>2026-04-18T16:21:20.533Z</time></trkpt><trkpt lat="39.0409933" lon="16.5458933"><ele>1050.3999999999999</ele><time>2026-04-18T16:21:21.532Z</time></trkpt><trkpt lat="39.0409783" lon="16.5459983"><ele>1048.2</ele><time>2026-04-18T16:21:22.535Z</time></trkpt><trkpt lat="39.0408933" lon="16.5460867"><ele>1046.0</ele><time>2026-04-18T16:21:23.531Z</time></trkpt><trkpt lat="39.0407867" lon="16.5461483"><ele>1045.0</ele><time>2026-04-18T16:21:24.531Z</time></trkpt><trkpt lat="39.0406733" lon="16.5462267"><ele>1044.0</ele><time>2026-04-18T16:21:25.531Z</time></trkpt><trkpt lat="39.040525" lon="16.5462417"><ele>1043.0</ele><time>2026-04-18T16:21:26.534Z</time></trkpt><trkpt lat="39.0403817" lon="16.54621"><ele>1042.0</ele><time>2026-04-18T16:21:27.535Z</time></trkpt><trkpt lat="39.040245" lon="16.5462067"><ele>1042.0</ele><time>2026-04-18T16:21:28.532Z</time></trkpt><trkpt lat="39.0401117" lon="16.54626"><ele>1042.0</ele><time>2026-04-18T16:21:29.534Z</time></trkpt><trkpt lat="39.0399583" lon="16.54626"><ele>1042.0</ele><time>2026-04-18T16:21:30.53Z</time></trkpt><trkpt lat="39.0398" lon="16.5463333"><ele>1037.6666666666665</ele><time>2026-04-18T16:21:31.53Z</time></trkpt><trkpt lat="39.0396333" lon="16.5463933"><ele>1033.3333333333333</ele><time>2026-04-18T16:21:32.53Z</time></trkpt><trkpt lat="39.0394683" lon="16.546465"><ele>1029.0</ele><time>2026-04-18T16:21:33.531Z</time></trkpt><trkpt lat="39.0393167" lon="16.5465583"><ele>1029.0</ele><time>2026-04-18T16:21:34.533Z</time></trkpt><trkpt lat="39.0391733" lon="16.5466983"><ele>1029.0</ele><time>2026-04-18T16:21:35.533Z</time></trkpt><trkpt lat="39.039" lon="16.5467017"><ele>1029.0</ele><time>2026-04-18T16:21:36.534Z</time></trkpt><trkpt lat="39.0388433" lon="16.5467283"><ele>1025.25</ele><time>2026-04-18T16:21:37.533Z</time></trkpt><trkpt lat="39.0387233" lon="16.5468133"><ele>1021.5</ele><time>2026-04-18T16:21:38.531Z</time></trkpt><trkpt lat="39.0386" lon="16.54689"><ele>1017.75</ele><time>2026-04-18T16:21:39.531Z</time></trkpt><trkpt lat="39.03849" lon="16.5469417"><ele>1014.0</ele><time>2026-04-18T16:21:40.531Z</time></trkpt><trkpt lat="39.0384033" lon="16.547005"><ele>1014.2</ele><time>2026-04-18T16:21:41.532Z</time></trkpt><trkpt lat="39.0383233" lon="16.5470467"><ele>1014.4000000000001</ele><time>2026-04-18T16:21:42.533Z</time></trkpt><trkpt lat="39.0382367" lon="16.5470433"><ele>1014.6</ele><time>2026-04-18T16:21:43.534Z</time></trkpt><trkpt lat="39.03816" lon="16.5470683"><ele>1014.8</ele><time>2026-04-18T16:21:44.531Z</time></trkpt><trkpt lat="39.0380767" lon="16.5471017"><ele>1015.0</ele><time>2026-04-18T16:21:45.533Z</time></trkpt><trkpt lat="39.0379683" lon="16.5471467"><ele>1012.5</ele><time>2026-04-18T16:21:46.532Z</time></trkpt><trkpt lat="39.037855" lon="16.547215"><ele>1010.0</ele><time>2026-04-18T16:21:47.532Z</time></trkpt><trkpt lat="39.0377367" lon="16.54731"><ele>1007.5</ele><time>2026-04-18T16:21:48.531Z</time></trkpt><trkpt lat="39.0376183" lon="16.5474117"><ele>1005.0</ele><time>2026-04-18T16:21:49.533Z</time></trkpt><trkpt lat="39.0375283" lon="16.5475167"><ele>1001.2</ele><time>2026-04-18T16:21:50.532Z</time></trkpt><trkpt lat="39.0374583" lon="16.5476283"><ele>997.4</ele><time>2026-04-18T16:21:51.534Z</time></trkpt><trkpt lat="39.03738" lon="16.5477083"><ele>993.5999999999999</ele><time>2026-04-18T16:21:52.535Z</time></trkpt><trkpt lat="39.03731" lon="16.5477783"><ele>989.8</ele><time>2026-04-18T16:21:53.534Z</time></trkpt><trkpt lat="39.0372317" lon="16.5478017"><ele>986.0</ele><time>2026-04-18T16:21:54.532Z</time></trkpt><trkpt lat="39.0371383" lon="16.5477867"><ele>986.0</ele><time>2026-04-18T16:21:55.538Z</time></trkpt><trkpt lat="39.03705" lon="16.5478183"><ele>985.9999999999999</ele><time>2026-04-18T16:21:56.532Z</time></trkpt><trkpt lat="39.036955" lon="16.5478683"><ele>985.9999999999999</ele><time>2026-04-18T16:21:57.533Z</time></trkpt><trkpt lat="39.036885" lon="16.5479617"><ele>986.0</ele><time>2026-04-18T16:21:58.536Z</time></trkpt><trkpt lat="39.03682" lon="16.5480817"><ele>986.0</ele><time>2026-04-18T16:21:59.532Z</time></trkpt><trkpt lat="39.0367317" lon="16.5481533"><ele>985.8</ele><time>2026-04-18T16:22:00.535Z</time></trkpt><trkpt lat="39.03664" lon="16.5482017"><ele>985.5999999999999</ele><time>2026-04-18T16:22:01.534Z</time></trkpt><trkpt lat="39.0365417" lon="16.54819"><ele>985.4</ele><time>2026-04-18T16:22:02.533Z</time></trkpt><trkpt lat="39.0364417" lon="16.5482017"><ele>985.2</ele><time>2026-04-18T16:22:03.534Z</time></trkpt><trkpt lat="39.0363367" lon="16.54824"><ele>985.0</ele><time>2026-04-18T16:22:04.53Z</time></trkpt><trkpt lat="39.0362417" lon="16.54827"><ele>985.0</ele><time>2026-04-18T16:22:05.536Z</time></trkpt><trkpt lat="39.03616" lon="16.548335"><ele>985.0</ele><time>2026-04-18T16:22:06.533Z</time></trkpt><trkpt lat="39.0360967" lon="16.5484333"><ele>985.0</ele><time>2026-04-18T16:22:07.53Z</time></trkpt><trkpt lat="39.036065" lon="16.54857"><ele>985.0</ele><time>2026-04-18T16:22:08.535Z</time></trkpt><trkpt lat="39.0360317" lon="16.5487033"><ele>985.0</ele><time>2026-04-18T16:22:09.531Z</time></trkpt><trkpt lat="39.0359783" lon="16.5488267"><ele>986.0</ele><time>2026-04-18T16:22:10.533Z</time></trkpt><trkpt lat="39.035885" lon="16.5489283"><ele>987.0</ele><time>2026-04-18T16:22:11.53Z</time></trkpt><trkpt lat="39.035755" lon="16.5490033"><ele>988.0</ele><time>2026-04-18T16:22:12.53Z</time></trkpt><trkpt lat="39.0356217" lon="16.5490933"><ele>989.0</ele><time>2026-04-18T16:22:13.535Z</time></trkpt><trkpt lat="39.0354967" lon="16.5491617"><ele>985.25</ele><time>2026-04-18T16:22:14.53Z</time></trkpt><trkpt lat="39.03537" lon="16.549145"><ele>981.5</ele><time>2026-04-18T16:22:15.531Z</time></trkpt><trkpt lat="39.035235" lon="16.5492067"><ele>977.75</ele><time>2026-04-18T16:22:16.53Z</time></trkpt><trkpt lat="39.0351117" lon="16.54927"><ele>974.0</ele><time>2026-04-18T16:22:17.536Z</time></trkpt><trkpt lat="39.034975" lon="16.549325"><ele>970.75</ele><time>2026-04-18T16:22:18.532Z</time></trkpt><trkpt lat="39.0348483" lon="16.54943"><ele>967.5</ele><time>2026-04-18T16:22:19.532Z</time></trkpt><trkpt lat="39.0347233" lon="16.549515"><ele>964.25</ele><time>2026-04-18T16:22:20.532Z</time></trkpt><trkpt lat="39.034585" lon="16.54957"><ele>961.0</ele><time>2026-04-18T16:22:21.533Z</time></trkpt><trkpt lat="39.0343817" lon="16.5496283"><ele>961.0</ele><time>2026-04-18T16:22:22.538Z</time></trkpt><trkpt lat="39.034315" lon="16.549795"><ele>961.0</ele><time>2026-04-18T16:22:23.532Z</time></trkpt><trkpt lat="39.03423" lon="16.5498217"><ele>961.0</ele><time>2026-04-18T16:22:24.533Z</time></trkpt><trkpt lat="39.0341033" lon="16.5499417"><ele>961.0</ele><time>2026-04-18T16:22:25.532Z</time></trkpt><trkpt lat="39.0340617" lon="16.5500417"><ele>956.5999999999999</ele><time>2026-04-18T16:22:27.533Z</time></trkpt><trkpt lat="39.0339917" lon="16.5500933"><ele>952.1999999999999</ele><time>2026-04-18T16:22:28.531Z</time></trkpt><trkpt lat="39.03389" lon="16.5501233"><ele>947.8000000000001</ele><time>2026-04-18T16:22:29.532Z</time></trkpt><trkpt lat="39.033765" lon="16.5501033"><ele>943.4000000000001</ele><time>2026-04-18T16:22:30.533Z</time></trkpt><trkpt lat="39.0336517" lon="16.5501"><ele>939.0</ele><time>2026-04-18T16:22:31.536Z</time></trkpt><trkpt lat="39.03352" lon="16.5500633"><ele>939.0</ele><time>2026-04-18T16:22:32.534Z</time></trkpt><trkpt lat="39.0333917" lon="16.55005"><ele>939.0</ele><time>2026-04-18T16:22:33.536Z</time></trkpt><trkpt lat="39.0332667" lon="16.55004"><ele>939.0</ele><time>2026-04-18T16:22:34.532Z</time></trkpt><trkpt lat="39.033165" lon="16.550095"><ele>939.0</ele><time>2026-04-18T16:22:35.532Z</time></trkpt><trkpt lat="39.0330783" lon="16.550205"><ele>935.0</ele><time>2026-04-18T16:22:36.532Z</time></trkpt><trkpt lat="39.032995" lon="16.55027"><ele>931.0000000000001</ele><time>2026-04-18T16:22:37.533Z</time></trkpt><trkpt lat="39.0328967" lon="16.55026"><ele>927.0000000000001</ele><time>2026-04-18T16:22:38.531Z</time></trkpt><trkpt lat="39.0327833" lon="16.5502083"><ele>923.0</ele><time>2026-04-18T16:22:39.533Z</time></trkpt><trkpt lat="39.03269" lon="16.55016"><ele>919.0</ele><time>2026-04-18T16:22:40.535Z</time></trkpt><trkpt lat="39.032605" lon="16.5500833"><ele>919.0</ele><time>2026-04-18T16:22:41.531Z</time></trkpt><trkpt lat="39.032575" lon="16.549985"><ele>919.0000000000001</ele><time>2026-04-18T16:22:42.53Z</time></trkpt><trkpt lat="39.0325533" lon="16.54989"><ele>919.0000000000001</ele><time>2026-04-18T16:22:43.534Z</time></trkpt><trkpt lat="39.0324633" lon="16.5498383"><ele>919.0</ele><time>2026-04-18T16:22:45.53Z</time></trkpt><trkpt lat="39.0323333" lon="16.5499133"><ele>919.0</ele><time>2026-04-18T16:22:47.532Z</time></trkpt><trkpt lat="39.032255" lon="16.54999"><ele>914.3333333333333</ele><time>2026-04-18T16:22:48.532Z</time></trkpt><trkpt lat="39.0322017" lon="16.55008"><ele>909.6666666666666</ele><time>2026-04-18T16:22:49.532Z</time></trkpt><trkpt lat="39.0321883" lon="16.5501783"><ele>905.0</ele><time>2026-04-18T16:22:50.531Z</time></trkpt><trkpt lat="39.0322133" lon="16.550275"><ele>900.3333333333333</ele><time>2026-04-18T16:22:51.53Z</time></trkpt><trkpt lat="39.0322617" lon="16.5503767"><ele>895.6666666666666</ele><time>2026-04-18T16:22:52.532Z</time></trkpt><trkpt lat="39.0323067" lon="16.550475"><ele>891.0</ele><time>2026-04-18T16:22:53.531Z</time></trkpt><trkpt lat="39.0323883" lon="16.5505283"><ele>891.0</ele><time>2026-04-18T16:22:54.532Z</time></trkpt><trkpt lat="39.032415" lon="16.5506033"><ele>891.0</ele><time>2026-04-18T16:22:55.532Z</time></trkpt><trkpt lat="39.0323783" lon="16.550685"><ele>891.0</ele><time>2026-04-18T16:22:57.533Z</time></trkpt><trkpt lat="39.03232" lon="16.5506483"><ele>891.0</ele><time>2026-04-18T16:22:59.53Z</time></trkpt><trkpt lat="39.032245" lon="16.550585"><ele>891.0</ele><time>2026-04-18T16:23:01.532Z</time></trkpt><trkpt lat="39.0321517" lon="16.5504667"><ele>891.0</ele><time>2026-04-18T16:23:02.531Z</time></trkpt><trkpt lat="39.0320733" lon="16.550345"><ele>891.0</ele><time>2026-04-18T16:23:03.534Z</time></trkpt><trkpt lat="39.032" lon="16.5502183"><ele>891.0</ele><time>2026-04-18T16:23:04.531Z</time></trkpt><trkpt lat="39.0319367" lon="16.5500833"><ele>891.0</ele><time>2026-04-18T16:23:05.532Z</time></trkpt><trkpt lat="39.031895" lon="16.5499483"><ele>891.0</ele><time>2026-04-18T16:23:06.532Z</time></trkpt><trkpt lat="39.031885" lon="16.5498167"><ele>891.0</ele><time>2026-04-18T16:23:07.532Z</time></trkpt><trkpt lat="39.03191" lon="16.5496983"><ele>890.9999999999999</ele><time>2026-04-18T16:23:08.532Z</time></trkpt><trkpt lat="39.0319483" lon="16.5495917"><ele>890.9999999999999</ele><time>2026-04-18T16:23:09.534Z</time></trkpt><trkpt lat="39.0320267" lon="16.54953"><ele>891.0</ele><time>2026-04-18T16:23:10.531Z</time></trkpt><trkpt lat="39.03208" lon="16.5494567"><ele>891.0</ele><time>2026-04-18T16:23:11.537Z</time></trkpt><trkpt lat="39.0320667" lon="16.54931"><ele>887.75</ele><time>2026-04-18T16:23:13.53Z</time></trkpt><trkpt lat="39.0318933" lon="16.54927"><ele>884.5</ele><time>2026-04-18T16:23:15.533Z</time></trkpt><trkpt lat="39.0317667" lon="16.54925"><ele>881.25</ele><time>2026-04-18T16:23:16.533Z</time></trkpt><trkpt lat="39.0316267" lon="16.5492083"><ele>878.0</ele><time>2026-04-18T16:23:17.533Z</time></trkpt><trkpt lat="39.0315017" lon="16.549205"><ele>874.0</ele><time>2026-04-18T16:23:18.534Z</time></trkpt><trkpt lat="39.0313883" lon="16.5492667"><ele>870.0</ele><time>2026-04-18T16:23:19.533Z</time></trkpt><trkpt lat="39.0312833" lon="16.54933"><ele>866.0</ele><time>2026-04-18T16:23:20.532Z</time></trkpt><trkpt lat="39.0311917" lon="16.5493867"><ele>862.0</ele><time>2026-04-18T16:23:21.529Z</time></trkpt><trkpt lat="39.031145" lon="16.5494633"><ele>858.0</ele><time>2026-04-18T16:23:22.53Z</time></trkpt><trkpt lat="39.0311467" lon="16.5495667"><ele>858.0</ele><time>2026-04-18T16:23:23.53Z</time></trkpt><trkpt lat="39.03121" lon="16.5496933"><ele>858.0</ele><time>2026-04-18T16:23:24.532Z</time></trkpt><trkpt lat="39.031255" lon="16.5498317"><ele>858.0</ele><time>2026-04-18T16:23:25.532Z</time></trkpt><trkpt lat="39.0312033" lon="16.5499733"><ele>858.0</ele><time>2026-04-18T16:23:26.532Z</time></trkpt><trkpt lat="39.0311767" lon="16.5501217"><ele>858.0</ele><time>2026-04-18T16:23:27.536Z</time></trkpt><trkpt lat="39.0311833" lon="16.550275"><ele>858.0</ele><time>2026-04-18T16:23:28.531Z</time></trkpt><trkpt lat="39.0311267" lon="16.5504017"><ele>858.0</ele><time>2026-04-18T16:23:29.531Z</time></trkpt><trkpt lat="39.0310517" lon="16.5505233"><ele>858.0</ele><time>2026-04-18T16:23:30.531Z</time></trkpt><trkpt lat="39.0310017" lon="16.5506483"><ele>857.3333333333334</ele><time>2026-04-18T16:23:31.533Z</time></trkpt><trkpt lat="39.0309383" lon="16.5507133"><ele>856.6666666666667</ele><time>2026-04-18T16:23:32.531Z</time></trkpt><trkpt lat="39.0308767" lon="16.5507483"><ele>856.0</ele><time>2026-04-18T16:23:33.535Z</time></trkpt><trkpt lat="39.0308033" lon="16.55074"><ele>855.3333333333334</ele><time>2026-04-18T16:23:34.533Z</time></trkpt><trkpt lat="39.03074" lon="16.5506483"><ele>854.6666666666667</ele><time>2026-04-18T16:23:35.532Z</time></trkpt><trkpt lat="39.0306783" lon="16.5505217"><ele>854.0</ele><time>2026-04-18T16:23:36.531Z</time></trkpt><trkpt lat="39.030595" lon="16.5504583"><ele>848.6</ele><time>2026-04-18T16:23:37.53Z</time></trkpt><trkpt lat="39.0305483" lon="16.5503783"><ele>843.2</ele><time>2026-04-18T16:23:38.533Z</time></trkpt><trkpt lat="39.030585" lon="16.5502383"><ele>837.8000000000001</ele><time>2026-04-18T16:23:40.533Z</time></trkpt><trkpt lat="39.0306583" lon="16.55017"><ele>832.4000000000001</ele><time>2026-04-18T16:23:41.533Z</time></trkpt><trkpt lat="39.0306683" lon="16.5500467"><ele>827.0</ele><time>2026-04-18T16:23:43.533Z</time></trkpt><trkpt lat="39.0305217" lon="16.5499667"><ele>827.0</ele><time>2026-04-18T16:23:45.535Z</time></trkpt><trkpt lat="39.0304283" lon="16.5498833"><ele>827.0</ele><time>2026-04-18T16:23:46.53Z</time></trkpt><trkpt lat="39.0303133" lon="16.5498083"><ele>827.0</ele><time>2026-04-18T16:23:47.536Z</time></trkpt><trkpt lat="39.0301967" lon="16.5497683"><ele>827.0</ele><time>2026-04-18T16:23:48.534Z</time></trkpt><trkpt lat="39.030085" lon="16.5497583"><ele>827.0</ele><time>2026-04-18T16:23:49.533Z</time></trkpt><trkpt lat="39.0299933" lon="16.5497783"><ele>827.0</ele><time>2026-04-18T16:23:50.532Z</time></trkpt><trkpt lat="39.0299167" lon="16.5498583"><ele>827.0</ele><time>2026-04-18T16:23:51.534Z</time></trkpt><trkpt lat="39.0298717" lon="16.549975"><ele>827.0</ele><time>2026-04-18T16:23:52.535Z</time></trkpt><trkpt lat="39.0298483" lon="16.5501083"><ele>827.0</ele><time>2026-04-18T16:23:53.534Z</time></trkpt><trkpt lat="39.02987" lon="16.5502517"><ele>819.8</ele><time>2026-04-18T16:23:54.534Z</time></trkpt><trkpt lat="39.02992" lon="16.5503867"><ele>812.6</ele><time>2026-04-18T16:23:55.536Z</time></trkpt><trkpt lat="39.0299533" lon="16.550515"><ele>805.4</ele><time>2026-04-18T16:23:56.531Z</time></trkpt><trkpt lat="39.0299317" lon="16.5506483"><ele>798.1999999999999</ele><time>2026-04-18T16:23:57.533Z</time></trkpt><trkpt lat="39.02989" lon="16.5507767"><ele>791.0</ele><time>2026-04-18T16:23:58.531Z</time></trkpt><trkpt lat="39.0298517" lon="16.5508867"><ele>791.0000000000001</ele><time>2026-04-18T16:23:59.531Z</time></trkpt><trkpt lat="39.02981" lon="16.5509717"><ele>791.0</ele><time>2026-04-18T16:24:00.534Z</time></trkpt><trkpt lat="39.0297833" lon="16.5510467"><ele>791.0</ele><time>2026-04-18T16:24:01.531Z</time></trkpt><trkpt lat="39.0297117" lon="16.5511517"><ele>791.0</ele><time>2026-04-18T16:24:03.533Z</time></trkpt><trkpt lat="39.0296617" lon="16.5512433"><ele>791.0000000000001</ele><time>2026-04-18T16:24:05.531Z</time></trkpt><trkpt lat="39.0296067" lon="16.551335"><ele>791.0</ele><time>2026-04-18T16:24:07.53Z</time></trkpt><trkpt lat="39.02957" lon="16.5514117"><ele>804.0</ele><time>2026-04-18T16:24:08.533Z</time></trkpt><trkpt lat="39.02952" lon="16.5514967"><ele>804.0</ele><time>2026-04-18T16:24:09.531Z</time></trkpt><trkpt lat="39.029465" lon="16.5515867"><ele>804.0</ele><time>2026-04-18T16:24:10.53Z</time></trkpt><trkpt lat="39.02941" lon="16.551685"><ele>804.0</ele><time>2026-04-18T16:24:11.53Z</time></trkpt></trkseg></trk></gpx>